<?xml version="1.0" encoding="UTF-8" standalone="no" ?>
<gpx xmlns="http://www.topografix.com/GPX/1/1" xmlns:xsi="http://www.w3.org/2001/XMLSchema-instance" xsi:schemaLocation="http://www.topografix.com/GPX/1/1 http://www.topografix.com/GPX/1/1/gpx.xsd" version="1.1" creator="VisuGPX - https://www.visugpx.com">
  <metadata>
    <name>Ampiac - Bois de l\'Ours - Ruols</name>
    <desc><![CDATA[Ampiac - Bois de l\'Ours - Ruols
13km]]></desc>
  </metadata>
  <trk>
    <name><![CDATA[30 déc. 2012 13:37:16]]></name>
    <cmt><![CDATA[30 déc. 2012 13:37:16]]></cmt>
    <trkseg>
      <trkpt lat="44.3472" lon="2.48987">
        <ele>565</ele>
        <time>2012-12-30T12:37:17Z</time>
      </trkpt>
      <trkpt lat="44.3471" lon="2.48992">
        <ele>571</ele>
        <time>2012-12-30T12:37:22Z</time>
      </trkpt>
      <trkpt lat="44.34703" lon="2.49002">
        <ele>575</ele>
        <time>2012-12-30T12:37:27Z</time>
      </trkpt>
      <trkpt lat="44.347" lon="2.49011">
        <ele>578</ele>
        <time>2012-12-30T12:37:31Z</time>
      </trkpt>
      <trkpt lat="44.34697" lon="2.49017">
        <ele>580</ele>
        <time>2012-12-30T12:37:35Z</time>
      </trkpt>
      <trkpt lat="44.34694" lon="2.49023">
        <ele>581</ele>
        <time>2012-12-30T12:37:38Z</time>
      </trkpt>
      <trkpt lat="44.34693" lon="2.49029">
        <ele>582</ele>
        <time>2012-12-30T12:37:41Z</time>
      </trkpt>
      <trkpt lat="44.34691" lon="2.49038">
        <ele>582</ele>
        <time>2012-12-30T12:37:45Z</time>
      </trkpt>
      <trkpt lat="44.34687" lon="2.49044">
        <ele>582</ele>
        <time>2012-12-30T12:37:49Z</time>
      </trkpt>
      <trkpt lat="44.34682" lon="2.49055">
        <ele>583</ele>
        <time>2012-12-30T12:37:55Z</time>
      </trkpt>
      <trkpt lat="44.3468" lon="2.49062">
        <ele>582</ele>
        <time>2012-12-30T12:37:57Z</time>
      </trkpt>
      <trkpt lat="44.34677" lon="2.49075">
        <ele>582</ele>
        <time>2012-12-30T12:38:02Z</time>
      </trkpt>
      <trkpt lat="44.34676" lon="2.49084">
        <ele>581</ele>
        <time>2012-12-30T12:38:05Z</time>
      </trkpt>
      <trkpt lat="44.34676" lon="2.49091">
        <ele>581</ele>
        <time>2012-12-30T12:38:08Z</time>
      </trkpt>
      <trkpt lat="44.34677" lon="2.49104">
        <ele>582</ele>
        <time>2012-12-30T12:38:13Z</time>
      </trkpt>
      <trkpt lat="44.34679" lon="2.49114">
        <ele>582</ele>
        <time>2012-12-30T12:38:17Z</time>
      </trkpt>
      <trkpt lat="44.34677" lon="2.49121">
        <ele>583</ele>
        <time>2012-12-30T12:38:20Z</time>
      </trkpt>
      <trkpt lat="44.34674" lon="2.49127">
        <ele>582</ele>
        <time>2012-12-30T12:38:24Z</time>
      </trkpt>
      <trkpt lat="44.34669" lon="2.49129">
        <ele>581</ele>
        <time>2012-12-30T12:38:27Z</time>
      </trkpt>
      <trkpt lat="44.34665" lon="2.49132">
        <ele>580</ele>
        <time>2012-12-30T12:38:30Z</time>
      </trkpt>
      <trkpt lat="44.34661" lon="2.49136">
        <ele>579</ele>
        <time>2012-12-30T12:38:33Z</time>
      </trkpt>
      <trkpt lat="44.34652" lon="2.49143">
        <ele>577</ele>
        <time>2012-12-30T12:38:39Z</time>
      </trkpt>
      <trkpt lat="44.34647" lon="2.49154">
        <ele>575</ele>
        <time>2012-12-30T12:38:45Z</time>
      </trkpt>
      <trkpt lat="44.34641" lon="2.49164">
        <ele>574</ele>
        <time>2012-12-30T12:38:50Z</time>
      </trkpt>
      <trkpt lat="44.34638" lon="2.49176">
        <ele>573</ele>
        <time>2012-12-30T12:38:56Z</time>
      </trkpt>
      <trkpt lat="44.34637" lon="2.49188">
        <ele>573</ele>
        <time>2012-12-30T12:39:01Z</time>
      </trkpt>
      <trkpt lat="44.34638" lon="2.49197">
        <ele>573</ele>
        <time>2012-12-30T12:39:04Z</time>
      </trkpt>
      <trkpt lat="44.34637" lon="2.49204">
        <ele>573</ele>
        <time>2012-12-30T12:39:07Z</time>
      </trkpt>
      <trkpt lat="44.34638" lon="2.49211">
        <ele>573</ele>
        <time>2012-12-30T12:39:10Z</time>
      </trkpt>
      <trkpt lat="44.3464" lon="2.49219">
        <ele>573</ele>
        <time>2012-12-30T12:39:13Z</time>
      </trkpt>
      <trkpt lat="44.34637" lon="2.4923">
        <ele>574</ele>
        <time>2012-12-30T12:39:20Z</time>
      </trkpt>
      <trkpt lat="44.34628" lon="2.49225">
        <ele>572</ele>
        <time>2012-12-30T12:39:28Z</time>
      </trkpt>
      <trkpt lat="44.34625" lon="2.49212">
        <ele>571</ele>
        <time>2012-12-30T12:39:32Z</time>
      </trkpt>
      <trkpt lat="44.34625" lon="2.49199">
        <ele>569</ele>
        <time>2012-12-30T12:39:37Z</time>
      </trkpt>
      <trkpt lat="44.34623" lon="2.49185">
        <ele>566</ele>
        <time>2012-12-30T12:39:43Z</time>
      </trkpt>
      <trkpt lat="44.34622" lon="2.49175">
        <ele>564</ele>
        <time>2012-12-30T12:39:48Z</time>
      </trkpt>
      <trkpt lat="44.34623" lon="2.49162">
        <ele>563</ele>
        <time>2012-12-30T12:39:54Z</time>
      </trkpt>
      <trkpt lat="44.34624" lon="2.49155">
        <ele>563</ele>
        <time>2012-12-30T12:39:57Z</time>
      </trkpt>
      <trkpt lat="44.34625" lon="2.49142">
        <ele>561</ele>
        <time>2012-12-30T12:40:03Z</time>
      </trkpt>
      <trkpt lat="44.34626" lon="2.49128">
        <ele>559</ele>
        <time>2012-12-30T12:40:09Z</time>
      </trkpt>
      <trkpt lat="44.3463" lon="2.49115">
        <ele>558</ele>
        <time>2012-12-30T12:40:15Z</time>
      </trkpt>
      <trkpt lat="44.34636" lon="2.49103">
        <ele>557</ele>
        <time>2012-12-30T12:40:21Z</time>
      </trkpt>
      <trkpt lat="44.34638" lon="2.49096">
        <ele>557</ele>
        <time>2012-12-30T12:40:24Z</time>
      </trkpt>
      <trkpt lat="44.34641" lon="2.49083">
        <ele>557</ele>
        <time>2012-12-30T12:40:29Z</time>
      </trkpt>
      <trkpt lat="44.34639" lon="2.49071">
        <ele>557</ele>
        <time>2012-12-30T12:40:33Z</time>
      </trkpt>
      <trkpt lat="44.34636" lon="2.49056">
        <ele>557</ele>
        <time>2012-12-30T12:40:39Z</time>
      </trkpt>
      <trkpt lat="44.34635" lon="2.49044">
        <ele>556</ele>
        <time>2012-12-30T12:40:45Z</time>
      </trkpt>
      <trkpt lat="44.34637" lon="2.4903">
        <ele>554</ele>
        <time>2012-12-30T12:40:50Z</time>
      </trkpt>
      <trkpt lat="44.34638" lon="2.49018">
        <ele>554</ele>
        <time>2012-12-30T12:40:55Z</time>
      </trkpt>
      <trkpt lat="44.34638" lon="2.49005">
        <ele>554</ele>
        <time>2012-12-30T12:41:00Z</time>
      </trkpt>
      <trkpt lat="44.34639" lon="2.48998">
        <ele>554</ele>
        <time>2012-12-30T12:41:03Z</time>
      </trkpt>
      <trkpt lat="44.34641" lon="2.48985">
        <ele>552</ele>
        <time>2012-12-30T12:41:10Z</time>
      </trkpt>
      <trkpt lat="44.34645" lon="2.48972">
        <ele>549</ele>
        <time>2012-12-30T12:41:16Z</time>
      </trkpt>
      <trkpt lat="44.34644" lon="2.48959">
        <ele>549</ele>
        <time>2012-12-30T12:41:22Z</time>
      </trkpt>
      <trkpt lat="44.34635" lon="2.48954">
        <ele>548</ele>
        <time>2012-12-30T12:41:29Z</time>
      </trkpt>
      <trkpt lat="44.3463" lon="2.48966">
        <ele>547</ele>
        <time>2012-12-30T12:41:33Z</time>
      </trkpt>
      <trkpt lat="44.34628" lon="2.48979">
        <ele>548</ele>
        <time>2012-12-30T12:41:38Z</time>
      </trkpt>
      <trkpt lat="44.34627" lon="2.4899">
        <ele>549</ele>
        <time>2012-12-30T12:41:43Z</time>
      </trkpt>
      <trkpt lat="44.34626" lon="2.48998">
        <ele>550</ele>
        <time>2012-12-30T12:41:46Z</time>
      </trkpt>
      <trkpt lat="44.34624" lon="2.49011">
        <ele>551</ele>
        <time>2012-12-30T12:41:51Z</time>
      </trkpt>
      <trkpt lat="44.34623" lon="2.4902">
        <ele>551</ele>
        <time>2012-12-30T12:41:54Z</time>
      </trkpt>
      <trkpt lat="44.34621" lon="2.49033">
        <ele>553</ele>
        <time>2012-12-30T12:41:59Z</time>
      </trkpt>
      <trkpt lat="44.34619" lon="2.49043">
        <ele>555</ele>
        <time>2012-12-30T12:42:03Z</time>
      </trkpt>
      <trkpt lat="44.34615" lon="2.49054">
        <ele>556</ele>
        <time>2012-12-30T12:42:11Z</time>
      </trkpt>
      <trkpt lat="44.34613" lon="2.4906">
        <ele>555</ele>
        <time>2012-12-30T12:42:15Z</time>
      </trkpt>
      <trkpt lat="44.34611" lon="2.49068">
        <ele>553</ele>
        <time>2012-12-30T12:42:19Z</time>
      </trkpt>
      <trkpt lat="44.34608" lon="2.49074">
        <ele>552</ele>
        <time>2012-12-30T12:42:23Z</time>
      </trkpt>
      <trkpt lat="44.34603" lon="2.49078">
        <ele>552</ele>
        <time>2012-12-30T12:42:26Z</time>
      </trkpt>
      <trkpt lat="44.34599" lon="2.49081">
        <ele>552</ele>
        <time>2012-12-30T12:42:29Z</time>
      </trkpt>
      <trkpt lat="44.34592" lon="2.49088">
        <ele>550</ele>
        <time>2012-12-30T12:42:35Z</time>
      </trkpt>
      <trkpt lat="44.34587" lon="2.49094">
        <ele>550</ele>
        <time>2012-12-30T12:42:38Z</time>
      </trkpt>
      <trkpt lat="44.34584" lon="2.491">
        <ele>549</ele>
        <time>2012-12-30T12:42:41Z</time>
      </trkpt>
      <trkpt lat="44.3458" lon="2.49106">
        <ele>549</ele>
        <time>2012-12-30T12:42:44Z</time>
      </trkpt>
      <trkpt lat="44.34576" lon="2.49112">
        <ele>548</ele>
        <time>2012-12-30T12:42:47Z</time>
      </trkpt>
      <trkpt lat="44.34573" lon="2.49118">
        <ele>546</ele>
        <time>2012-12-30T12:42:50Z</time>
      </trkpt>
      <trkpt lat="44.34569" lon="2.49124">
        <ele>543</ele>
        <time>2012-12-30T12:42:53Z</time>
      </trkpt>
      <trkpt lat="44.34566" lon="2.49131">
        <ele>541</ele>
        <time>2012-12-30T12:42:56Z</time>
      </trkpt>
      <trkpt lat="44.34562" lon="2.49142">
        <ele>538</ele>
        <time>2012-12-30T12:43:01Z</time>
      </trkpt>
      <trkpt lat="44.34558" lon="2.49149">
        <ele>538</ele>
        <time>2012-12-30T12:43:04Z</time>
      </trkpt>
      <trkpt lat="44.34553" lon="2.4916">
        <ele>538</ele>
        <time>2012-12-30T12:43:10Z</time>
      </trkpt>
      <trkpt lat="44.34548" lon="2.49168">
        <ele>540</ele>
        <time>2012-12-30T12:43:14Z</time>
      </trkpt>
      <trkpt lat="44.34545" lon="2.49178">
        <ele>542</ele>
        <time>2012-12-30T12:43:19Z</time>
      </trkpt>
      <trkpt lat="44.34546" lon="2.49185">
        <ele>541</ele>
        <time>2012-12-30T12:43:22Z</time>
      </trkpt>
      <trkpt lat="44.34546" lon="2.49193">
        <ele>539</ele>
        <time>2012-12-30T12:43:26Z</time>
      </trkpt>
      <trkpt lat="44.34545" lon="2.49202">
        <ele>537</ele>
        <time>2012-12-30T12:43:30Z</time>
      </trkpt>
      <trkpt lat="44.34544" lon="2.49209">
        <ele>536</ele>
        <time>2012-12-30T12:43:33Z</time>
      </trkpt>
      <trkpt lat="44.34535" lon="2.49209">
        <ele>533</ele>
        <time>2012-12-30T12:43:43Z</time>
      </trkpt>
      <trkpt lat="44.34526" lon="2.49207">
        <ele>532</ele>
        <time>2012-12-30T12:43:48Z</time>
      </trkpt>
      <trkpt lat="44.34517" lon="2.492">
        <ele>531</ele>
        <time>2012-12-30T12:43:54Z</time>
      </trkpt>
      <trkpt lat="44.3451" lon="2.49188">
        <ele>530</ele>
        <time>2012-12-30T12:43:59Z</time>
      </trkpt>
      <trkpt lat="44.34501" lon="2.49194">
        <ele>530</ele>
        <time>2012-12-30T12:44:08Z</time>
      </trkpt>
      <trkpt lat="44.34497" lon="2.49206">
        <ele>530</ele>
        <time>2012-12-30T12:44:13Z</time>
      </trkpt>
      <trkpt lat="44.34496" lon="2.49215">
        <ele>530</ele>
        <time>2012-12-30T12:44:16Z</time>
      </trkpt>
      <trkpt lat="44.34493" lon="2.49227">
        <ele>529</ele>
        <time>2012-12-30T12:44:21Z</time>
      </trkpt>
      <trkpt lat="44.34492" lon="2.49234">
        <ele>529</ele>
        <time>2012-12-30T12:44:25Z</time>
      </trkpt>
      <trkpt lat="44.34487" lon="2.49246">
        <ele>529</ele>
        <time>2012-12-30T12:44:31Z</time>
      </trkpt>
      <trkpt lat="44.34481" lon="2.49256">
        <ele>528</ele>
        <time>2012-12-30T12:44:36Z</time>
      </trkpt>
      <trkpt lat="44.34478" lon="2.49262">
        <ele>529</ele>
        <time>2012-12-30T12:44:41Z</time>
      </trkpt>
      <trkpt lat="44.34475" lon="2.49268">
        <ele>530</ele>
        <time>2012-12-30T12:44:44Z</time>
      </trkpt>
      <trkpt lat="44.3447" lon="2.49274">
        <ele>531</ele>
        <time>2012-12-30T12:44:49Z</time>
      </trkpt>
      <trkpt lat="44.34465" lon="2.49284">
        <ele>531</ele>
        <time>2012-12-30T12:44:54Z</time>
      </trkpt>
      <trkpt lat="44.34458" lon="2.49296">
        <ele>531</ele>
        <time>2012-12-30T12:44:59Z</time>
      </trkpt>
      <trkpt lat="44.34455" lon="2.49302">
        <ele>530</ele>
        <time>2012-12-30T12:45:02Z</time>
      </trkpt>
      <trkpt lat="44.34452" lon="2.49307">
        <ele>528</ele>
        <time>2012-12-30T12:45:05Z</time>
      </trkpt>
      <trkpt lat="44.34446" lon="2.49318">
        <ele>525</ele>
        <time>2012-12-30T12:45:11Z</time>
      </trkpt>
      <trkpt lat="44.34442" lon="2.49324">
        <ele>524</ele>
        <time>2012-12-30T12:45:14Z</time>
      </trkpt>
      <trkpt lat="44.34439" lon="2.49331">
        <ele>524</ele>
        <time>2012-12-30T12:45:18Z</time>
      </trkpt>
      <trkpt lat="44.34436" lon="2.49336">
        <ele>524</ele>
        <time>2012-12-30T12:45:21Z</time>
      </trkpt>
      <trkpt lat="44.34431" lon="2.49346">
        <ele>523</ele>
        <time>2012-12-30T12:45:28Z</time>
      </trkpt>
      <trkpt lat="44.34426" lon="2.49357">
        <ele>523</ele>
        <time>2012-12-30T12:45:33Z</time>
      </trkpt>
      <trkpt lat="44.34419" lon="2.49368">
        <ele>523</ele>
        <time>2012-12-30T12:45:39Z</time>
      </trkpt>
      <trkpt lat="44.34415" lon="2.49374">
        <ele>524</ele>
        <time>2012-12-30T12:45:42Z</time>
      </trkpt>
      <trkpt lat="44.34412" lon="2.49379">
        <ele>524</ele>
        <time>2012-12-30T12:45:45Z</time>
      </trkpt>
      <trkpt lat="44.34408" lon="2.49386">
        <ele>525</ele>
        <time>2012-12-30T12:45:49Z</time>
      </trkpt>
      <trkpt lat="44.34405" lon="2.49392">
        <ele>525</ele>
        <time>2012-12-30T12:45:52Z</time>
      </trkpt>
      <trkpt lat="44.34402" lon="2.49397">
        <ele>524</ele>
        <time>2012-12-30T12:45:55Z</time>
      </trkpt>
      <trkpt lat="44.34398" lon="2.49403">
        <ele>524</ele>
        <time>2012-12-30T12:45:58Z</time>
      </trkpt>
      <trkpt lat="44.34395" lon="2.49409">
        <ele>524</ele>
        <time>2012-12-30T12:46:01Z</time>
      </trkpt>
      <trkpt lat="44.3439" lon="2.49415">
        <ele>524</ele>
        <time>2012-12-30T12:46:05Z</time>
      </trkpt>
      <trkpt lat="44.34387" lon="2.49423">
        <ele>523</ele>
        <time>2012-12-30T12:46:09Z</time>
      </trkpt>
      <trkpt lat="44.34384" lon="2.49428">
        <ele>522</ele>
        <time>2012-12-30T12:46:12Z</time>
      </trkpt>
      <trkpt lat="44.34381" lon="2.49435">
        <ele>522</ele>
        <time>2012-12-30T12:46:15Z</time>
      </trkpt>
      <trkpt lat="44.34378" lon="2.4944">
        <ele>522</ele>
        <time>2012-12-30T12:46:18Z</time>
      </trkpt>
      <trkpt lat="44.34375" lon="2.49445">
        <ele>521</ele>
        <time>2012-12-30T12:46:21Z</time>
      </trkpt>
      <trkpt lat="44.34371" lon="2.49449">
        <ele>521</ele>
        <time>2012-12-30T12:46:24Z</time>
      </trkpt>
      <trkpt lat="44.34366" lon="2.49453">
        <ele>521</ele>
        <time>2012-12-30T12:46:27Z</time>
      </trkpt>
      <trkpt lat="44.3436" lon="2.49457">
        <ele>522</ele>
        <time>2012-12-30T12:46:31Z</time>
      </trkpt>
      <trkpt lat="44.34356" lon="2.49462">
        <ele>522</ele>
        <time>2012-12-30T12:46:34Z</time>
      </trkpt>
      <trkpt lat="44.34351" lon="2.49467">
        <ele>522</ele>
        <time>2012-12-30T12:46:37Z</time>
      </trkpt>
      <trkpt lat="44.34347" lon="2.49472">
        <ele>523</ele>
        <time>2012-12-30T12:46:40Z</time>
      </trkpt>
      <trkpt lat="44.34338" lon="2.49475">
        <ele>522</ele>
        <time>2012-12-30T12:46:46Z</time>
      </trkpt>
      <trkpt lat="44.34329" lon="2.4948">
        <ele>522</ele>
        <time>2012-12-30T12:46:54Z</time>
      </trkpt>
      <trkpt lat="44.34319" lon="2.49483">
        <ele>522</ele>
        <time>2012-12-30T12:46:59Z</time>
      </trkpt>
      <trkpt lat="44.34313" lon="2.49487">
        <ele>523</ele>
        <time>2012-12-30T12:47:02Z</time>
      </trkpt>
      <trkpt lat="44.34309" lon="2.4949">
        <ele>522</ele>
        <time>2012-12-30T12:47:05Z</time>
      </trkpt>
      <trkpt lat="44.34305" lon="2.49495">
        <ele>521</ele>
        <time>2012-12-30T12:47:08Z</time>
      </trkpt>
      <trkpt lat="44.34299" lon="2.49501">
        <ele>521</ele>
        <time>2012-12-30T12:47:12Z</time>
      </trkpt>
      <trkpt lat="44.34295" lon="2.49507">
        <ele>520</ele>
        <time>2012-12-30T12:47:15Z</time>
      </trkpt>
      <trkpt lat="44.34292" lon="2.49511">
        <ele>521</ele>
        <time>2012-12-30T12:47:18Z</time>
      </trkpt>
      <trkpt lat="44.34284" lon="2.49519">
        <ele>521</ele>
        <time>2012-12-30T12:47:24Z</time>
      </trkpt>
      <trkpt lat="44.3428" lon="2.49524">
        <ele>521</ele>
        <time>2012-12-30T12:47:28Z</time>
      </trkpt>
      <trkpt lat="44.34275" lon="2.49527">
        <ele>522</ele>
        <time>2012-12-30T12:47:31Z</time>
      </trkpt>
      <trkpt lat="44.3427" lon="2.4953">
        <ele>522</ele>
        <time>2012-12-30T12:47:34Z</time>
      </trkpt>
      <trkpt lat="44.34267" lon="2.49532">
        <ele>526</ele>
        <time>2012-12-30T12:47:56Z</time>
      </trkpt>
      <trkpt lat="44.34264" lon="2.49533">
        <ele>526</ele>
        <time>2012-12-30T12:49:08Z</time>
      </trkpt>
      <trkpt lat="44.34262" lon="2.49532">
        <ele>525</ele>
        <time>2012-12-30T12:50:22Z</time>
      </trkpt>
      <trkpt lat="44.34259" lon="2.4953">
        <ele>525</ele>
        <time>2012-12-30T12:50:39Z</time>
      </trkpt>
      <trkpt lat="44.34252" lon="2.49533">
        <ele>526</ele>
        <time>2012-12-30T12:51:12Z</time>
      </trkpt>
      <trkpt lat="44.34254" lon="2.49531">
        <ele>526</ele>
        <time>2012-12-30T12:51:35Z</time>
      </trkpt>
      <trkpt lat="44.34256" lon="2.49533">
        <ele>525</ele>
        <time>2012-12-30T12:51:57Z</time>
      </trkpt>
      <trkpt lat="44.34258" lon="2.49527">
        <ele>525</ele>
        <time>2012-12-30T12:52:50Z</time>
      </trkpt>
      <trkpt lat="44.34259" lon="2.4953">
        <ele>526</ele>
        <time>2012-12-30T12:54:00Z</time>
      </trkpt>
      <trkpt lat="44.34258" lon="2.4954">
        <ele>525</ele>
        <time>2012-12-30T12:55:02Z</time>
      </trkpt>
      <trkpt lat="44.34258" lon="2.49537">
        <ele>523</ele>
        <time>2012-12-30T12:55:20Z</time>
      </trkpt>
      <trkpt lat="44.34259" lon="2.49533">
        <ele>523</ele>
        <time>2012-12-30T12:55:27Z</time>
      </trkpt>
      <trkpt lat="44.34259" lon="2.49528">
        <ele>522</ele>
        <time>2012-12-30T12:56:13Z</time>
      </trkpt>
      <trkpt lat="44.34257" lon="2.4953">
        <ele>524</ele>
        <time>2012-12-30T12:59:52Z</time>
      </trkpt>
      <trkpt lat="44.3426" lon="2.49531">
        <ele>524</ele>
        <time>2012-12-30T13:02:48Z</time>
      </trkpt>
      <trkpt lat="44.34264" lon="2.4953">
        <ele>524</ele>
        <time>2012-12-30T13:04:08Z</time>
      </trkpt>
      <trkpt lat="44.34267" lon="2.49526">
        <ele>524</ele>
        <time>2012-12-30T13:04:13Z</time>
      </trkpt>
      <trkpt lat="44.34271" lon="2.49525">
        <ele>524</ele>
        <time>2012-12-30T13:04:51Z</time>
      </trkpt>
      <trkpt lat="44.34274" lon="2.49527">
        <ele>524</ele>
        <time>2012-12-30T13:05:15Z</time>
      </trkpt>
      <trkpt lat="44.34281" lon="2.49514">
        <ele>526</ele>
        <time>2012-12-30T13:05:42Z</time>
      </trkpt>
      <trkpt lat="44.34291" lon="2.49507">
        <ele>526</ele>
        <time>2012-12-30T13:05:48Z</time>
      </trkpt>
      <trkpt lat="44.34299" lon="2.495">
        <ele>528</ele>
        <time>2012-12-30T13:05:55Z</time>
      </trkpt>
      <trkpt lat="44.34302" lon="2.49494">
        <ele>528</ele>
        <time>2012-12-30T13:05:59Z</time>
      </trkpt>
      <trkpt lat="44.34305" lon="2.49488">
        <ele>528</ele>
        <time>2012-12-30T13:06:02Z</time>
      </trkpt>
      <trkpt lat="44.34303" lon="2.49485">
        <ele>525</ele>
        <time>2012-12-30T13:06:20Z</time>
      </trkpt>
      <trkpt lat="44.34297" lon="2.49478">
        <ele>524</ele>
        <time>2012-12-30T13:06:29Z</time>
      </trkpt>
      <trkpt lat="44.34293" lon="2.49476">
        <ele>525</ele>
        <time>2012-12-30T13:06:32Z</time>
      </trkpt>
      <trkpt lat="44.34288" lon="2.49474">
        <ele>524</ele>
        <time>2012-12-30T13:06:35Z</time>
      </trkpt>
      <trkpt lat="44.34283" lon="2.49474">
        <ele>523</ele>
        <time>2012-12-30T13:06:38Z</time>
      </trkpt>
      <trkpt lat="44.34278" lon="2.49474">
        <ele>522</ele>
        <time>2012-12-30T13:06:41Z</time>
      </trkpt>
      <trkpt lat="44.34273" lon="2.49473">
        <ele>522</ele>
        <time>2012-12-30T13:06:44Z</time>
      </trkpt>
      <trkpt lat="44.34266" lon="2.4947">
        <ele>520</ele>
        <time>2012-12-30T13:06:49Z</time>
      </trkpt>
      <trkpt lat="44.34261" lon="2.49469">
        <ele>519</ele>
        <time>2012-12-30T13:06:53Z</time>
      </trkpt>
      <trkpt lat="44.34254" lon="2.49468">
        <ele>518</ele>
        <time>2012-12-30T13:06:58Z</time>
      </trkpt>
      <trkpt lat="44.34243" lon="2.49467">
        <ele>516</ele>
        <time>2012-12-30T13:07:04Z</time>
      </trkpt>
      <trkpt lat="44.34238" lon="2.49465">
        <ele>515</ele>
        <time>2012-12-30T13:07:08Z</time>
      </trkpt>
      <trkpt lat="44.34233" lon="2.49463">
        <ele>514</ele>
        <time>2012-12-30T13:07:11Z</time>
      </trkpt>
      <trkpt lat="44.34226" lon="2.49462">
        <ele>514</ele>
        <time>2012-12-30T13:07:15Z</time>
      </trkpt>
      <trkpt lat="44.34221" lon="2.49461">
        <ele>513</ele>
        <time>2012-12-30T13:07:18Z</time>
      </trkpt>
      <trkpt lat="44.34215" lon="2.4946">
        <ele>513</ele>
        <time>2012-12-30T13:07:22Z</time>
      </trkpt>
      <trkpt lat="44.34206" lon="2.4946">
        <ele>512</ele>
        <time>2012-12-30T13:07:27Z</time>
      </trkpt>
      <trkpt lat="44.34201" lon="2.49459">
        <ele>512</ele>
        <time>2012-12-30T13:07:30Z</time>
      </trkpt>
      <trkpt lat="44.34196" lon="2.49458">
        <ele>511</ele>
        <time>2012-12-30T13:07:34Z</time>
      </trkpt>
      <trkpt lat="44.34191" lon="2.49457">
        <ele>510</ele>
        <time>2012-12-30T13:07:38Z</time>
      </trkpt>
      <trkpt lat="44.34186" lon="2.49458">
        <ele>509</ele>
        <time>2012-12-30T13:07:42Z</time>
      </trkpt>
      <trkpt lat="44.34179" lon="2.49458">
        <ele>508</ele>
        <time>2012-12-30T13:07:46Z</time>
      </trkpt>
      <trkpt lat="44.34174" lon="2.49459">
        <ele>508</ele>
        <time>2012-12-30T13:07:49Z</time>
      </trkpt>
      <trkpt lat="44.34164" lon="2.49463">
        <ele>508</ele>
        <time>2012-12-30T13:07:55Z</time>
      </trkpt>
      <trkpt lat="44.34158" lon="2.49465">
        <ele>507</ele>
        <time>2012-12-30T13:07:59Z</time>
      </trkpt>
      <trkpt lat="44.34153" lon="2.49467">
        <ele>507</ele>
        <time>2012-12-30T13:08:02Z</time>
      </trkpt>
      <trkpt lat="44.34148" lon="2.49469">
        <ele>507</ele>
        <time>2012-12-30T13:08:05Z</time>
      </trkpt>
      <trkpt lat="44.34139" lon="2.49473">
        <ele>506</ele>
        <time>2012-12-30T13:08:12Z</time>
      </trkpt>
      <trkpt lat="44.3413" lon="2.49478">
        <ele>506</ele>
        <time>2012-12-30T13:08:18Z</time>
      </trkpt>
      <trkpt lat="44.34121" lon="2.49483">
        <ele>505</ele>
        <time>2012-12-30T13:08:25Z</time>
      </trkpt>
      <trkpt lat="44.34113" lon="2.49487">
        <ele>505</ele>
        <time>2012-12-30T13:08:31Z</time>
      </trkpt>
      <trkpt lat="44.34107" lon="2.4949">
        <ele>505</ele>
        <time>2012-12-30T13:08:34Z</time>
      </trkpt>
      <trkpt lat="44.34102" lon="2.49491">
        <ele>506</ele>
        <time>2012-12-30T13:08:37Z</time>
      </trkpt>
      <trkpt lat="44.34092" lon="2.49494">
        <ele>505</ele>
        <time>2012-12-30T13:08:43Z</time>
      </trkpt>
      <trkpt lat="44.34087" lon="2.49496">
        <ele>505</ele>
        <time>2012-12-30T13:08:47Z</time>
      </trkpt>
      <trkpt lat="44.34082" lon="2.49499">
        <ele>505</ele>
        <time>2012-12-30T13:08:51Z</time>
      </trkpt>
      <trkpt lat="44.34077" lon="2.49501">
        <ele>505</ele>
        <time>2012-12-30T13:08:54Z</time>
      </trkpt>
      <trkpt lat="44.34071" lon="2.49504">
        <ele>504</ele>
        <time>2012-12-30T13:08:58Z</time>
      </trkpt>
      <trkpt lat="44.34066" lon="2.49506">
        <ele>504</ele>
        <time>2012-12-30T13:09:01Z</time>
      </trkpt>
      <trkpt lat="44.34062" lon="2.49508">
        <ele>504</ele>
        <time>2012-12-30T13:09:04Z</time>
      </trkpt>
      <trkpt lat="44.34057" lon="2.49511">
        <ele>504</ele>
        <time>2012-12-30T13:09:07Z</time>
      </trkpt>
      <trkpt lat="44.34052" lon="2.49513">
        <ele>504</ele>
        <time>2012-12-30T13:09:10Z</time>
      </trkpt>
      <trkpt lat="44.34047" lon="2.49516">
        <ele>504</ele>
        <time>2012-12-30T13:09:14Z</time>
      </trkpt>
      <trkpt lat="44.34041" lon="2.49518">
        <ele>503</ele>
        <time>2012-12-30T13:09:19Z</time>
      </trkpt>
      <trkpt lat="44.34036" lon="2.4952">
        <ele>502</ele>
        <time>2012-12-30T13:09:22Z</time>
      </trkpt>
      <trkpt lat="44.34032" lon="2.49522">
        <ele>502</ele>
        <time>2012-12-30T13:09:25Z</time>
      </trkpt>
      <trkpt lat="44.34025" lon="2.49526">
        <ele>501</ele>
        <time>2012-12-30T13:09:30Z</time>
      </trkpt>
      <trkpt lat="44.34021" lon="2.49527">
        <ele>500</ele>
        <time>2012-12-30T13:09:34Z</time>
      </trkpt>
      <trkpt lat="44.34011" lon="2.49531">
        <ele>500</ele>
        <time>2012-12-30T13:09:40Z</time>
      </trkpt>
      <trkpt lat="44.34006" lon="2.49534">
        <ele>500</ele>
        <time>2012-12-30T13:09:43Z</time>
      </trkpt>
      <trkpt lat="44.33997" lon="2.49538">
        <ele>499</ele>
        <time>2012-12-30T13:09:49Z</time>
      </trkpt>
      <trkpt lat="44.33989" lon="2.49543">
        <ele>497</ele>
        <time>2012-12-30T13:09:55Z</time>
      </trkpt>
      <trkpt lat="44.3398" lon="2.49548">
        <ele>495</ele>
        <time>2012-12-30T13:10:02Z</time>
      </trkpt>
      <trkpt lat="44.33975" lon="2.49551">
        <ele>494</ele>
        <time>2012-12-30T13:10:05Z</time>
      </trkpt>
      <trkpt lat="44.33966" lon="2.49554">
        <ele>494</ele>
        <time>2012-12-30T13:10:11Z</time>
      </trkpt>
      <trkpt lat="44.33957" lon="2.49557">
        <ele>492</ele>
        <time>2012-12-30T13:10:18Z</time>
      </trkpt>
      <trkpt lat="44.3395" lon="2.49558">
        <ele>492</ele>
        <time>2012-12-30T13:10:22Z</time>
      </trkpt>
      <trkpt lat="44.33943" lon="2.49559">
        <ele>492</ele>
        <time>2012-12-30T13:10:26Z</time>
      </trkpt>
      <trkpt lat="44.33938" lon="2.4956">
        <ele>493</ele>
        <time>2012-12-30T13:10:29Z</time>
      </trkpt>
      <trkpt lat="44.33929" lon="2.49562">
        <ele>492</ele>
        <time>2012-12-30T13:10:34Z</time>
      </trkpt>
      <trkpt lat="44.33919" lon="2.49559">
        <ele>491</ele>
        <time>2012-12-30T13:10:41Z</time>
      </trkpt>
      <trkpt lat="44.33911" lon="2.49554">
        <ele>491</ele>
        <time>2012-12-30T13:10:46Z</time>
      </trkpt>
      <trkpt lat="44.33906" lon="2.49551">
        <ele>491</ele>
        <time>2012-12-30T13:10:49Z</time>
      </trkpt>
      <trkpt lat="44.33901" lon="2.49549">
        <ele>491</ele>
        <time>2012-12-30T13:10:52Z</time>
      </trkpt>
      <trkpt lat="44.33897" lon="2.49547">
        <ele>491</ele>
        <time>2012-12-30T13:10:55Z</time>
      </trkpt>
      <trkpt lat="44.33893" lon="2.49544">
        <ele>492</ele>
        <time>2012-12-30T13:10:58Z</time>
      </trkpt>
      <trkpt lat="44.33888" lon="2.4954">
        <ele>493</ele>
        <time>2012-12-30T13:11:01Z</time>
      </trkpt>
      <trkpt lat="44.33884" lon="2.49535">
        <ele>493</ele>
        <time>2012-12-30T13:11:04Z</time>
      </trkpt>
      <trkpt lat="44.3388" lon="2.4953">
        <ele>494</ele>
        <time>2012-12-30T13:11:07Z</time>
      </trkpt>
      <trkpt lat="44.33877" lon="2.49523">
        <ele>495</ele>
        <time>2012-12-30T13:11:11Z</time>
      </trkpt>
      <trkpt lat="44.33874" lon="2.49517">
        <ele>494</ele>
        <time>2012-12-30T13:11:15Z</time>
      </trkpt>
      <trkpt lat="44.33871" lon="2.49512">
        <ele>494</ele>
        <time>2012-12-30T13:11:19Z</time>
      </trkpt>
      <trkpt lat="44.33868" lon="2.49507">
        <ele>494</ele>
        <time>2012-12-30T13:11:22Z</time>
      </trkpt>
      <trkpt lat="44.33865" lon="2.49501">
        <ele>494</ele>
        <time>2012-12-30T13:11:26Z</time>
      </trkpt>
      <trkpt lat="44.33861" lon="2.49496">
        <ele>494</ele>
        <time>2012-12-30T13:11:29Z</time>
      </trkpt>
      <trkpt lat="44.33856" lon="2.49491">
        <ele>493</ele>
        <time>2012-12-30T13:11:33Z</time>
      </trkpt>
      <trkpt lat="44.33852" lon="2.49485">
        <ele>492</ele>
        <time>2012-12-30T13:11:37Z</time>
      </trkpt>
      <trkpt lat="44.33849" lon="2.49479">
        <ele>491</ele>
        <time>2012-12-30T13:11:40Z</time>
      </trkpt>
      <trkpt lat="44.33846" lon="2.49473">
        <ele>491</ele>
        <time>2012-12-30T13:11:43Z</time>
      </trkpt>
      <trkpt lat="44.33842" lon="2.49467">
        <ele>491</ele>
        <time>2012-12-30T13:11:47Z</time>
      </trkpt>
      <trkpt lat="44.33839" lon="2.49462">
        <ele>491</ele>
        <time>2012-12-30T13:11:51Z</time>
      </trkpt>
      <trkpt lat="44.33835" lon="2.49457">
        <ele>490</ele>
        <time>2012-12-30T13:11:54Z</time>
      </trkpt>
      <trkpt lat="44.33832" lon="2.49453">
        <ele>490</ele>
        <time>2012-12-30T13:11:57Z</time>
      </trkpt>
      <trkpt lat="44.33828" lon="2.49446">
        <ele>490</ele>
        <time>2012-12-30T13:12:01Z</time>
      </trkpt>
      <trkpt lat="44.33826" lon="2.4944">
        <ele>490</ele>
        <time>2012-12-30T13:12:04Z</time>
      </trkpt>
      <trkpt lat="44.33824" lon="2.49434">
        <ele>489</ele>
        <time>2012-12-30T13:12:08Z</time>
      </trkpt>
      <trkpt lat="44.3382" lon="2.49429">
        <ele>489</ele>
        <time>2012-12-30T13:12:12Z</time>
      </trkpt>
      <trkpt lat="44.33816" lon="2.49425">
        <ele>489</ele>
        <time>2012-12-30T13:12:15Z</time>
      </trkpt>
      <trkpt lat="44.33812" lon="2.49419">
        <ele>488</ele>
        <time>2012-12-30T13:12:19Z</time>
      </trkpt>
      <trkpt lat="44.33809" lon="2.49412">
        <ele>488</ele>
        <time>2012-12-30T13:12:22Z</time>
      </trkpt>
      <trkpt lat="44.33806" lon="2.49406">
        <ele>490</ele>
        <time>2012-12-30T13:12:26Z</time>
      </trkpt>
      <trkpt lat="44.338" lon="2.49395">
        <ele>491</ele>
        <time>2012-12-30T13:12:32Z</time>
      </trkpt>
      <trkpt lat="44.33796" lon="2.49391">
        <ele>492</ele>
        <time>2012-12-30T13:12:36Z</time>
      </trkpt>
      <trkpt lat="44.33789" lon="2.49381">
        <ele>492</ele>
        <time>2012-12-30T13:12:43Z</time>
      </trkpt>
      <trkpt lat="44.33783" lon="2.49369">
        <ele>494</ele>
        <time>2012-12-30T13:12:49Z</time>
      </trkpt>
      <trkpt lat="44.33776" lon="2.4936">
        <ele>493</ele>
        <time>2012-12-30T13:12:56Z</time>
      </trkpt>
      <trkpt lat="44.33769" lon="2.49351">
        <ele>490</ele>
        <time>2012-12-30T13:13:06Z</time>
      </trkpt>
      <trkpt lat="44.3377" lon="2.49336">
        <ele>490</ele>
        <time>2012-12-30T13:13:13Z</time>
      </trkpt>
      <trkpt lat="44.33772" lon="2.49329">
        <ele>490</ele>
        <time>2012-12-30T13:13:16Z</time>
      </trkpt>
      <trkpt lat="44.33774" lon="2.49323">
        <ele>491</ele>
        <time>2012-12-30T13:13:19Z</time>
      </trkpt>
      <trkpt lat="44.33777" lon="2.49313">
        <ele>493</ele>
        <time>2012-12-30T13:13:24Z</time>
      </trkpt>
      <trkpt lat="44.3378" lon="2.49307">
        <ele>494</ele>
        <time>2012-12-30T13:13:28Z</time>
      </trkpt>
      <trkpt lat="44.33784" lon="2.49303">
        <ele>495</ele>
        <time>2012-12-30T13:13:33Z</time>
      </trkpt>
      <trkpt lat="44.3379" lon="2.49291">
        <ele>496</ele>
        <time>2012-12-30T13:13:40Z</time>
      </trkpt>
      <trkpt lat="44.33792" lon="2.4928">
        <ele>496</ele>
        <time>2012-12-30T13:13:46Z</time>
      </trkpt>
      <trkpt lat="44.33795" lon="2.49267">
        <ele>498</ele>
        <time>2012-12-30T13:13:53Z</time>
      </trkpt>
      <trkpt lat="44.338" lon="2.49256">
        <ele>499</ele>
        <time>2012-12-30T13:14:00Z</time>
      </trkpt>
      <trkpt lat="44.33805" lon="2.49249">
        <ele>499</ele>
        <time>2012-12-30T13:14:05Z</time>
      </trkpt>
      <trkpt lat="44.33809" lon="2.49244">
        <ele>498</ele>
        <time>2012-12-30T13:14:10Z</time>
      </trkpt>
      <trkpt lat="44.33815" lon="2.49233">
        <ele>498</ele>
        <time>2012-12-30T13:14:18Z</time>
      </trkpt>
      <trkpt lat="44.33817" lon="2.49226">
        <ele>499</ele>
        <time>2012-12-30T13:14:22Z</time>
      </trkpt>
      <trkpt lat="44.33819" lon="2.49218">
        <ele>499</ele>
        <time>2012-12-30T13:14:27Z</time>
      </trkpt>
      <trkpt lat="44.3382" lon="2.49211">
        <ele>499</ele>
        <time>2012-12-30T13:14:30Z</time>
      </trkpt>
      <trkpt lat="44.33822" lon="2.49204">
        <ele>499</ele>
        <time>2012-12-30T13:14:34Z</time>
      </trkpt>
      <trkpt lat="44.33824" lon="2.49196">
        <ele>500</ele>
        <time>2012-12-30T13:14:39Z</time>
      </trkpt>
      <trkpt lat="44.33833" lon="2.4919">
        <ele>501</ele>
        <time>2012-12-30T13:14:46Z</time>
      </trkpt>
      <trkpt lat="44.33843" lon="2.49185">
        <ele>500</ele>
        <time>2012-12-30T13:14:52Z</time>
      </trkpt>
      <trkpt lat="44.33844" lon="2.49172">
        <ele>500</ele>
        <time>2012-12-30T13:15:00Z</time>
      </trkpt>
      <trkpt lat="44.33839" lon="2.49173">
        <ele>501</ele>
        <time>2012-12-30T13:15:04Z</time>
      </trkpt>
      <trkpt lat="44.33834" lon="2.49175">
        <ele>501</ele>
        <time>2012-12-30T13:15:07Z</time>
      </trkpt>
      <trkpt lat="44.3383" lon="2.49179">
        <ele>501</ele>
        <time>2012-12-30T13:15:11Z</time>
      </trkpt>
      <trkpt lat="44.3382" lon="2.49182">
        <ele>499</ele>
        <time>2012-12-30T13:15:19Z</time>
      </trkpt>
      <trkpt lat="44.33811" lon="2.49185">
        <ele>498</ele>
        <time>2012-12-30T13:15:25Z</time>
      </trkpt>
      <trkpt lat="44.33805" lon="2.49188">
        <ele>497</ele>
        <time>2012-12-30T13:15:29Z</time>
      </trkpt>
      <trkpt lat="44.338" lon="2.4919">
        <ele>496</ele>
        <time>2012-12-30T13:15:33Z</time>
      </trkpt>
      <trkpt lat="44.33792" lon="2.49195">
        <ele>495</ele>
        <time>2012-12-30T13:15:40Z</time>
      </trkpt>
      <trkpt lat="44.33783" lon="2.49198">
        <ele>494</ele>
        <time>2012-12-30T13:15:46Z</time>
      </trkpt>
      <trkpt lat="44.33774" lon="2.49201">
        <ele>492</ele>
        <time>2012-12-30T13:15:52Z</time>
      </trkpt>
      <trkpt lat="44.33766" lon="2.49207">
        <ele>491</ele>
        <time>2012-12-30T13:15:58Z</time>
      </trkpt>
      <trkpt lat="44.33757" lon="2.49212">
        <ele>489</ele>
        <time>2012-12-30T13:16:04Z</time>
      </trkpt>
      <trkpt lat="44.33753" lon="2.49214">
        <ele>488</ele>
        <time>2012-12-30T13:16:07Z</time>
      </trkpt>
      <trkpt lat="44.33748" lon="2.49218">
        <ele>488</ele>
        <time>2012-12-30T13:16:11Z</time>
      </trkpt>
      <trkpt lat="44.33744" lon="2.49222">
        <ele>488</ele>
        <time>2012-12-30T13:16:14Z</time>
      </trkpt>
      <trkpt lat="44.33737" lon="2.49229">
        <ele>487</ele>
        <time>2012-12-30T13:16:19Z</time>
      </trkpt>
      <trkpt lat="44.33733" lon="2.49233">
        <ele>485</ele>
        <time>2012-12-30T13:16:23Z</time>
      </trkpt>
      <trkpt lat="44.33731" lon="2.49238">
        <ele>478</ele>
        <time>2012-12-30T13:16:40Z</time>
      </trkpt>
      <trkpt lat="44.33722" lon="2.49247">
        <ele>483</ele>
        <time>2012-12-30T13:17:05Z</time>
      </trkpt>
      <trkpt lat="44.33712" lon="2.4925">
        <ele>483</ele>
        <time>2012-12-30T13:17:09Z</time>
      </trkpt>
      <trkpt lat="44.33704" lon="2.49256">
        <ele>482</ele>
        <time>2012-12-30T13:17:12Z</time>
      </trkpt>
      <trkpt lat="44.33695" lon="2.49265">
        <ele>481</ele>
        <time>2012-12-30T13:17:15Z</time>
      </trkpt>
      <trkpt lat="44.33688" lon="2.49277">
        <ele>479</ele>
        <time>2012-12-30T13:17:19Z</time>
      </trkpt>
      <trkpt lat="44.33677" lon="2.49288">
        <ele>479</ele>
        <time>2012-12-30T13:17:22Z</time>
      </trkpt>
      <trkpt lat="44.3367" lon="2.49299">
        <ele>479</ele>
        <time>2012-12-30T13:17:25Z</time>
      </trkpt>
      <trkpt lat="44.3366" lon="2.4931">
        <ele>479</ele>
        <time>2012-12-30T13:17:28Z</time>
      </trkpt>
      <trkpt lat="44.33653" lon="2.49319">
        <ele>478</ele>
        <time>2012-12-30T13:17:31Z</time>
      </trkpt>
      <trkpt lat="44.33647" lon="2.49326">
        <ele>478</ele>
        <time>2012-12-30T13:17:33Z</time>
      </trkpt>
      <trkpt lat="44.33639" lon="2.49332">
        <ele>478</ele>
        <time>2012-12-30T13:17:37Z</time>
      </trkpt>
      <trkpt lat="44.33635" lon="2.49333">
        <ele>478</ele>
        <time>2012-12-30T13:17:51Z</time>
      </trkpt>
      <trkpt lat="44.33633" lon="2.49336">
        <ele>487</ele>
        <time>2012-12-30T13:18:30Z</time>
      </trkpt>
      <trkpt lat="44.33626" lon="2.49339">
        <ele>486</ele>
        <time>2012-12-30T13:18:52Z</time>
      </trkpt>
      <trkpt lat="44.33615" lon="2.49342">
        <ele>485</ele>
        <time>2012-12-30T13:18:57Z</time>
      </trkpt>
      <trkpt lat="44.33602" lon="2.49342">
        <ele>484</ele>
        <time>2012-12-30T13:19:02Z</time>
      </trkpt>
      <trkpt lat="44.3359" lon="2.49344">
        <ele>483</ele>
        <time>2012-12-30T13:19:05Z</time>
      </trkpt>
      <trkpt lat="44.33579" lon="2.4935">
        <ele>481</ele>
        <time>2012-12-30T13:19:09Z</time>
      </trkpt>
      <trkpt lat="44.3357" lon="2.49356">
        <ele>480</ele>
        <time>2012-12-30T13:19:13Z</time>
      </trkpt>
      <trkpt lat="44.33559" lon="2.49359">
        <ele>480</ele>
        <time>2012-12-30T13:19:17Z</time>
      </trkpt>
      <trkpt lat="44.33549" lon="2.49362">
        <ele>480</ele>
        <time>2012-12-30T13:19:21Z</time>
      </trkpt>
      <trkpt lat="44.3354" lon="2.49365">
        <ele>480</ele>
        <time>2012-12-30T13:19:24Z</time>
      </trkpt>
      <trkpt lat="44.3353" lon="2.49368">
        <ele>480</ele>
        <time>2012-12-30T13:19:28Z</time>
      </trkpt>
      <trkpt lat="44.3352" lon="2.49373">
        <ele>478</ele>
        <time>2012-12-30T13:19:32Z</time>
      </trkpt>
      <trkpt lat="44.33509" lon="2.49376">
        <ele>476</ele>
        <time>2012-12-30T13:19:35Z</time>
      </trkpt>
      <trkpt lat="44.33498" lon="2.49378">
        <ele>475</ele>
        <time>2012-12-30T13:19:38Z</time>
      </trkpt>
      <trkpt lat="44.33486" lon="2.4938">
        <ele>476</ele>
        <time>2012-12-30T13:19:41Z</time>
      </trkpt>
      <trkpt lat="44.33473" lon="2.49387">
        <ele>477</ele>
        <time>2012-12-30T13:19:44Z</time>
      </trkpt>
      <trkpt lat="44.33461" lon="2.49393">
        <ele>479</ele>
        <time>2012-12-30T13:19:47Z</time>
      </trkpt>
      <trkpt lat="44.33453" lon="2.49397">
        <ele>480</ele>
        <time>2012-12-30T13:19:50Z</time>
      </trkpt>
      <trkpt lat="44.33443" lon="2.49398">
        <ele>480</ele>
        <time>2012-12-30T13:19:53Z</time>
      </trkpt>
      <trkpt lat="44.33432" lon="2.494">
        <ele>480</ele>
        <time>2012-12-30T13:19:56Z</time>
      </trkpt>
      <trkpt lat="44.33421" lon="2.49402">
        <ele>480</ele>
        <time>2012-12-30T13:19:59Z</time>
      </trkpt>
      <trkpt lat="44.33409" lon="2.49403">
        <ele>481</ele>
        <time>2012-12-30T13:20:02Z</time>
      </trkpt>
      <trkpt lat="44.33402" lon="2.49407">
        <ele>480</ele>
        <time>2012-12-30T13:20:04Z</time>
      </trkpt>
      <trkpt lat="44.33393" lon="2.49411">
        <ele>480</ele>
        <time>2012-12-30T13:20:07Z</time>
      </trkpt>
      <trkpt lat="44.33381" lon="2.49415">
        <ele>479</ele>
        <time>2012-12-30T13:20:10Z</time>
      </trkpt>
      <trkpt lat="44.33372" lon="2.49422">
        <ele>478</ele>
        <time>2012-12-30T13:20:13Z</time>
      </trkpt>
      <trkpt lat="44.33366" lon="2.49428">
        <ele>478</ele>
        <time>2012-12-30T13:20:15Z</time>
      </trkpt>
      <trkpt lat="44.33357" lon="2.49432">
        <ele>478</ele>
        <time>2012-12-30T13:20:18Z</time>
      </trkpt>
      <trkpt lat="44.33348" lon="2.49435">
        <ele>477</ele>
        <time>2012-12-30T13:20:23Z</time>
      </trkpt>
      <trkpt lat="44.33339" lon="2.49435">
        <ele>477</ele>
        <time>2012-12-30T13:20:27Z</time>
      </trkpt>
      <trkpt lat="44.33327" lon="2.49433">
        <ele>477</ele>
        <time>2012-12-30T13:20:32Z</time>
      </trkpt>
      <trkpt lat="44.33318" lon="2.49428">
        <ele>477</ele>
        <time>2012-12-30T13:20:35Z</time>
      </trkpt>
      <trkpt lat="44.3331" lon="2.49423">
        <ele>478</ele>
        <time>2012-12-30T13:20:38Z</time>
      </trkpt>
      <trkpt lat="44.333" lon="2.49421">
        <ele>478</ele>
        <time>2012-12-30T13:20:42Z</time>
      </trkpt>
      <trkpt lat="44.3329" lon="2.49421">
        <ele>477</ele>
        <time>2012-12-30T13:20:45Z</time>
      </trkpt>
      <trkpt lat="44.3328" lon="2.49419">
        <ele>476</ele>
        <time>2012-12-30T13:20:48Z</time>
      </trkpt>
      <trkpt lat="44.3327" lon="2.49417">
        <ele>475</ele>
        <time>2012-12-30T13:20:51Z</time>
      </trkpt>
      <trkpt lat="44.33261" lon="2.49417">
        <ele>474</ele>
        <time>2012-12-30T13:20:54Z</time>
      </trkpt>
      <trkpt lat="44.3325" lon="2.49419">
        <ele>473</ele>
        <time>2012-12-30T13:20:57Z</time>
      </trkpt>
      <trkpt lat="44.33236" lon="2.49419">
        <ele>475</ele>
        <time>2012-12-30T13:21:02Z</time>
      </trkpt>
      <trkpt lat="44.33227" lon="2.49417">
        <ele>477</ele>
        <time>2012-12-30T13:21:04Z</time>
      </trkpt>
      <trkpt lat="44.33218" lon="2.49422">
        <ele>479</ele>
        <time>2012-12-30T13:21:08Z</time>
      </trkpt>
      <trkpt lat="44.3321" lon="2.4942">
        <ele>480</ele>
        <time>2012-12-30T13:21:11Z</time>
      </trkpt>
      <trkpt lat="44.33205" lon="2.49417">
        <ele>480</ele>
        <time>2012-12-30T13:21:14Z</time>
      </trkpt>
      <trkpt lat="44.33201" lon="2.49413">
        <ele>480</ele>
        <time>2012-12-30T13:21:16Z</time>
      </trkpt>
      <trkpt lat="44.33196" lon="2.49408">
        <ele>481</ele>
        <time>2012-12-30T13:21:19Z</time>
      </trkpt>
      <trkpt lat="44.3319" lon="2.49398">
        <ele>482</ele>
        <time>2012-12-30T13:21:25Z</time>
      </trkpt>
      <trkpt lat="44.33184" lon="2.49385">
        <ele>480</ele>
        <time>2012-12-30T13:21:32Z</time>
      </trkpt>
      <trkpt lat="44.33177" lon="2.49377">
        <ele>479</ele>
        <time>2012-12-30T13:21:39Z</time>
      </trkpt>
      <trkpt lat="44.33173" lon="2.49373">
        <ele>479</ele>
        <time>2012-12-30T13:21:42Z</time>
      </trkpt>
      <trkpt lat="44.33166" lon="2.49365">
        <ele>480</ele>
        <time>2012-12-30T13:21:50Z</time>
      </trkpt>
      <trkpt lat="44.33162" lon="2.49353">
        <ele>480</ele>
        <time>2012-12-30T13:21:57Z</time>
      </trkpt>
      <trkpt lat="44.33159" lon="2.49347">
        <ele>481</ele>
        <time>2012-12-30T13:22:37Z</time>
      </trkpt>
      <trkpt lat="44.33164" lon="2.49341">
        <ele>494</ele>
        <time>2012-12-30T13:26:21Z</time>
      </trkpt>
      <trkpt lat="44.33163" lon="2.49342">
        <ele>496</ele>
        <time>2012-12-30T13:28:06Z</time>
      </trkpt>
      <trkpt lat="44.33164" lon="2.49353">
        <ele>495</ele>
        <time>2012-12-30T13:28:23Z</time>
      </trkpt>
      <trkpt lat="44.33167" lon="2.49365">
        <ele>495</ele>
        <time>2012-12-30T13:28:29Z</time>
      </trkpt>
      <trkpt lat="44.33171" lon="2.49376">
        <ele>494</ele>
        <time>2012-12-30T13:28:36Z</time>
      </trkpt>
      <trkpt lat="44.3318" lon="2.49381">
        <ele>492</ele>
        <time>2012-12-30T13:28:45Z</time>
      </trkpt>
      <trkpt lat="44.33186" lon="2.49388">
        <ele>490</ele>
        <time>2012-12-30T13:28:50Z</time>
      </trkpt>
      <trkpt lat="44.33193" lon="2.494">
        <ele>489</ele>
        <time>2012-12-30T13:28:57Z</time>
      </trkpt>
      <trkpt lat="44.33199" lon="2.49412">
        <ele>487</ele>
        <time>2012-12-30T13:29:02Z</time>
      </trkpt>
      <trkpt lat="44.33203" lon="2.49417">
        <ele>485</ele>
        <time>2012-12-30T13:29:05Z</time>
      </trkpt>
      <trkpt lat="44.33206" lon="2.49421">
        <ele>484</ele>
        <time>2012-12-30T13:29:09Z</time>
      </trkpt>
      <trkpt lat="44.33211" lon="2.49432">
        <ele>484</ele>
        <time>2012-12-30T13:29:15Z</time>
      </trkpt>
      <trkpt lat="44.33211" lon="2.4944">
        <ele>483</ele>
        <time>2012-12-30T13:29:22Z</time>
      </trkpt>
      <trkpt lat="44.33205" lon="2.49441">
        <ele>483</ele>
        <time>2012-12-30T13:29:30Z</time>
      </trkpt>
      <trkpt lat="44.33195" lon="2.49445">
        <ele>485</ele>
        <time>2012-12-30T13:29:39Z</time>
      </trkpt>
      <trkpt lat="44.33186" lon="2.49447">
        <ele>483</ele>
        <time>2012-12-30T13:29:45Z</time>
      </trkpt>
      <trkpt lat="44.33177" lon="2.49454">
        <ele>481</ele>
        <time>2012-12-30T13:29:56Z</time>
      </trkpt>
      <trkpt lat="44.33163" lon="2.49456">
        <ele>483</ele>
        <time>2012-12-30T13:30:09Z</time>
      </trkpt>
      <trkpt lat="44.33153" lon="2.49462">
        <ele>484</ele>
        <time>2012-12-30T13:30:14Z</time>
      </trkpt>
      <trkpt lat="44.33136" lon="2.4947">
        <ele>485</ele>
        <time>2012-12-30T13:30:30Z</time>
      </trkpt>
      <trkpt lat="44.33125" lon="2.49478">
        <ele>484</ele>
        <time>2012-12-30T13:30:33Z</time>
      </trkpt>
      <trkpt lat="44.33114" lon="2.49488">
        <ele>486</ele>
        <time>2012-12-30T13:30:39Z</time>
      </trkpt>
      <trkpt lat="44.33104" lon="2.49498">
        <ele>488</ele>
        <time>2012-12-30T13:30:44Z</time>
      </trkpt>
      <trkpt lat="44.33098" lon="2.49509">
        <ele>491</ele>
        <time>2012-12-30T13:30:52Z</time>
      </trkpt>
      <trkpt lat="44.33098" lon="2.49523">
        <ele>492</ele>
        <time>2012-12-30T13:30:59Z</time>
      </trkpt>
      <trkpt lat="44.33101" lon="2.49536">
        <ele>496</ele>
        <time>2012-12-30T13:31:08Z</time>
      </trkpt>
      <trkpt lat="44.331" lon="2.49549">
        <ele>497</ele>
        <time>2012-12-30T13:31:15Z</time>
      </trkpt>
      <trkpt lat="44.33099" lon="2.49562">
        <ele>498</ele>
        <time>2012-12-30T13:31:26Z</time>
      </trkpt>
      <trkpt lat="44.33093" lon="2.49579">
        <ele>498</ele>
        <time>2012-12-30T13:31:31Z</time>
      </trkpt>
      <trkpt lat="44.33085" lon="2.49595">
        <ele>498</ele>
        <time>2012-12-30T13:31:35Z</time>
      </trkpt>
      <trkpt lat="44.33081" lon="2.49611">
        <ele>502</ele>
        <time>2012-12-30T13:31:45Z</time>
      </trkpt>
      <trkpt lat="44.33079" lon="2.49625">
        <ele>508</ele>
        <time>2012-12-30T13:31:56Z</time>
      </trkpt>
      <trkpt lat="44.33068" lon="2.49634">
        <ele>512</ele>
        <time>2012-12-30T13:32:00Z</time>
      </trkpt>
      <trkpt lat="44.33061" lon="2.49643">
        <ele>513</ele>
        <time>2012-12-30T13:32:07Z</time>
      </trkpt>
      <trkpt lat="44.33056" lon="2.49659">
        <ele>515</ele>
        <time>2012-12-30T13:32:22Z</time>
      </trkpt>
      <trkpt lat="44.33049" lon="2.49667">
        <ele>514</ele>
        <time>2012-12-30T13:32:31Z</time>
      </trkpt>
      <trkpt lat="44.33033" lon="2.49688">
        <ele>515</ele>
        <time>2012-12-30T13:32:47Z</time>
      </trkpt>
      <trkpt lat="44.33023" lon="2.49703">
        <ele>518</ele>
        <time>2012-12-30T13:32:51Z</time>
      </trkpt>
      <trkpt lat="44.33016" lon="2.49713">
        <ele>520</ele>
        <time>2012-12-30T13:32:54Z</time>
      </trkpt>
      <trkpt lat="44.33008" lon="2.49719">
        <ele>525</ele>
        <time>2012-12-30T13:33:01Z</time>
      </trkpt>
      <trkpt lat="44.32998" lon="2.49729">
        <ele>528</ele>
        <time>2012-12-30T13:33:08Z</time>
      </trkpt>
      <trkpt lat="44.3299" lon="2.49741">
        <ele>529</ele>
        <time>2012-12-30T13:33:13Z</time>
      </trkpt>
      <trkpt lat="44.32987" lon="2.49747">
        <ele>530</ele>
        <time>2012-12-30T13:33:15Z</time>
      </trkpt>
      <trkpt lat="44.32982" lon="2.49758">
        <ele>532</ele>
        <time>2012-12-30T13:33:21Z</time>
      </trkpt>
      <trkpt lat="44.32979" lon="2.49763">
        <ele>533</ele>
        <time>2012-12-30T13:33:24Z</time>
      </trkpt>
      <trkpt lat="44.32977" lon="2.49769">
        <ele>536</ele>
        <time>2012-12-30T13:33:28Z</time>
      </trkpt>
      <trkpt lat="44.3298" lon="2.49775">
        <ele>535</ele>
        <time>2012-12-30T13:33:35Z</time>
      </trkpt>
      <trkpt lat="44.3299" lon="2.49767">
        <ele>533</ele>
        <time>2012-12-30T13:33:46Z</time>
      </trkpt>
      <trkpt lat="44.32997" lon="2.49757">
        <ele>533</ele>
        <time>2012-12-30T13:33:56Z</time>
      </trkpt>
      <trkpt lat="44.33006" lon="2.49754">
        <ele>533</ele>
        <time>2012-12-30T13:34:01Z</time>
      </trkpt>
      <trkpt lat="44.33017" lon="2.49753">
        <ele>534</ele>
        <time>2012-12-30T13:34:10Z</time>
      </trkpt>
      <trkpt lat="44.33026" lon="2.49753">
        <ele>537</ele>
        <time>2012-12-30T13:34:16Z</time>
      </trkpt>
      <trkpt lat="44.33036" lon="2.49753">
        <ele>540</ele>
        <time>2012-12-30T13:34:22Z</time>
      </trkpt>
      <trkpt lat="44.33045" lon="2.49748">
        <ele>543</ele>
        <time>2012-12-30T13:34:27Z</time>
      </trkpt>
      <trkpt lat="44.33054" lon="2.49744">
        <ele>544</ele>
        <time>2012-12-30T13:34:35Z</time>
      </trkpt>
      <trkpt lat="44.33064" lon="2.49739">
        <ele>546</ele>
        <time>2012-12-30T13:34:42Z</time>
      </trkpt>
      <trkpt lat="44.33073" lon="2.49734">
        <ele>547</ele>
        <time>2012-12-30T13:34:51Z</time>
      </trkpt>
      <trkpt lat="44.33082" lon="2.4973">
        <ele>546</ele>
        <time>2012-12-30T13:34:57Z</time>
      </trkpt>
      <trkpt lat="44.33095" lon="2.49729">
        <ele>544</ele>
        <time>2012-12-30T13:35:13Z</time>
      </trkpt>
      <trkpt lat="44.33101" lon="2.49739">
        <ele>550</ele>
        <time>2012-12-30T13:35:25Z</time>
      </trkpt>
      <trkpt lat="44.33096" lon="2.49749">
        <ele>552</ele>
        <time>2012-12-30T13:35:39Z</time>
      </trkpt>
      <trkpt lat="44.3309" lon="2.4976">
        <ele>550</ele>
        <time>2012-12-30T13:35:46Z</time>
      </trkpt>
      <trkpt lat="44.33097" lon="2.49768">
        <ele>550</ele>
        <time>2012-12-30T13:35:58Z</time>
      </trkpt>
      <trkpt lat="44.33107" lon="2.49767">
        <ele>556</ele>
        <time>2012-12-30T13:36:09Z</time>
      </trkpt>
      <trkpt lat="44.33136" lon="2.49758">
        <ele>570</ele>
        <time>2012-12-30T13:36:39Z</time>
      </trkpt>
      <trkpt lat="44.33151" lon="2.4975">
        <ele>575</ele>
        <time>2012-12-30T13:37:05Z</time>
      </trkpt>
      <trkpt lat="44.33159" lon="2.49742">
        <ele>578</ele>
        <time>2012-12-30T13:37:11Z</time>
      </trkpt>
      <trkpt lat="44.33169" lon="2.49735">
        <ele>579</ele>
        <time>2012-12-30T13:37:15Z</time>
      </trkpt>
      <trkpt lat="44.33181" lon="2.49734">
        <ele>579</ele>
        <time>2012-12-30T13:37:27Z</time>
      </trkpt>
      <trkpt lat="44.33189" lon="2.4974">
        <ele>579</ele>
        <time>2012-12-30T13:37:31Z</time>
      </trkpt>
      <trkpt lat="44.332" lon="2.49739">
        <ele>580</ele>
        <time>2012-12-30T13:37:33Z</time>
      </trkpt>
      <trkpt lat="44.33208" lon="2.4973">
        <ele>581</ele>
        <time>2012-12-30T13:37:37Z</time>
      </trkpt>
      <trkpt lat="44.33214" lon="2.49719">
        <ele>585</ele>
        <time>2012-12-30T13:37:44Z</time>
      </trkpt>
      <trkpt lat="44.33219" lon="2.49705">
        <ele>587</ele>
        <time>2012-12-30T13:37:50Z</time>
      </trkpt>
      <trkpt lat="44.33228" lon="2.49694">
        <ele>587</ele>
        <time>2012-12-30T13:37:54Z</time>
      </trkpt>
      <trkpt lat="44.33232" lon="2.4969">
        <ele>586</ele>
        <time>2012-12-30T13:37:56Z</time>
      </trkpt>
      <trkpt lat="44.33241" lon="2.4968">
        <ele>585</ele>
        <time>2012-12-30T13:38:01Z</time>
      </trkpt>
      <trkpt lat="44.33249" lon="2.49672">
        <ele>584</ele>
        <time>2012-12-30T13:38:05Z</time>
      </trkpt>
      <trkpt lat="44.33257" lon="2.49664">
        <ele>584</ele>
        <time>2012-12-30T13:38:09Z</time>
      </trkpt>
      <trkpt lat="44.33267" lon="2.49658">
        <ele>584</ele>
        <time>2012-12-30T13:38:12Z</time>
      </trkpt>
      <trkpt lat="44.33276" lon="2.49652">
        <ele>583</ele>
        <time>2012-12-30T13:38:17Z</time>
      </trkpt>
      <trkpt lat="44.33285" lon="2.49649">
        <ele>581</ele>
        <time>2012-12-30T13:38:21Z</time>
      </trkpt>
      <trkpt lat="44.33295" lon="2.49644">
        <ele>577</ele>
        <time>2012-12-30T13:38:26Z</time>
      </trkpt>
      <trkpt lat="44.33304" lon="2.49639">
        <ele>574</ele>
        <time>2012-12-30T13:38:31Z</time>
      </trkpt>
      <trkpt lat="44.33315" lon="2.49645">
        <ele>574</ele>
        <time>2012-12-30T13:38:35Z</time>
      </trkpt>
      <trkpt lat="44.33324" lon="2.49653">
        <ele>573</ele>
        <time>2012-12-30T13:38:38Z</time>
      </trkpt>
      <trkpt lat="44.33333" lon="2.4966">
        <ele>573</ele>
        <time>2012-12-30T13:38:41Z</time>
      </trkpt>
      <trkpt lat="44.33344" lon="2.49666">
        <ele>573</ele>
        <time>2012-12-30T13:38:45Z</time>
      </trkpt>
      <trkpt lat="44.33357" lon="2.49668">
        <ele>573</ele>
        <time>2012-12-30T13:38:48Z</time>
      </trkpt>
      <trkpt lat="44.33368" lon="2.49665">
        <ele>573</ele>
        <time>2012-12-30T13:38:51Z</time>
      </trkpt>
      <trkpt lat="44.33378" lon="2.49663">
        <ele>573</ele>
        <time>2012-12-30T13:38:53Z</time>
      </trkpt>
      <trkpt lat="44.33391" lon="2.49655">
        <ele>572</ele>
        <time>2012-12-30T13:38:57Z</time>
      </trkpt>
      <trkpt lat="44.33402" lon="2.49649">
        <ele>572</ele>
        <time>2012-12-30T13:39:01Z</time>
      </trkpt>
      <trkpt lat="44.33413" lon="2.49649">
        <ele>572</ele>
        <time>2012-12-30T13:39:05Z</time>
      </trkpt>
      <trkpt lat="44.33422" lon="2.49647">
        <ele>575</ele>
        <time>2012-12-30T13:39:10Z</time>
      </trkpt>
      <trkpt lat="44.33432" lon="2.49645">
        <ele>578</ele>
        <time>2012-12-30T13:39:18Z</time>
      </trkpt>
      <trkpt lat="44.33441" lon="2.49644">
        <ele>579</ele>
        <time>2012-12-30T13:39:24Z</time>
      </trkpt>
      <trkpt lat="44.33452" lon="2.49649">
        <ele>582</ele>
        <time>2012-12-30T13:39:34Z</time>
      </trkpt>
      <trkpt lat="44.33461" lon="2.49651">
        <ele>579</ele>
        <time>2012-12-30T13:39:43Z</time>
      </trkpt>
      <trkpt lat="44.33472" lon="2.49652">
        <ele>575</ele>
        <time>2012-12-30T13:39:51Z</time>
      </trkpt>
      <trkpt lat="44.33483" lon="2.49657">
        <ele>572</ele>
        <time>2012-12-30T13:39:59Z</time>
      </trkpt>
      <trkpt lat="44.33492" lon="2.49661">
        <ele>572</ele>
        <time>2012-12-30T13:40:05Z</time>
      </trkpt>
      <trkpt lat="44.33501" lon="2.49662">
        <ele>572</ele>
        <time>2012-12-30T13:40:11Z</time>
      </trkpt>
      <trkpt lat="44.3351" lon="2.4966">
        <ele>575</ele>
        <time>2012-12-30T13:40:17Z</time>
      </trkpt>
      <trkpt lat="44.33517" lon="2.49662">
        <ele>582</ele>
        <time>2012-12-30T13:40:26Z</time>
      </trkpt>
      <trkpt lat="44.3352" lon="2.49661">
        <ele>587</ele>
        <time>2012-12-30T13:40:41Z</time>
      </trkpt>
      <trkpt lat="44.33523" lon="2.49661">
        <ele>595</ele>
        <time>2012-12-30T13:42:59Z</time>
      </trkpt>
      <trkpt lat="44.33521" lon="2.49664">
        <ele>596</ele>
        <time>2012-12-30T13:44:51Z</time>
      </trkpt>
      <trkpt lat="44.33521" lon="2.49677">
        <ele>596</ele>
        <time>2012-12-30T13:45:01Z</time>
      </trkpt>
      <trkpt lat="44.33517" lon="2.49689">
        <ele>599</ele>
        <time>2012-12-30T13:45:08Z</time>
      </trkpt>
      <trkpt lat="44.33513" lon="2.49693">
        <ele>599</ele>
        <time>2012-12-30T13:45:12Z</time>
      </trkpt>
      <trkpt lat="44.33508" lon="2.49699">
        <ele>600</ele>
        <time>2012-12-30T13:45:18Z</time>
      </trkpt>
      <trkpt lat="44.33499" lon="2.49706">
        <ele>601</ele>
        <time>2012-12-30T13:45:28Z</time>
      </trkpt>
      <trkpt lat="44.33494" lon="2.49711">
        <ele>602</ele>
        <time>2012-12-30T13:45:33Z</time>
      </trkpt>
      <trkpt lat="44.33486" lon="2.49717">
        <ele>604</ele>
        <time>2012-12-30T13:45:40Z</time>
      </trkpt>
      <trkpt lat="44.33482" lon="2.49723">
        <ele>606</ele>
        <time>2012-12-30T13:45:44Z</time>
      </trkpt>
      <trkpt lat="44.33478" lon="2.49725">
        <ele>607</ele>
        <time>2012-12-30T13:45:49Z</time>
      </trkpt>
      <trkpt lat="44.33469" lon="2.49728">
        <ele>609</ele>
        <time>2012-12-30T13:45:57Z</time>
      </trkpt>
      <trkpt lat="44.33463" lon="2.49731">
        <ele>611</ele>
        <time>2012-12-30T13:46:00Z</time>
      </trkpt>
      <trkpt lat="44.33458" lon="2.49732">
        <ele>613</ele>
        <time>2012-12-30T13:46:03Z</time>
      </trkpt>
      <trkpt lat="44.33454" lon="2.49733">
        <ele>614</ele>
        <time>2012-12-30T13:46:06Z</time>
      </trkpt>
      <trkpt lat="44.33448" lon="2.49735">
        <ele>616</ele>
        <time>2012-12-30T13:46:10Z</time>
      </trkpt>
      <trkpt lat="44.33443" lon="2.49738">
        <ele>617</ele>
        <time>2012-12-30T13:46:13Z</time>
      </trkpt>
      <trkpt lat="44.33438" lon="2.49742">
        <ele>619</ele>
        <time>2012-12-30T13:46:17Z</time>
      </trkpt>
      <trkpt lat="44.33433" lon="2.49747">
        <ele>620</ele>
        <time>2012-12-30T13:46:21Z</time>
      </trkpt>
      <trkpt lat="44.33429" lon="2.49751">
        <ele>622</ele>
        <time>2012-12-30T13:46:24Z</time>
      </trkpt>
      <trkpt lat="44.33424" lon="2.49755">
        <ele>623</ele>
        <time>2012-12-30T13:46:28Z</time>
      </trkpt>
      <trkpt lat="44.3342" lon="2.49759">
        <ele>623</ele>
        <time>2012-12-30T13:46:33Z</time>
      </trkpt>
      <trkpt lat="44.33414" lon="2.49763">
        <ele>623</ele>
        <time>2012-12-30T13:46:38Z</time>
      </trkpt>
      <trkpt lat="44.3341" lon="2.49766">
        <ele>626</ele>
        <time>2012-12-30T13:46:42Z</time>
      </trkpt>
      <trkpt lat="44.33405" lon="2.49771">
        <ele>628</ele>
        <time>2012-12-30T13:46:47Z</time>
      </trkpt>
      <trkpt lat="44.334" lon="2.49776">
        <ele>630</ele>
        <time>2012-12-30T13:46:52Z</time>
      </trkpt>
      <trkpt lat="44.33396" lon="2.49781">
        <ele>630</ele>
        <time>2012-12-30T13:46:56Z</time>
      </trkpt>
      <trkpt lat="44.33391" lon="2.49786">
        <ele>630</ele>
        <time>2012-12-30T13:47:01Z</time>
      </trkpt>
      <trkpt lat="44.33383" lon="2.49793">
        <ele>629</ele>
        <time>2012-12-30T13:47:09Z</time>
      </trkpt>
      <trkpt lat="44.33378" lon="2.49797">
        <ele>631</ele>
        <time>2012-12-30T13:47:15Z</time>
      </trkpt>
      <trkpt lat="44.33373" lon="2.49808">
        <ele>632</ele>
        <time>2012-12-30T13:47:22Z</time>
      </trkpt>
      <trkpt lat="44.3337" lon="2.49816">
        <ele>633</ele>
        <time>2012-12-30T13:47:26Z</time>
      </trkpt>
      <trkpt lat="44.33368" lon="2.49821">
        <ele>633</ele>
        <time>2012-12-30T13:47:28Z</time>
      </trkpt>
      <trkpt lat="44.33365" lon="2.49829">
        <ele>635</ele>
        <time>2012-12-30T13:47:31Z</time>
      </trkpt>
      <trkpt lat="44.33363" lon="2.49835">
        <ele>635</ele>
        <time>2012-12-30T13:47:34Z</time>
      </trkpt>
      <trkpt lat="44.33361" lon="2.49841">
        <ele>636</ele>
        <time>2012-12-30T13:47:37Z</time>
      </trkpt>
      <trkpt lat="44.33361" lon="2.49848">
        <ele>636</ele>
        <time>2012-12-30T13:47:41Z</time>
      </trkpt>
      <trkpt lat="44.33354" lon="2.49861">
        <ele>640</ele>
        <time>2012-12-30T13:47:54Z</time>
      </trkpt>
      <trkpt lat="44.33349" lon="2.49874">
        <ele>641</ele>
        <time>2012-12-30T13:47:57Z</time>
      </trkpt>
      <trkpt lat="44.33342" lon="2.49888">
        <ele>641</ele>
        <time>2012-12-30T13:48:00Z</time>
      </trkpt>
      <trkpt lat="44.33337" lon="2.49898">
        <ele>641</ele>
        <time>2012-12-30T13:48:02Z</time>
      </trkpt>
      <trkpt lat="44.33335" lon="2.49903">
        <ele>641</ele>
        <time>2012-12-30T13:48:03Z</time>
      </trkpt>
      <trkpt lat="44.3333" lon="2.49914">
        <ele>640</ele>
        <time>2012-12-30T13:48:05Z</time>
      </trkpt>
      <trkpt lat="44.33326" lon="2.49925">
        <ele>639</ele>
        <time>2012-12-30T13:48:07Z</time>
      </trkpt>
      <trkpt lat="44.33324" lon="2.49931">
        <ele>639</ele>
        <time>2012-12-30T13:48:08Z</time>
      </trkpt>
      <trkpt lat="44.3332" lon="2.49943">
        <ele>640</ele>
        <time>2012-12-30T13:48:10Z</time>
      </trkpt>
      <trkpt lat="44.33317" lon="2.49955">
        <ele>640</ele>
        <time>2012-12-30T13:48:12Z</time>
      </trkpt>
      <trkpt lat="44.33315" lon="2.49961">
        <ele>640</ele>
        <time>2012-12-30T13:48:13Z</time>
      </trkpt>
      <trkpt lat="44.33314" lon="2.49967">
        <ele>640</ele>
        <time>2012-12-30T13:48:14Z</time>
      </trkpt>
      <trkpt lat="44.33312" lon="2.49974">
        <ele>640</ele>
        <time>2012-12-30T13:48:15Z</time>
      </trkpt>
      <trkpt lat="44.3331" lon="2.49981">
        <ele>639</ele>
        <time>2012-12-30T13:48:16Z</time>
      </trkpt>
      <trkpt lat="44.33309" lon="2.49987">
        <ele>639</ele>
        <time>2012-12-30T13:48:17Z</time>
      </trkpt>
      <trkpt lat="44.33307" lon="2.49993">
        <ele>639</ele>
        <time>2012-12-30T13:48:18Z</time>
      </trkpt>
      <trkpt lat="44.33304" lon="2.5">
        <ele>639</ele>
        <time>2012-12-30T13:48:19Z</time>
      </trkpt>
      <trkpt lat="44.33302" lon="2.50006">
        <ele>639</ele>
        <time>2012-12-30T13:48:20Z</time>
      </trkpt>
      <trkpt lat="44.33299" lon="2.50012">
        <ele>639</ele>
        <time>2012-12-30T13:48:21Z</time>
      </trkpt>
      <trkpt lat="44.33296" lon="2.50018">
        <ele>640</ele>
        <time>2012-12-30T13:48:22Z</time>
      </trkpt>
      <trkpt lat="44.33293" lon="2.50024">
        <ele>640</ele>
        <time>2012-12-30T13:48:23Z</time>
      </trkpt>
      <trkpt lat="44.3329" lon="2.5003">
        <ele>640</ele>
        <time>2012-12-30T13:48:24Z</time>
      </trkpt>
      <trkpt lat="44.33288" lon="2.50036">
        <ele>641</ele>
        <time>2012-12-30T13:48:25Z</time>
      </trkpt>
      <trkpt lat="44.33285" lon="2.50042">
        <ele>641</ele>
        <time>2012-12-30T13:48:26Z</time>
      </trkpt>
      <trkpt lat="44.33283" lon="2.50048">
        <ele>641</ele>
        <time>2012-12-30T13:48:27Z</time>
      </trkpt>
      <trkpt lat="44.33279" lon="2.50058">
        <ele>641</ele>
        <time>2012-12-30T13:48:29Z</time>
      </trkpt>
      <trkpt lat="44.33276" lon="2.50064">
        <ele>641</ele>
        <time>2012-12-30T13:48:30Z</time>
      </trkpt>
      <trkpt lat="44.33274" lon="2.5007">
        <ele>641</ele>
        <time>2012-12-30T13:48:31Z</time>
      </trkpt>
      <trkpt lat="44.33269" lon="2.50082">
        <ele>642</ele>
        <time>2012-12-30T13:48:33Z</time>
      </trkpt>
      <trkpt lat="44.33267" lon="2.50088">
        <ele>642</ele>
        <time>2012-12-30T13:48:34Z</time>
      </trkpt>
      <trkpt lat="44.33265" lon="2.50095">
        <ele>642</ele>
        <time>2012-12-30T13:48:35Z</time>
      </trkpt>
      <trkpt lat="44.33263" lon="2.50102">
        <ele>641</ele>
        <time>2012-12-30T13:48:36Z</time>
      </trkpt>
      <trkpt lat="44.3326" lon="2.50109">
        <ele>641</ele>
        <time>2012-12-30T13:48:37Z</time>
      </trkpt>
      <trkpt lat="44.33257" lon="2.50117">
        <ele>641</ele>
        <time>2012-12-30T13:48:38Z</time>
      </trkpt>
      <trkpt lat="44.33254" lon="2.50126">
        <ele>641</ele>
        <time>2012-12-30T13:48:39Z</time>
      </trkpt>
      <trkpt lat="44.33251" lon="2.50133">
        <ele>640</ele>
        <time>2012-12-30T13:48:40Z</time>
      </trkpt>
      <trkpt lat="44.33248" lon="2.50141">
        <ele>640</ele>
        <time>2012-12-30T13:48:41Z</time>
      </trkpt>
      <trkpt lat="44.33245" lon="2.50149">
        <ele>640</ele>
        <time>2012-12-30T13:48:42Z</time>
      </trkpt>
      <trkpt lat="44.33243" lon="2.50156">
        <ele>640</ele>
        <time>2012-12-30T13:48:43Z</time>
      </trkpt>
      <trkpt lat="44.3324" lon="2.50163">
        <ele>640</ele>
        <time>2012-12-30T13:48:44Z</time>
      </trkpt>
      <trkpt lat="44.33237" lon="2.5017">
        <ele>639</ele>
        <time>2012-12-30T13:48:45Z</time>
      </trkpt>
      <trkpt lat="44.33233" lon="2.50177">
        <ele>639</ele>
        <time>2012-12-30T13:48:46Z</time>
      </trkpt>
      <trkpt lat="44.3323" lon="2.50185">
        <ele>639</ele>
        <time>2012-12-30T13:48:47Z</time>
      </trkpt>
      <trkpt lat="44.33225" lon="2.50193">
        <ele>639</ele>
        <time>2012-12-30T13:48:48Z</time>
      </trkpt>
      <trkpt lat="44.33221" lon="2.502">
        <ele>640</ele>
        <time>2012-12-30T13:48:49Z</time>
      </trkpt>
      <trkpt lat="44.33217" lon="2.50207">
        <ele>640</ele>
        <time>2012-12-30T13:48:50Z</time>
      </trkpt>
      <trkpt lat="44.33212" lon="2.50213">
        <ele>640</ele>
        <time>2012-12-30T13:48:51Z</time>
      </trkpt>
      <trkpt lat="44.33208" lon="2.50219">
        <ele>640</ele>
        <time>2012-12-30T13:48:52Z</time>
      </trkpt>
      <trkpt lat="44.33199" lon="2.5023">
        <ele>640</ele>
        <time>2012-12-30T13:48:54Z</time>
      </trkpt>
      <trkpt lat="44.3319" lon="2.50239">
        <ele>640</ele>
        <time>2012-12-30T13:48:56Z</time>
      </trkpt>
      <trkpt lat="44.3318" lon="2.50248">
        <ele>640</ele>
        <time>2012-12-30T13:48:58Z</time>
      </trkpt>
      <trkpt lat="44.33171" lon="2.50256">
        <ele>640</ele>
        <time>2012-12-30T13:49:00Z</time>
      </trkpt>
      <trkpt lat="44.33167" lon="2.5026">
        <ele>640</ele>
        <time>2012-12-30T13:49:01Z</time>
      </trkpt>
      <trkpt lat="44.33162" lon="2.50264">
        <ele>640</ele>
        <time>2012-12-30T13:49:02Z</time>
      </trkpt>
      <trkpt lat="44.33156" lon="2.50269">
        <ele>639</ele>
        <time>2012-12-30T13:49:03Z</time>
      </trkpt>
      <trkpt lat="44.33151" lon="2.50274">
        <ele>639</ele>
        <time>2012-12-30T13:49:04Z</time>
      </trkpt>
      <trkpt lat="44.33145" lon="2.50279">
        <ele>639</ele>
        <time>2012-12-30T13:49:05Z</time>
      </trkpt>
      <trkpt lat="44.3314" lon="2.50284">
        <ele>639</ele>
        <time>2012-12-30T13:49:06Z</time>
      </trkpt>
      <trkpt lat="44.33135" lon="2.50288">
        <ele>639</ele>
        <time>2012-12-30T13:49:07Z</time>
      </trkpt>
      <trkpt lat="44.3313" lon="2.50293">
        <ele>639</ele>
        <time>2012-12-30T13:49:08Z</time>
      </trkpt>
      <trkpt lat="44.33126" lon="2.50297">
        <ele>639</ele>
        <time>2012-12-30T13:49:09Z</time>
      </trkpt>
      <trkpt lat="44.33121" lon="2.50301">
        <ele>639</ele>
        <time>2012-12-30T13:49:10Z</time>
      </trkpt>
      <trkpt lat="44.33116" lon="2.50306">
        <ele>639</ele>
        <time>2012-12-30T13:49:11Z</time>
      </trkpt>
      <trkpt lat="44.33112" lon="2.5031">
        <ele>639</ele>
        <time>2012-12-30T13:49:12Z</time>
      </trkpt>
      <trkpt lat="44.33107" lon="2.50314">
        <ele>639</ele>
        <time>2012-12-30T13:49:13Z</time>
      </trkpt>
      <trkpt lat="44.33103" lon="2.50318">
        <ele>639</ele>
        <time>2012-12-30T13:49:14Z</time>
      </trkpt>
      <trkpt lat="44.33099" lon="2.50322">
        <ele>639</ele>
        <time>2012-12-30T13:49:15Z</time>
      </trkpt>
      <trkpt lat="44.33094" lon="2.50326">
        <ele>638</ele>
        <time>2012-12-30T13:49:16Z</time>
      </trkpt>
      <trkpt lat="44.3309" lon="2.5033">
        <ele>638</ele>
        <time>2012-12-30T13:49:17Z</time>
      </trkpt>
      <trkpt lat="44.33085" lon="2.50334">
        <ele>638</ele>
        <time>2012-12-30T13:49:18Z</time>
      </trkpt>
      <trkpt lat="44.3308" lon="2.50338">
        <ele>639</ele>
        <time>2012-12-30T13:49:19Z</time>
      </trkpt>
      <trkpt lat="44.33075" lon="2.50342">
        <ele>639</ele>
        <time>2012-12-30T13:49:20Z</time>
      </trkpt>
      <trkpt lat="44.33071" lon="2.50346">
        <ele>640</ele>
        <time>2012-12-30T13:49:21Z</time>
      </trkpt>
      <trkpt lat="44.33059" lon="2.50354">
        <ele>640</ele>
        <time>2012-12-30T13:49:24Z</time>
      </trkpt>
      <trkpt lat="44.33049" lon="2.50361">
        <ele>640</ele>
        <time>2012-12-30T13:49:27Z</time>
      </trkpt>
      <trkpt lat="44.33043" lon="2.50364">
        <ele>640</ele>
        <time>2012-12-30T13:49:29Z</time>
      </trkpt>
      <trkpt lat="44.33035" lon="2.50369">
        <ele>640</ele>
        <time>2012-12-30T13:49:32Z</time>
      </trkpt>
      <trkpt lat="44.33033" lon="2.50371">
        <ele>640</ele>
        <time>2012-12-30T13:49:38Z</time>
      </trkpt>
      <trkpt lat="44.33028" lon="2.50371">
        <ele>641</ele>
        <time>2012-12-30T13:50:17Z</time>
      </trkpt>
      <trkpt lat="44.33023" lon="2.50373">
        <ele>641</ele>
        <time>2012-12-30T13:50:27Z</time>
      </trkpt>
      <trkpt lat="44.33015" lon="2.50378">
        <ele>644</ele>
        <time>2012-12-30T13:50:58Z</time>
      </trkpt>
      <trkpt lat="44.3301" lon="2.50381">
        <ele>644</ele>
        <time>2012-12-30T13:51:01Z</time>
      </trkpt>
      <trkpt lat="44.33005" lon="2.50384">
        <ele>644</ele>
        <time>2012-12-30T13:51:04Z</time>
      </trkpt>
      <trkpt lat="44.33" lon="2.50386">
        <ele>645</ele>
        <time>2012-12-30T13:51:08Z</time>
      </trkpt>
      <trkpt lat="44.32996" lon="2.50389">
        <ele>644</ele>
        <time>2012-12-30T13:51:11Z</time>
      </trkpt>
      <trkpt lat="44.32991" lon="2.50391">
        <ele>644</ele>
        <time>2012-12-30T13:51:15Z</time>
      </trkpt>
      <trkpt lat="44.32986" lon="2.50393">
        <ele>644</ele>
        <time>2012-12-30T13:51:18Z</time>
      </trkpt>
      <trkpt lat="44.32981" lon="2.50396">
        <ele>643</ele>
        <time>2012-12-30T13:51:21Z</time>
      </trkpt>
      <trkpt lat="44.32977" lon="2.50399">
        <ele>643</ele>
        <time>2012-12-30T13:51:24Z</time>
      </trkpt>
      <trkpt lat="44.32971" lon="2.50403">
        <ele>643</ele>
        <time>2012-12-30T13:51:28Z</time>
      </trkpt>
      <trkpt lat="44.32966" lon="2.50406">
        <ele>643</ele>
        <time>2012-12-30T13:51:31Z</time>
      </trkpt>
      <trkpt lat="44.32961" lon="2.5041">
        <ele>643</ele>
        <time>2012-12-30T13:51:34Z</time>
      </trkpt>
      <trkpt lat="44.32957" lon="2.50413">
        <ele>644</ele>
        <time>2012-12-30T13:51:37Z</time>
      </trkpt>
      <trkpt lat="44.32953" lon="2.50416">
        <ele>644</ele>
        <time>2012-12-30T13:51:40Z</time>
      </trkpt>
      <trkpt lat="44.32943" lon="2.50422">
        <ele>645</ele>
        <time>2012-12-30T13:51:47Z</time>
      </trkpt>
      <trkpt lat="44.32935" lon="2.50426">
        <ele>643</ele>
        <time>2012-12-30T13:52:01Z</time>
      </trkpt>
      <trkpt lat="44.32931" lon="2.50429">
        <ele>642</ele>
        <time>2012-12-30T13:52:22Z</time>
      </trkpt>
      <trkpt lat="44.32935" lon="2.50434">
        <ele>642</ele>
        <time>2012-12-30T13:53:48Z</time>
      </trkpt>
      <trkpt lat="44.32932" lon="2.50433">
        <ele>643</ele>
        <time>2012-12-30T13:54:30Z</time>
      </trkpt>
      <trkpt lat="44.32927" lon="2.50435">
        <ele>642</ele>
        <time>2012-12-30T13:54:43Z</time>
      </trkpt>
      <trkpt lat="44.32921" lon="2.50438">
        <ele>643</ele>
        <time>2012-12-30T13:54:46Z</time>
      </trkpt>
      <trkpt lat="44.32916" lon="2.50441">
        <ele>644</ele>
        <time>2012-12-30T13:54:50Z</time>
      </trkpt>
      <trkpt lat="44.32912" lon="2.50444">
        <ele>644</ele>
        <time>2012-12-30T13:54:54Z</time>
      </trkpt>
      <trkpt lat="44.32908" lon="2.50449">
        <ele>644</ele>
        <time>2012-12-30T13:54:58Z</time>
      </trkpt>
      <trkpt lat="44.32902" lon="2.50456">
        <ele>644</ele>
        <time>2012-12-30T13:55:03Z</time>
      </trkpt>
      <trkpt lat="44.32898" lon="2.50459">
        <ele>644</ele>
        <time>2012-12-30T13:55:06Z</time>
      </trkpt>
      <trkpt lat="44.32894" lon="2.50464">
        <ele>643</ele>
        <time>2012-12-30T13:55:09Z</time>
      </trkpt>
      <trkpt lat="44.3289" lon="2.50466">
        <ele>642</ele>
        <time>2012-12-30T13:55:13Z</time>
      </trkpt>
      <trkpt lat="44.32885" lon="2.50469">
        <ele>642</ele>
        <time>2012-12-30T13:55:16Z</time>
      </trkpt>
      <trkpt lat="44.32881" lon="2.50473">
        <ele>642</ele>
        <time>2012-12-30T13:55:19Z</time>
      </trkpt>
      <trkpt lat="44.32876" lon="2.50477">
        <ele>643</ele>
        <time>2012-12-30T13:55:23Z</time>
      </trkpt>
      <trkpt lat="44.32873" lon="2.50481">
        <ele>643</ele>
        <time>2012-12-30T13:55:27Z</time>
      </trkpt>
      <trkpt lat="44.32868" lon="2.50485">
        <ele>643</ele>
        <time>2012-12-30T13:55:32Z</time>
      </trkpt>
      <trkpt lat="44.32864" lon="2.5049">
        <ele>644</ele>
        <time>2012-12-30T13:55:36Z</time>
      </trkpt>
      <trkpt lat="44.3286" lon="2.50494">
        <ele>644</ele>
        <time>2012-12-30T13:55:39Z</time>
      </trkpt>
      <trkpt lat="44.32856" lon="2.50498">
        <ele>645</ele>
        <time>2012-12-30T13:55:42Z</time>
      </trkpt>
      <trkpt lat="44.32851" lon="2.50503">
        <ele>646</ele>
        <time>2012-12-30T13:55:46Z</time>
      </trkpt>
      <trkpt lat="44.32847" lon="2.50507">
        <ele>646</ele>
        <time>2012-12-30T13:55:50Z</time>
      </trkpt>
      <trkpt lat="44.32842" lon="2.5051">
        <ele>646</ele>
        <time>2012-12-30T13:55:54Z</time>
      </trkpt>
      <trkpt lat="44.32838" lon="2.50513">
        <ele>646</ele>
        <time>2012-12-30T13:55:57Z</time>
      </trkpt>
      <trkpt lat="44.32834" lon="2.50518">
        <ele>646</ele>
        <time>2012-12-30T13:56:02Z</time>
      </trkpt>
      <trkpt lat="44.3283" lon="2.50523">
        <ele>645</ele>
        <time>2012-12-30T13:56:07Z</time>
      </trkpt>
      <trkpt lat="44.32825" lon="2.50528">
        <ele>645</ele>
        <time>2012-12-30T13:56:11Z</time>
      </trkpt>
      <trkpt lat="44.3282" lon="2.50531">
        <ele>645</ele>
        <time>2012-12-30T13:56:15Z</time>
      </trkpt>
      <trkpt lat="44.32816" lon="2.50535">
        <ele>644</ele>
        <time>2012-12-30T13:56:19Z</time>
      </trkpt>
      <trkpt lat="44.32811" lon="2.50538">
        <ele>644</ele>
        <time>2012-12-30T13:56:23Z</time>
      </trkpt>
      <trkpt lat="44.32806" lon="2.50542">
        <ele>644</ele>
        <time>2012-12-30T13:56:27Z</time>
      </trkpt>
      <trkpt lat="44.32802" lon="2.50545">
        <ele>644</ele>
        <time>2012-12-30T13:56:30Z</time>
      </trkpt>
      <trkpt lat="44.32797" lon="2.50546">
        <ele>645</ele>
        <time>2012-12-30T13:56:34Z</time>
      </trkpt>
      <trkpt lat="44.32792" lon="2.50549">
        <ele>646</ele>
        <time>2012-12-30T13:56:38Z</time>
      </trkpt>
      <trkpt lat="44.32787" lon="2.50553">
        <ele>646</ele>
        <time>2012-12-30T13:56:43Z</time>
      </trkpt>
      <trkpt lat="44.32782" lon="2.50555">
        <ele>646</ele>
        <time>2012-12-30T13:56:47Z</time>
      </trkpt>
      <trkpt lat="44.32777" lon="2.50557">
        <ele>647</ele>
        <time>2012-12-30T13:56:51Z</time>
      </trkpt>
      <trkpt lat="44.32772" lon="2.50558">
        <ele>648</ele>
        <time>2012-12-30T13:56:55Z</time>
      </trkpt>
      <trkpt lat="44.32767" lon="2.50559">
        <ele>649</ele>
        <time>2012-12-30T13:56:59Z</time>
      </trkpt>
      <trkpt lat="44.32762" lon="2.50562">
        <ele>650</ele>
        <time>2012-12-30T13:57:03Z</time>
      </trkpt>
      <trkpt lat="44.32757" lon="2.50565">
        <ele>650</ele>
        <time>2012-12-30T13:57:07Z</time>
      </trkpt>
      <trkpt lat="44.32752" lon="2.50568">
        <ele>651</ele>
        <time>2012-12-30T13:57:11Z</time>
      </trkpt>
      <trkpt lat="44.32747" lon="2.50572">
        <ele>650</ele>
        <time>2012-12-30T13:57:16Z</time>
      </trkpt>
      <trkpt lat="44.32742" lon="2.50575">
        <ele>649</ele>
        <time>2012-12-30T13:57:20Z</time>
      </trkpt>
      <trkpt lat="44.32738" lon="2.50578">
        <ele>649</ele>
        <time>2012-12-30T13:57:23Z</time>
      </trkpt>
      <trkpt lat="44.32733" lon="2.50581">
        <ele>649</ele>
        <time>2012-12-30T13:57:27Z</time>
      </trkpt>
      <trkpt lat="44.32728" lon="2.50585">
        <ele>649</ele>
        <time>2012-12-30T13:57:31Z</time>
      </trkpt>
      <trkpt lat="44.32724" lon="2.50587">
        <ele>649</ele>
        <time>2012-12-30T13:57:35Z</time>
      </trkpt>
      <trkpt lat="44.32719" lon="2.50589">
        <ele>650</ele>
        <time>2012-12-30T13:57:39Z</time>
      </trkpt>
      <trkpt lat="44.32715" lon="2.50593">
        <ele>650</ele>
        <time>2012-12-30T13:57:42Z</time>
      </trkpt>
      <trkpt lat="44.3271" lon="2.50597">
        <ele>650</ele>
        <time>2012-12-30T13:57:45Z</time>
      </trkpt>
      <trkpt lat="44.32706" lon="2.506">
        <ele>651</ele>
        <time>2012-12-30T13:57:49Z</time>
      </trkpt>
      <trkpt lat="44.32701" lon="2.50603">
        <ele>652</ele>
        <time>2012-12-30T13:57:53Z</time>
      </trkpt>
      <trkpt lat="44.32697" lon="2.50607">
        <ele>652</ele>
        <time>2012-12-30T13:57:57Z</time>
      </trkpt>
      <trkpt lat="44.32692" lon="2.50609">
        <ele>652</ele>
        <time>2012-12-30T13:58:01Z</time>
      </trkpt>
      <trkpt lat="44.32685" lon="2.50614">
        <ele>652</ele>
        <time>2012-12-30T13:58:07Z</time>
      </trkpt>
      <trkpt lat="44.32679" lon="2.5062">
        <ele>652</ele>
        <time>2012-12-30T13:58:12Z</time>
      </trkpt>
      <trkpt lat="44.32675" lon="2.50625">
        <ele>651</ele>
        <time>2012-12-30T13:58:16Z</time>
      </trkpt>
      <trkpt lat="44.32671" lon="2.50629">
        <ele>651</ele>
        <time>2012-12-30T13:58:21Z</time>
      </trkpt>
      <trkpt lat="44.32663" lon="2.50638">
        <ele>651</ele>
        <time>2012-12-30T13:58:28Z</time>
      </trkpt>
      <trkpt lat="44.32659" lon="2.50643">
        <ele>652</ele>
        <time>2012-12-30T13:58:32Z</time>
      </trkpt>
      <trkpt lat="44.32654" lon="2.50649">
        <ele>651</ele>
        <time>2012-12-30T13:58:37Z</time>
      </trkpt>
      <trkpt lat="44.32649" lon="2.50652">
        <ele>650</ele>
        <time>2012-12-30T13:58:41Z</time>
      </trkpt>
      <trkpt lat="44.32646" lon="2.50657">
        <ele>650</ele>
        <time>2012-12-30T13:58:45Z</time>
      </trkpt>
      <trkpt lat="44.32643" lon="2.50662">
        <ele>650</ele>
        <time>2012-12-30T13:58:49Z</time>
      </trkpt>
      <trkpt lat="44.32639" lon="2.50667">
        <ele>650</ele>
        <time>2012-12-30T13:58:53Z</time>
      </trkpt>
      <trkpt lat="44.32635" lon="2.50671">
        <ele>649</ele>
        <time>2012-12-30T13:58:57Z</time>
      </trkpt>
      <trkpt lat="44.3263" lon="2.50674">
        <ele>650</ele>
        <time>2012-12-30T13:59:00Z</time>
      </trkpt>
      <trkpt lat="44.32626" lon="2.50679">
        <ele>650</ele>
        <time>2012-12-30T13:59:03Z</time>
      </trkpt>
      <trkpt lat="44.32622" lon="2.50683">
        <ele>650</ele>
        <time>2012-12-30T13:59:06Z</time>
      </trkpt>
      <trkpt lat="44.32619" lon="2.50688">
        <ele>650</ele>
        <time>2012-12-30T13:59:09Z</time>
      </trkpt>
      <trkpt lat="44.32615" lon="2.50693">
        <ele>651</ele>
        <time>2012-12-30T13:59:13Z</time>
      </trkpt>
      <trkpt lat="44.32612" lon="2.50699">
        <ele>650</ele>
        <time>2012-12-30T13:59:17Z</time>
      </trkpt>
      <trkpt lat="44.32608" lon="2.50705">
        <ele>650</ele>
        <time>2012-12-30T13:59:21Z</time>
      </trkpt>
      <trkpt lat="44.32606" lon="2.50712">
        <ele>650</ele>
        <time>2012-12-30T13:59:25Z</time>
      </trkpt>
      <trkpt lat="44.326" lon="2.50721">
        <ele>649</ele>
        <time>2012-12-30T13:59:32Z</time>
      </trkpt>
      <trkpt lat="44.32596" lon="2.50726">
        <ele>650</ele>
        <time>2012-12-30T13:59:35Z</time>
      </trkpt>
      <trkpt lat="44.3259" lon="2.50733">
        <ele>650</ele>
        <time>2012-12-30T13:59:40Z</time>
      </trkpt>
      <trkpt lat="44.32586" lon="2.50739">
        <ele>650</ele>
        <time>2012-12-30T13:59:43Z</time>
      </trkpt>
      <trkpt lat="44.32582" lon="2.50744">
        <ele>650</ele>
        <time>2012-12-30T13:59:46Z</time>
      </trkpt>
      <trkpt lat="44.32578" lon="2.5075">
        <ele>650</ele>
        <time>2012-12-30T13:59:49Z</time>
      </trkpt>
      <trkpt lat="44.32574" lon="2.50755">
        <ele>651</ele>
        <time>2012-12-30T13:59:52Z</time>
      </trkpt>
      <trkpt lat="44.3257" lon="2.5076">
        <ele>651</ele>
        <time>2012-12-30T13:59:55Z</time>
      </trkpt>
      <trkpt lat="44.32566" lon="2.50765">
        <ele>650</ele>
        <time>2012-12-30T13:59:59Z</time>
      </trkpt>
      <trkpt lat="44.32562" lon="2.50769">
        <ele>650</ele>
        <time>2012-12-30T14:00:03Z</time>
      </trkpt>
      <trkpt lat="44.32558" lon="2.50775">
        <ele>649</ele>
        <time>2012-12-30T14:00:07Z</time>
      </trkpt>
      <trkpt lat="44.32555" lon="2.50782">
        <ele>648</ele>
        <time>2012-12-30T14:00:11Z</time>
      </trkpt>
      <trkpt lat="44.32552" lon="2.50788">
        <ele>648</ele>
        <time>2012-12-30T14:00:15Z</time>
      </trkpt>
      <trkpt lat="44.32549" lon="2.50795">
        <ele>647</ele>
        <time>2012-12-30T14:00:19Z</time>
      </trkpt>
      <trkpt lat="44.32545" lon="2.508">
        <ele>645</ele>
        <time>2012-12-30T14:00:23Z</time>
      </trkpt>
      <trkpt lat="44.32539" lon="2.5081">
        <ele>644</ele>
        <time>2012-12-30T14:00:29Z</time>
      </trkpt>
      <trkpt lat="44.32534" lon="2.50821">
        <ele>643</ele>
        <time>2012-12-30T14:00:35Z</time>
      </trkpt>
      <trkpt lat="44.32532" lon="2.50829">
        <ele>643</ele>
        <time>2012-12-30T14:00:45Z</time>
      </trkpt>
      <trkpt lat="44.32529" lon="2.50835">
        <ele>642</ele>
        <time>2012-12-30T14:00:48Z</time>
      </trkpt>
      <trkpt lat="44.32526" lon="2.50842">
        <ele>642</ele>
        <time>2012-12-30T14:00:51Z</time>
      </trkpt>
      <trkpt lat="44.32523" lon="2.50848">
        <ele>643</ele>
        <time>2012-12-30T14:00:54Z</time>
      </trkpt>
      <trkpt lat="44.3252" lon="2.50855">
        <ele>643</ele>
        <time>2012-12-30T14:00:58Z</time>
      </trkpt>
      <trkpt lat="44.32515" lon="2.50863">
        <ele>643</ele>
        <time>2012-12-30T14:01:05Z</time>
      </trkpt>
      <trkpt lat="44.32511" lon="2.5087">
        <ele>641</ele>
        <time>2012-12-30T14:01:11Z</time>
      </trkpt>
      <trkpt lat="44.32508" lon="2.50878">
        <ele>640</ele>
        <time>2012-12-30T14:01:15Z</time>
      </trkpt>
      <trkpt lat="44.32504" lon="2.50885">
        <ele>639</ele>
        <time>2012-12-30T14:01:19Z</time>
      </trkpt>
      <trkpt lat="44.32499" lon="2.50897">
        <ele>639</ele>
        <time>2012-12-30T14:01:27Z</time>
      </trkpt>
      <trkpt lat="44.32496" lon="2.5091">
        <ele>639</ele>
        <time>2012-12-30T14:01:33Z</time>
      </trkpt>
      <trkpt lat="44.32494" lon="2.50917">
        <ele>638</ele>
        <time>2012-12-30T14:01:37Z</time>
      </trkpt>
      <trkpt lat="44.32489" lon="2.50927">
        <ele>635</ele>
        <time>2012-12-30T14:01:43Z</time>
      </trkpt>
      <trkpt lat="44.32487" lon="2.50934">
        <ele>635</ele>
        <time>2012-12-30T14:01:47Z</time>
      </trkpt>
      <trkpt lat="44.32489" lon="2.50942">
        <ele>636</ele>
        <time>2012-12-30T14:01:50Z</time>
      </trkpt>
      <trkpt lat="44.32491" lon="2.50949">
        <ele>637</ele>
        <time>2012-12-30T14:01:53Z</time>
      </trkpt>
      <trkpt lat="44.32494" lon="2.50954">
        <ele>637</ele>
        <time>2012-12-30T14:01:56Z</time>
      </trkpt>
      <trkpt lat="44.32498" lon="2.50959">
        <ele>638</ele>
        <time>2012-12-30T14:01:59Z</time>
      </trkpt>
      <trkpt lat="44.32501" lon="2.50965">
        <ele>638</ele>
        <time>2012-12-30T14:02:03Z</time>
      </trkpt>
      <trkpt lat="44.32505" lon="2.50971">
        <ele>639</ele>
        <time>2012-12-30T14:02:07Z</time>
      </trkpt>
      <trkpt lat="44.3251" lon="2.50976">
        <ele>639</ele>
        <time>2012-12-30T14:02:11Z</time>
      </trkpt>
      <trkpt lat="44.32513" lon="2.50981">
        <ele>638</ele>
        <time>2012-12-30T14:02:14Z</time>
      </trkpt>
      <trkpt lat="44.32517" lon="2.50987">
        <ele>637</ele>
        <time>2012-12-30T14:02:18Z</time>
      </trkpt>
      <trkpt lat="44.32521" lon="2.50992">
        <ele>635</ele>
        <time>2012-12-30T14:02:22Z</time>
      </trkpt>
      <trkpt lat="44.32526" lon="2.50996">
        <ele>634</ele>
        <time>2012-12-30T14:02:25Z</time>
      </trkpt>
      <trkpt lat="44.32532" lon="2.51001">
        <ele>634</ele>
        <time>2012-12-30T14:02:28Z</time>
      </trkpt>
      <trkpt lat="44.32536" lon="2.51005">
        <ele>633</ele>
        <time>2012-12-30T14:02:32Z</time>
      </trkpt>
      <trkpt lat="44.32541" lon="2.51008">
        <ele>633</ele>
        <time>2012-12-30T14:02:36Z</time>
      </trkpt>
      <trkpt lat="44.3255" lon="2.51013">
        <ele>633</ele>
        <time>2012-12-30T14:02:43Z</time>
      </trkpt>
      <trkpt lat="44.32555" lon="2.51017">
        <ele>632</ele>
        <time>2012-12-30T14:02:46Z</time>
      </trkpt>
      <trkpt lat="44.3256" lon="2.51021">
        <ele>631</ele>
        <time>2012-12-30T14:02:49Z</time>
      </trkpt>
      <trkpt lat="44.32565" lon="2.51025">
        <ele>630</ele>
        <time>2012-12-30T14:02:52Z</time>
      </trkpt>
      <trkpt lat="44.32569" lon="2.51029">
        <ele>629</ele>
        <time>2012-12-30T14:02:57Z</time>
      </trkpt>
      <trkpt lat="44.32575" lon="2.51032">
        <ele>627</ele>
        <time>2012-12-30T14:03:01Z</time>
      </trkpt>
      <trkpt lat="44.32579" lon="2.51034">
        <ele>627</ele>
        <time>2012-12-30T14:03:04Z</time>
      </trkpt>
      <trkpt lat="44.32584" lon="2.51036">
        <ele>626</ele>
        <time>2012-12-30T14:03:07Z</time>
      </trkpt>
      <trkpt lat="44.32588" lon="2.51039">
        <ele>626</ele>
        <time>2012-12-30T14:03:10Z</time>
      </trkpt>
      <trkpt lat="44.32593" lon="2.51045">
        <ele>627</ele>
        <time>2012-12-30T14:03:14Z</time>
      </trkpt>
      <trkpt lat="44.32598" lon="2.5105">
        <ele>627</ele>
        <time>2012-12-30T14:03:18Z</time>
      </trkpt>
      <trkpt lat="44.32603" lon="2.51053">
        <ele>627</ele>
        <time>2012-12-30T14:03:22Z</time>
      </trkpt>
      <trkpt lat="44.32607" lon="2.51056">
        <ele>626</ele>
        <time>2012-12-30T14:03:25Z</time>
      </trkpt>
      <trkpt lat="44.32612" lon="2.5106">
        <ele>625</ele>
        <time>2012-12-30T14:03:30Z</time>
      </trkpt>
      <trkpt lat="44.32616" lon="2.51065">
        <ele>625</ele>
        <time>2012-12-30T14:03:33Z</time>
      </trkpt>
      <trkpt lat="44.3262" lon="2.51072">
        <ele>624</ele>
        <time>2012-12-30T14:03:37Z</time>
      </trkpt>
      <trkpt lat="44.32623" lon="2.5108">
        <ele>622</ele>
        <time>2012-12-30T14:03:44Z</time>
      </trkpt>
      <trkpt lat="44.32627" lon="2.51092">
        <ele>621</ele>
        <time>2012-12-30T14:03:52Z</time>
      </trkpt>
      <trkpt lat="44.32628" lon="2.51103">
        <ele>619</ele>
        <time>2012-12-30T14:04:00Z</time>
      </trkpt>
      <trkpt lat="44.3263" lon="2.5111">
        <ele>620</ele>
        <time>2012-12-30T14:04:04Z</time>
      </trkpt>
      <trkpt lat="44.32634" lon="2.51118">
        <ele>619</ele>
        <time>2012-12-30T14:04:09Z</time>
      </trkpt>
      <trkpt lat="44.32636" lon="2.51126">
        <ele>619</ele>
        <time>2012-12-30T14:04:13Z</time>
      </trkpt>
      <trkpt lat="44.32639" lon="2.51134">
        <ele>620</ele>
        <time>2012-12-30T14:04:16Z</time>
      </trkpt>
      <trkpt lat="44.32641" lon="2.51141">
        <ele>620</ele>
        <time>2012-12-30T14:04:19Z</time>
      </trkpt>
      <trkpt lat="44.32643" lon="2.51148">
        <ele>620</ele>
        <time>2012-12-30T14:04:22Z</time>
      </trkpt>
      <trkpt lat="44.32644" lon="2.51155">
        <ele>621</ele>
        <time>2012-12-30T14:04:25Z</time>
      </trkpt>
      <trkpt lat="44.32645" lon="2.51163">
        <ele>621</ele>
        <time>2012-12-30T14:04:30Z</time>
      </trkpt>
      <trkpt lat="44.32645" lon="2.5117">
        <ele>621</ele>
        <time>2012-12-30T14:04:34Z</time>
      </trkpt>
      <trkpt lat="44.32648" lon="2.51177">
        <ele>621</ele>
        <time>2012-12-30T14:04:39Z</time>
      </trkpt>
      <trkpt lat="44.32649" lon="2.51183">
        <ele>620</ele>
        <time>2012-12-30T14:04:43Z</time>
      </trkpt>
      <trkpt lat="44.32651" lon="2.51189">
        <ele>620</ele>
        <time>2012-12-30T14:04:47Z</time>
      </trkpt>
      <trkpt lat="44.32653" lon="2.51196">
        <ele>621</ele>
        <time>2012-12-30T14:04:51Z</time>
      </trkpt>
      <trkpt lat="44.32655" lon="2.51202">
        <ele>621</ele>
        <time>2012-12-30T14:04:55Z</time>
      </trkpt>
      <trkpt lat="44.32658" lon="2.51209">
        <ele>622</ele>
        <time>2012-12-30T14:04:59Z</time>
      </trkpt>
      <trkpt lat="44.3266" lon="2.51215">
        <ele>622</ele>
        <time>2012-12-30T14:05:02Z</time>
      </trkpt>
      <trkpt lat="44.32662" lon="2.51221">
        <ele>622</ele>
        <time>2012-12-30T14:05:06Z</time>
      </trkpt>
      <trkpt lat="44.32664" lon="2.51227">
        <ele>622</ele>
        <time>2012-12-30T14:05:10Z</time>
      </trkpt>
      <trkpt lat="44.32666" lon="2.51234">
        <ele>623</ele>
        <time>2012-12-30T14:05:14Z</time>
      </trkpt>
      <trkpt lat="44.32669" lon="2.51241">
        <ele>622</ele>
        <time>2012-12-30T14:05:18Z</time>
      </trkpt>
      <trkpt lat="44.32671" lon="2.51248">
        <ele>622</ele>
        <time>2012-12-30T14:05:22Z</time>
      </trkpt>
      <trkpt lat="44.32672" lon="2.51255">
        <ele>623</ele>
        <time>2012-12-30T14:05:26Z</time>
      </trkpt>
      <trkpt lat="44.32675" lon="2.51262">
        <ele>625</ele>
        <time>2012-12-30T14:05:30Z</time>
      </trkpt>
      <trkpt lat="44.32677" lon="2.51269">
        <ele>625</ele>
        <time>2012-12-30T14:05:34Z</time>
      </trkpt>
      <trkpt lat="44.3268" lon="2.51276">
        <ele>626</ele>
        <time>2012-12-30T14:05:38Z</time>
      </trkpt>
      <trkpt lat="44.32683" lon="2.51282">
        <ele>628</ele>
        <time>2012-12-30T14:05:42Z</time>
      </trkpt>
      <trkpt lat="44.32686" lon="2.51288">
        <ele>629</ele>
        <time>2012-12-30T14:05:45Z</time>
      </trkpt>
      <trkpt lat="44.32688" lon="2.51294">
        <ele>629</ele>
        <time>2012-12-30T14:05:48Z</time>
      </trkpt>
      <trkpt lat="44.3269" lon="2.513">
        <ele>630</ele>
        <time>2012-12-30T14:05:52Z</time>
      </trkpt>
      <trkpt lat="44.32693" lon="2.51307">
        <ele>630</ele>
        <time>2012-12-30T14:05:56Z</time>
      </trkpt>
      <trkpt lat="44.32696" lon="2.51313">
        <ele>630</ele>
        <time>2012-12-30T14:05:59Z</time>
      </trkpt>
      <trkpt lat="44.32698" lon="2.5132">
        <ele>630</ele>
        <time>2012-12-30T14:06:03Z</time>
      </trkpt>
      <trkpt lat="44.32701" lon="2.51327">
        <ele>630</ele>
        <time>2012-12-30T14:06:07Z</time>
      </trkpt>
      <trkpt lat="44.32704" lon="2.51332">
        <ele>630</ele>
        <time>2012-12-30T14:06:11Z</time>
      </trkpt>
      <trkpt lat="44.32708" lon="2.51338">
        <ele>631</ele>
        <time>2012-12-30T14:06:15Z</time>
      </trkpt>
      <trkpt lat="44.32716" lon="2.51345">
        <ele>631</ele>
        <time>2012-12-30T14:06:23Z</time>
      </trkpt>
      <trkpt lat="44.32721" lon="2.51347">
        <ele>632</ele>
        <time>2012-12-30T14:06:27Z</time>
      </trkpt>
      <trkpt lat="44.32727" lon="2.51349">
        <ele>633</ele>
        <time>2012-12-30T14:06:31Z</time>
      </trkpt>
      <trkpt lat="44.32732" lon="2.5135">
        <ele>633</ele>
        <time>2012-12-30T14:06:35Z</time>
      </trkpt>
      <trkpt lat="44.32739" lon="2.5135">
        <ele>632</ele>
        <time>2012-12-30T14:06:38Z</time>
      </trkpt>
      <trkpt lat="44.32743" lon="2.51348">
        <ele>631</ele>
        <time>2012-12-30T14:06:41Z</time>
      </trkpt>
      <trkpt lat="44.32751" lon="2.51344">
        <ele>631</ele>
        <time>2012-12-30T14:06:49Z</time>
      </trkpt>
      <trkpt lat="44.32759" lon="2.51343">
        <ele>631</ele>
        <time>2012-12-30T14:06:54Z</time>
      </trkpt>
      <trkpt lat="44.32765" lon="2.51343">
        <ele>631</ele>
        <time>2012-12-30T14:06:57Z</time>
      </trkpt>
      <trkpt lat="44.32771" lon="2.51344">
        <ele>630</ele>
        <time>2012-12-30T14:07:01Z</time>
      </trkpt>
      <trkpt lat="44.32776" lon="2.51344">
        <ele>630</ele>
        <time>2012-12-30T14:07:04Z</time>
      </trkpt>
      <trkpt lat="44.32782" lon="2.51345">
        <ele>630</ele>
        <time>2012-12-30T14:07:08Z</time>
      </trkpt>
      <trkpt lat="44.32786" lon="2.51345">
        <ele>630</ele>
        <time>2012-12-30T14:07:11Z</time>
      </trkpt>
      <trkpt lat="44.32791" lon="2.51346">
        <ele>629</ele>
        <time>2012-12-30T14:07:14Z</time>
      </trkpt>
      <trkpt lat="44.32795" lon="2.5135">
        <ele>629</ele>
        <time>2012-12-30T14:07:18Z</time>
      </trkpt>
      <trkpt lat="44.32806" lon="2.51356">
        <ele>629</ele>
        <time>2012-12-30T14:07:24Z</time>
      </trkpt>
      <trkpt lat="44.32814" lon="2.51362">
        <ele>629</ele>
        <time>2012-12-30T14:07:26Z</time>
      </trkpt>
      <trkpt lat="44.32824" lon="2.51367">
        <ele>629</ele>
        <time>2012-12-30T14:07:28Z</time>
      </trkpt>
      <trkpt lat="44.32829" lon="2.51371">
        <ele>629</ele>
        <time>2012-12-30T14:07:29Z</time>
      </trkpt>
      <trkpt lat="44.32835" lon="2.51374">
        <ele>629</ele>
        <time>2012-12-30T14:07:30Z</time>
      </trkpt>
      <trkpt lat="44.32841" lon="2.51377">
        <ele>629</ele>
        <time>2012-12-30T14:07:31Z</time>
      </trkpt>
      <trkpt lat="44.32846" lon="2.5138">
        <ele>629</ele>
        <time>2012-12-30T14:07:32Z</time>
      </trkpt>
      <trkpt lat="44.32852" lon="2.51384">
        <ele>629</ele>
        <time>2012-12-30T14:07:33Z</time>
      </trkpt>
      <trkpt lat="44.32857" lon="2.51387">
        <ele>629</ele>
        <time>2012-12-30T14:07:34Z</time>
      </trkpt>
      <trkpt lat="44.32862" lon="2.5139">
        <ele>629</ele>
        <time>2012-12-30T14:07:35Z</time>
      </trkpt>
      <trkpt lat="44.32867" lon="2.51393">
        <ele>629</ele>
        <time>2012-12-30T14:07:36Z</time>
      </trkpt>
      <trkpt lat="44.32873" lon="2.51395">
        <ele>629</ele>
        <time>2012-12-30T14:07:37Z</time>
      </trkpt>
      <trkpt lat="44.32879" lon="2.51398">
        <ele>629</ele>
        <time>2012-12-30T14:07:38Z</time>
      </trkpt>
      <trkpt lat="44.32884" lon="2.51401">
        <ele>629</ele>
        <time>2012-12-30T14:07:39Z</time>
      </trkpt>
      <trkpt lat="44.3289" lon="2.51404">
        <ele>628</ele>
        <time>2012-12-30T14:07:40Z</time>
      </trkpt>
      <trkpt lat="44.32896" lon="2.51407">
        <ele>628</ele>
        <time>2012-12-30T14:07:41Z</time>
      </trkpt>
      <trkpt lat="44.32902" lon="2.5141">
        <ele>628</ele>
        <time>2012-12-30T14:07:42Z</time>
      </trkpt>
      <trkpt lat="44.32909" lon="2.51412">
        <ele>628</ele>
        <time>2012-12-30T14:07:43Z</time>
      </trkpt>
      <trkpt lat="44.32916" lon="2.51414">
        <ele>628</ele>
        <time>2012-12-30T14:07:44Z</time>
      </trkpt>
      <trkpt lat="44.3293" lon="2.51418">
        <ele>629</ele>
        <time>2012-12-30T14:07:46Z</time>
      </trkpt>
      <trkpt lat="44.32946" lon="2.51423">
        <ele>629</ele>
        <time>2012-12-30T14:07:48Z</time>
      </trkpt>
      <trkpt lat="44.32952" lon="2.51425">
        <ele>629</ele>
        <time>2012-12-30T14:07:49Z</time>
      </trkpt>
      <trkpt lat="44.32959" lon="2.51427">
        <ele>629</ele>
        <time>2012-12-30T14:07:50Z</time>
      </trkpt>
      <trkpt lat="44.32965" lon="2.51428">
        <ele>629</ele>
        <time>2012-12-30T14:07:51Z</time>
      </trkpt>
      <trkpt lat="44.3297" lon="2.51429">
        <ele>629</ele>
        <time>2012-12-30T14:07:52Z</time>
      </trkpt>
      <trkpt lat="44.32976" lon="2.51431">
        <ele>629</ele>
        <time>2012-12-30T14:07:53Z</time>
      </trkpt>
      <trkpt lat="44.32981" lon="2.51432">
        <ele>629</ele>
        <time>2012-12-30T14:07:54Z</time>
      </trkpt>
      <trkpt lat="44.32986" lon="2.51434">
        <ele>629</ele>
        <time>2012-12-30T14:07:55Z</time>
      </trkpt>
      <trkpt lat="44.32998" lon="2.51437">
        <ele>630</ele>
        <time>2012-12-30T14:07:57Z</time>
      </trkpt>
      <trkpt lat="44.33008" lon="2.51442">
        <ele>630</ele>
        <time>2012-12-30T14:07:59Z</time>
      </trkpt>
      <trkpt lat="44.33018" lon="2.51448">
        <ele>631</ele>
        <time>2012-12-30T14:08:01Z</time>
      </trkpt>
      <trkpt lat="44.33028" lon="2.51456">
        <ele>631</ele>
        <time>2012-12-30T14:08:03Z</time>
      </trkpt>
      <trkpt lat="44.33033" lon="2.5146">
        <ele>631</ele>
        <time>2012-12-30T14:08:04Z</time>
      </trkpt>
      <trkpt lat="44.33037" lon="2.51464">
        <ele>631</ele>
        <time>2012-12-30T14:08:05Z</time>
      </trkpt>
      <trkpt lat="44.33046" lon="2.51471">
        <ele>631</ele>
        <time>2012-12-30T14:08:07Z</time>
      </trkpt>
      <trkpt lat="44.33055" lon="2.51478">
        <ele>631</ele>
        <time>2012-12-30T14:08:09Z</time>
      </trkpt>
      <trkpt lat="44.33059" lon="2.51481">
        <ele>631</ele>
        <time>2012-12-30T14:08:10Z</time>
      </trkpt>
      <trkpt lat="44.33065" lon="2.51487">
        <ele>630</ele>
        <time>2012-12-30T14:08:12Z</time>
      </trkpt>
      <trkpt lat="44.33069" lon="2.51489">
        <ele>631</ele>
        <time>2012-12-30T14:08:22Z</time>
      </trkpt>
      <trkpt lat="44.33074" lon="2.51493">
        <ele>631</ele>
        <time>2012-12-30T14:08:28Z</time>
      </trkpt>
      <trkpt lat="44.33078" lon="2.51496">
        <ele>631</ele>
        <time>2012-12-30T14:08:31Z</time>
      </trkpt>
      <trkpt lat="44.33083" lon="2.515">
        <ele>630</ele>
        <time>2012-12-30T14:08:34Z</time>
      </trkpt>
      <trkpt lat="44.33089" lon="2.51503">
        <ele>630</ele>
        <time>2012-12-30T14:08:37Z</time>
      </trkpt>
      <trkpt lat="44.33095" lon="2.51504">
        <ele>630</ele>
        <time>2012-12-30T14:08:40Z</time>
      </trkpt>
      <trkpt lat="44.33101" lon="2.51504">
        <ele>629</ele>
        <time>2012-12-30T14:08:43Z</time>
      </trkpt>
      <trkpt lat="44.33107" lon="2.51502">
        <ele>630</ele>
        <time>2012-12-30T14:08:46Z</time>
      </trkpt>
      <trkpt lat="44.33113" lon="2.51499">
        <ele>630</ele>
        <time>2012-12-30T14:08:49Z</time>
      </trkpt>
      <trkpt lat="44.33123" lon="2.51495">
        <ele>630</ele>
        <time>2012-12-30T14:08:55Z</time>
      </trkpt>
      <trkpt lat="44.33132" lon="2.5149">
        <ele>629</ele>
        <time>2012-12-30T14:09:02Z</time>
      </trkpt>
      <trkpt lat="44.33138" lon="2.51488">
        <ele>628</ele>
        <time>2012-12-30T14:09:06Z</time>
      </trkpt>
      <trkpt lat="44.33144" lon="2.51485">
        <ele>627</ele>
        <time>2012-12-30T14:09:10Z</time>
      </trkpt>
      <trkpt lat="44.33149" lon="2.51483">
        <ele>626</ele>
        <time>2012-12-30T14:09:13Z</time>
      </trkpt>
      <trkpt lat="44.33158" lon="2.51481">
        <ele>625</ele>
        <time>2012-12-30T14:09:18Z</time>
      </trkpt>
      <trkpt lat="44.33167" lon="2.51477">
        <ele>624</ele>
        <time>2012-12-30T14:09:22Z</time>
      </trkpt>
      <trkpt lat="44.33177" lon="2.51475">
        <ele>623</ele>
        <time>2012-12-30T14:09:27Z</time>
      </trkpt>
      <trkpt lat="44.33183" lon="2.51474">
        <ele>622</ele>
        <time>2012-12-30T14:09:31Z</time>
      </trkpt>
      <trkpt lat="44.33188" lon="2.51473">
        <ele>621</ele>
        <time>2012-12-30T14:09:34Z</time>
      </trkpt>
      <trkpt lat="44.33193" lon="2.51471">
        <ele>620</ele>
        <time>2012-12-30T14:09:37Z</time>
      </trkpt>
      <trkpt lat="44.33198" lon="2.5147">
        <ele>620</ele>
        <time>2012-12-30T14:09:40Z</time>
      </trkpt>
      <trkpt lat="44.33203" lon="2.51468">
        <ele>620</ele>
        <time>2012-12-30T14:09:43Z</time>
      </trkpt>
      <trkpt lat="44.33208" lon="2.51465">
        <ele>621</ele>
        <time>2012-12-30T14:09:47Z</time>
      </trkpt>
      <trkpt lat="44.33212" lon="2.51461">
        <ele>621</ele>
        <time>2012-12-30T14:09:50Z</time>
      </trkpt>
      <trkpt lat="44.33217" lon="2.51458">
        <ele>621</ele>
        <time>2012-12-30T14:09:53Z</time>
      </trkpt>
      <trkpt lat="44.33221" lon="2.51454">
        <ele>621</ele>
        <time>2012-12-30T14:09:56Z</time>
      </trkpt>
      <trkpt lat="44.33225" lon="2.51451">
        <ele>620</ele>
        <time>2012-12-30T14:10:00Z</time>
      </trkpt>
      <trkpt lat="44.33229" lon="2.51446">
        <ele>619</ele>
        <time>2012-12-30T14:10:04Z</time>
      </trkpt>
      <trkpt lat="44.33245" lon="2.5144">
        <ele>611</ele>
        <time>2012-12-30T14:10:35Z</time>
      </trkpt>
      <trkpt lat="44.33254" lon="2.51433">
        <ele>610</ele>
        <time>2012-12-30T14:10:42Z</time>
      </trkpt>
      <trkpt lat="44.33263" lon="2.51427">
        <ele>610</ele>
        <time>2012-12-30T14:10:50Z</time>
      </trkpt>
      <trkpt lat="44.33274" lon="2.51419">
        <ele>610</ele>
        <time>2012-12-30T14:10:58Z</time>
      </trkpt>
      <trkpt lat="44.33282" lon="2.51411">
        <ele>608</ele>
        <time>2012-12-30T14:11:05Z</time>
      </trkpt>
      <trkpt lat="44.33289" lon="2.51403">
        <ele>608</ele>
        <time>2012-12-30T14:11:12Z</time>
      </trkpt>
      <trkpt lat="44.33293" lon="2.51397">
        <ele>607</ele>
        <time>2012-12-30T14:11:15Z</time>
      </trkpt>
      <trkpt lat="44.33299" lon="2.51387">
        <ele>607</ele>
        <time>2012-12-30T14:11:20Z</time>
      </trkpt>
      <trkpt lat="44.33301" lon="2.51373">
        <ele>608</ele>
        <time>2012-12-30T14:11:25Z</time>
      </trkpt>
      <trkpt lat="44.33302" lon="2.51364">
        <ele>608</ele>
        <time>2012-12-30T14:11:28Z</time>
      </trkpt>
      <trkpt lat="44.33304" lon="2.51358">
        <ele>608</ele>
        <time>2012-12-30T14:11:31Z</time>
      </trkpt>
      <trkpt lat="44.33314" lon="2.51349">
        <ele>608</ele>
        <time>2012-12-30T14:11:44Z</time>
      </trkpt>
      <trkpt lat="44.33319" lon="2.51345">
        <ele>608</ele>
        <time>2012-12-30T14:11:47Z</time>
      </trkpt>
      <trkpt lat="44.33325" lon="2.51341">
        <ele>608</ele>
        <time>2012-12-30T14:11:52Z</time>
      </trkpt>
      <trkpt lat="44.33333" lon="2.51336">
        <ele>607</ele>
        <time>2012-12-30T14:11:59Z</time>
      </trkpt>
      <trkpt lat="44.33341" lon="2.5133">
        <ele>606</ele>
        <time>2012-12-30T14:12:05Z</time>
      </trkpt>
      <trkpt lat="44.33351" lon="2.5132">
        <ele>605</ele>
        <time>2012-12-30T14:12:13Z</time>
      </trkpt>
      <trkpt lat="44.33356" lon="2.51309">
        <ele>604</ele>
        <time>2012-12-30T14:12:19Z</time>
      </trkpt>
      <trkpt lat="44.33359" lon="2.51301">
        <ele>603</ele>
        <time>2012-12-30T14:12:23Z</time>
      </trkpt>
      <trkpt lat="44.33365" lon="2.51289">
        <ele>603</ele>
        <time>2012-12-30T14:12:30Z</time>
      </trkpt>
      <trkpt lat="44.33367" lon="2.51283">
        <ele>602</ele>
        <time>2012-12-30T14:12:33Z</time>
      </trkpt>
      <trkpt lat="44.3337" lon="2.51276">
        <ele>602</ele>
        <time>2012-12-30T14:12:36Z</time>
      </trkpt>
      <trkpt lat="44.33374" lon="2.51266">
        <ele>603</ele>
        <time>2012-12-30T14:12:41Z</time>
      </trkpt>
      <trkpt lat="44.33378" lon="2.51259">
        <ele>604</ele>
        <time>2012-12-30T14:12:45Z</time>
      </trkpt>
      <trkpt lat="44.33381" lon="2.51252">
        <ele>603</ele>
        <time>2012-12-30T14:12:49Z</time>
      </trkpt>
      <trkpt lat="44.33383" lon="2.51246">
        <ele>602</ele>
        <time>2012-12-30T14:12:52Z</time>
      </trkpt>
      <trkpt lat="44.33386" lon="2.51239">
        <ele>602</ele>
        <time>2012-12-30T14:12:55Z</time>
      </trkpt>
      <trkpt lat="44.33392" lon="2.51229">
        <ele>600</ele>
        <time>2012-12-30T14:13:02Z</time>
      </trkpt>
      <trkpt lat="44.33398" lon="2.51218">
        <ele>598</ele>
        <time>2012-12-30T14:13:08Z</time>
      </trkpt>
      <trkpt lat="44.33402" lon="2.51209">
        <ele>599</ele>
        <time>2012-12-30T14:13:27Z</time>
      </trkpt>
      <trkpt lat="44.33406" lon="2.51204">
        <ele>599</ele>
        <time>2012-12-30T14:13:33Z</time>
      </trkpt>
      <trkpt lat="44.33413" lon="2.51194">
        <ele>600</ele>
        <time>2012-12-30T14:13:39Z</time>
      </trkpt>
      <trkpt lat="44.33417" lon="2.51189">
        <ele>600</ele>
        <time>2012-12-30T14:13:42Z</time>
      </trkpt>
      <trkpt lat="44.33421" lon="2.51184">
        <ele>600</ele>
        <time>2012-12-30T14:13:46Z</time>
      </trkpt>
      <trkpt lat="44.33426" lon="2.51179">
        <ele>599</ele>
        <time>2012-12-30T14:13:50Z</time>
      </trkpt>
      <trkpt lat="44.33429" lon="2.51175">
        <ele>599</ele>
        <time>2012-12-30T14:13:53Z</time>
      </trkpt>
      <trkpt lat="44.33433" lon="2.51169">
        <ele>599</ele>
        <time>2012-12-30T14:13:56Z</time>
      </trkpt>
      <trkpt lat="44.33436" lon="2.51163">
        <ele>599</ele>
        <time>2012-12-30T14:13:59Z</time>
      </trkpt>
      <trkpt lat="44.33441" lon="2.51157">
        <ele>597</ele>
        <time>2012-12-30T14:14:03Z</time>
      </trkpt>
      <trkpt lat="44.33444" lon="2.51152">
        <ele>596</ele>
        <time>2012-12-30T14:14:06Z</time>
      </trkpt>
      <trkpt lat="44.33449" lon="2.51142">
        <ele>594</ele>
        <time>2012-12-30T14:14:11Z</time>
      </trkpt>
      <trkpt lat="44.33455" lon="2.51132">
        <ele>593</ele>
        <time>2012-12-30T14:14:17Z</time>
      </trkpt>
      <trkpt lat="44.33458" lon="2.51127">
        <ele>591</ele>
        <time>2012-12-30T14:14:20Z</time>
      </trkpt>
      <trkpt lat="44.3346" lon="2.51118">
        <ele>588</ele>
        <time>2012-12-30T14:14:27Z</time>
      </trkpt>
      <trkpt lat="44.33461" lon="2.51111">
        <ele>588</ele>
        <time>2012-12-30T14:14:31Z</time>
      </trkpt>
      <trkpt lat="44.33463" lon="2.51098">
        <ele>587</ele>
        <time>2012-12-30T14:14:37Z</time>
      </trkpt>
      <trkpt lat="44.33465" lon="2.51092">
        <ele>586</ele>
        <time>2012-12-30T14:14:42Z</time>
      </trkpt>
      <trkpt lat="44.33467" lon="2.51083">
        <ele>585</ele>
        <time>2012-12-30T14:14:47Z</time>
      </trkpt>
      <trkpt lat="44.33471" lon="2.51071">
        <ele>584</ele>
        <time>2012-12-30T14:14:52Z</time>
      </trkpt>
      <trkpt lat="44.33474" lon="2.51059">
        <ele>582</ele>
        <time>2012-12-30T14:14:58Z</time>
      </trkpt>
      <trkpt lat="44.33478" lon="2.51051">
        <ele>581</ele>
        <time>2012-12-30T14:15:02Z</time>
      </trkpt>
      <trkpt lat="44.33481" lon="2.51042">
        <ele>580</ele>
        <time>2012-12-30T14:15:08Z</time>
      </trkpt>
      <trkpt lat="44.33482" lon="2.51035">
        <ele>580</ele>
        <time>2012-12-30T14:15:11Z</time>
      </trkpt>
      <trkpt lat="44.33485" lon="2.51029">
        <ele>580</ele>
        <time>2012-12-30T14:15:14Z</time>
      </trkpt>
      <trkpt lat="44.33486" lon="2.51023">
        <ele>580</ele>
        <time>2012-12-30T14:15:17Z</time>
      </trkpt>
      <trkpt lat="44.3349" lon="2.51017">
        <ele>578</ele>
        <time>2012-12-30T14:15:24Z</time>
      </trkpt>
      <trkpt lat="44.33491" lon="2.5101">
        <ele>577</ele>
        <time>2012-12-30T14:15:29Z</time>
      </trkpt>
      <trkpt lat="44.33493" lon="2.51002">
        <ele>576</ele>
        <time>2012-12-30T14:15:32Z</time>
      </trkpt>
      <trkpt lat="44.33497" lon="2.50992">
        <ele>574</ele>
        <time>2012-12-30T14:15:38Z</time>
      </trkpt>
      <trkpt lat="44.33501" lon="2.50981">
        <ele>573</ele>
        <time>2012-12-30T14:15:44Z</time>
      </trkpt>
      <trkpt lat="44.33505" lon="2.50968">
        <ele>572</ele>
        <time>2012-12-30T14:15:50Z</time>
      </trkpt>
      <trkpt lat="44.33506" lon="2.50961">
        <ele>572</ele>
        <time>2012-12-30T14:15:53Z</time>
      </trkpt>
      <trkpt lat="44.3351" lon="2.50955">
        <ele>571</ele>
        <time>2012-12-30T14:15:56Z</time>
      </trkpt>
      <trkpt lat="44.33512" lon="2.50949">
        <ele>571</ele>
        <time>2012-12-30T14:15:59Z</time>
      </trkpt>
      <trkpt lat="44.33515" lon="2.50944">
        <ele>570</ele>
        <time>2012-12-30T14:16:03Z</time>
      </trkpt>
      <trkpt lat="44.33517" lon="2.50937">
        <ele>571</ele>
        <time>2012-12-30T14:16:07Z</time>
      </trkpt>
      <trkpt lat="44.3352" lon="2.50931">
        <ele>571</ele>
        <time>2012-12-30T14:16:10Z</time>
      </trkpt>
      <trkpt lat="44.33523" lon="2.50924">
        <ele>570</ele>
        <time>2012-12-30T14:16:15Z</time>
      </trkpt>
      <trkpt lat="44.33529" lon="2.50913">
        <ele>569</ele>
        <time>2012-12-30T14:16:21Z</time>
      </trkpt>
      <trkpt lat="44.33533" lon="2.50909">
        <ele>568</ele>
        <time>2012-12-30T14:16:24Z</time>
      </trkpt>
      <trkpt lat="44.33541" lon="2.509">
        <ele>563</ele>
        <time>2012-12-30T14:16:31Z</time>
      </trkpt>
      <trkpt lat="44.33547" lon="2.50893">
        <ele>561</ele>
        <time>2012-12-30T14:16:37Z</time>
      </trkpt>
      <trkpt lat="44.33551" lon="2.50887">
        <ele>559</ele>
        <time>2012-12-30T14:16:41Z</time>
      </trkpt>
      <trkpt lat="44.33557" lon="2.50876">
        <ele>555</ele>
        <time>2012-12-30T14:16:48Z</time>
      </trkpt>
      <trkpt lat="44.33565" lon="2.50866">
        <ele>554</ele>
        <time>2012-12-30T14:16:56Z</time>
      </trkpt>
      <trkpt lat="44.33571" lon="2.50856">
        <ele>552</ele>
        <time>2012-12-30T14:17:03Z</time>
      </trkpt>
      <trkpt lat="44.33579" lon="2.5085">
        <ele>551</ele>
        <time>2012-12-30T14:17:11Z</time>
      </trkpt>
      <trkpt lat="44.33583" lon="2.50846">
        <ele>552</ele>
        <time>2012-12-30T14:17:15Z</time>
      </trkpt>
      <trkpt lat="44.3359" lon="2.50838">
        <ele>554</ele>
        <time>2012-12-30T14:17:24Z</time>
      </trkpt>
      <trkpt lat="44.336" lon="2.50837">
        <ele>553</ele>
        <time>2012-12-30T14:17:30Z</time>
      </trkpt>
      <trkpt lat="44.33606" lon="2.50836">
        <ele>552</ele>
        <time>2012-12-30T14:17:33Z</time>
      </trkpt>
      <trkpt lat="44.33622" lon="2.50839">
        <ele>544</ele>
        <time>2012-12-30T14:17:42Z</time>
      </trkpt>
      <trkpt lat="44.33632" lon="2.50835">
        <ele>541</ele>
        <time>2012-12-30T14:17:47Z</time>
      </trkpt>
      <trkpt lat="44.33637" lon="2.50832">
        <ele>541</ele>
        <time>2012-12-30T14:17:50Z</time>
      </trkpt>
      <trkpt lat="44.33647" lon="2.50831">
        <ele>540</ele>
        <time>2012-12-30T14:17:57Z</time>
      </trkpt>
      <trkpt lat="44.33655" lon="2.50827">
        <ele>539</ele>
        <time>2012-12-30T14:18:05Z</time>
      </trkpt>
      <trkpt lat="44.33661" lon="2.50815">
        <ele>539</ele>
        <time>2012-12-30T14:18:21Z</time>
      </trkpt>
      <trkpt lat="44.33668" lon="2.50807">
        <ele>537</ele>
        <time>2012-12-30T14:18:27Z</time>
      </trkpt>
      <trkpt lat="44.33677" lon="2.508">
        <ele>537</ele>
        <time>2012-12-30T14:18:33Z</time>
      </trkpt>
      <trkpt lat="44.33685" lon="2.50791">
        <ele>537</ele>
        <time>2012-12-30T14:18:39Z</time>
      </trkpt>
      <trkpt lat="44.33689" lon="2.50786">
        <ele>537</ele>
        <time>2012-12-30T14:18:42Z</time>
      </trkpt>
      <trkpt lat="44.33694" lon="2.50783">
        <ele>537</ele>
        <time>2012-12-30T14:18:45Z</time>
      </trkpt>
      <trkpt lat="44.33704" lon="2.50779">
        <ele>536</ele>
        <time>2012-12-30T14:18:52Z</time>
      </trkpt>
      <trkpt lat="44.33713" lon="2.50778">
        <ele>534</ele>
        <time>2012-12-30T14:18:58Z</time>
      </trkpt>
      <trkpt lat="44.33723" lon="2.50776">
        <ele>534</ele>
        <time>2012-12-30T14:19:03Z</time>
      </trkpt>
      <trkpt lat="44.3373" lon="2.50775">
        <ele>532</ele>
        <time>2012-12-30T14:19:07Z</time>
      </trkpt>
      <trkpt lat="44.33734" lon="2.50775">
        <ele>532</ele>
        <time>2012-12-30T14:19:10Z</time>
      </trkpt>
      <trkpt lat="44.33744" lon="2.50774">
        <ele>532</ele>
        <time>2012-12-30T14:19:15Z</time>
      </trkpt>
      <trkpt lat="44.3375" lon="2.50773">
        <ele>533</ele>
        <time>2012-12-30T14:19:18Z</time>
      </trkpt>
      <trkpt lat="44.33755" lon="2.50771">
        <ele>533</ele>
        <time>2012-12-30T14:19:21Z</time>
      </trkpt>
      <trkpt lat="44.33759" lon="2.50768">
        <ele>536</ele>
        <time>2012-12-30T14:19:29Z</time>
      </trkpt>
      <trkpt lat="44.33761" lon="2.5077">
        <ele>536</ele>
        <time>2012-12-30T14:20:03Z</time>
      </trkpt>
      <trkpt lat="44.3377" lon="2.50765">
        <ele>535</ele>
        <time>2012-12-30T14:20:16Z</time>
      </trkpt>
      <trkpt lat="44.33777" lon="2.50757">
        <ele>532</ele>
        <time>2012-12-30T14:20:22Z</time>
      </trkpt>
      <trkpt lat="44.33781" lon="2.50752">
        <ele>532</ele>
        <time>2012-12-30T14:20:25Z</time>
      </trkpt>
      <trkpt lat="44.33785" lon="2.50744">
        <ele>532</ele>
        <time>2012-12-30T14:20:29Z</time>
      </trkpt>
      <trkpt lat="44.33787" lon="2.50737">
        <ele>531</ele>
        <time>2012-12-30T14:20:32Z</time>
      </trkpt>
      <trkpt lat="44.33791" lon="2.50728">
        <ele>531</ele>
        <time>2012-12-30T14:20:36Z</time>
      </trkpt>
      <trkpt lat="44.33793" lon="2.5072">
        <ele>531</ele>
        <time>2012-12-30T14:20:39Z</time>
      </trkpt>
      <trkpt lat="44.33797" lon="2.50706">
        <ele>531</ele>
        <time>2012-12-30T14:20:45Z</time>
      </trkpt>
      <trkpt lat="44.338" lon="2.50701">
        <ele>531</ele>
        <time>2012-12-30T14:20:47Z</time>
      </trkpt>
      <trkpt lat="44.33805" lon="2.50688">
        <ele>531</ele>
        <time>2012-12-30T14:20:53Z</time>
      </trkpt>
      <trkpt lat="44.33806" lon="2.50682">
        <ele>531</ele>
        <time>2012-12-30T14:20:56Z</time>
      </trkpt>
      <trkpt lat="44.33807" lon="2.50676">
        <ele>530</ele>
        <time>2012-12-30T14:20:59Z</time>
      </trkpt>
      <trkpt lat="44.33808" lon="2.5067">
        <ele>530</ele>
        <time>2012-12-30T14:21:02Z</time>
      </trkpt>
      <trkpt lat="44.33809" lon="2.50663">
        <ele>529</ele>
        <time>2012-12-30T14:21:05Z</time>
      </trkpt>
      <trkpt lat="44.33814" lon="2.50651">
        <ele>530</ele>
        <time>2012-12-30T14:21:12Z</time>
      </trkpt>
      <trkpt lat="44.3382" lon="2.50643">
        <ele>530</ele>
        <time>2012-12-30T14:21:16Z</time>
      </trkpt>
      <trkpt lat="44.33825" lon="2.50637">
        <ele>529</ele>
        <time>2012-12-30T14:21:19Z</time>
      </trkpt>
      <trkpt lat="44.33829" lon="2.50631">
        <ele>529</ele>
        <time>2012-12-30T14:21:22Z</time>
      </trkpt>
      <trkpt lat="44.3383" lon="2.50616">
        <ele>529</ele>
        <time>2012-12-30T14:21:51Z</time>
      </trkpt>
      <trkpt lat="44.33823" lon="2.50607">
        <ele>526</ele>
        <time>2012-12-30T14:21:58Z</time>
      </trkpt>
      <trkpt lat="44.33825" lon="2.50593">
        <ele>524</ele>
        <time>2012-12-30T14:22:05Z</time>
      </trkpt>
      <trkpt lat="44.3383" lon="2.50582">
        <ele>522</ele>
        <time>2012-12-30T14:22:11Z</time>
      </trkpt>
      <trkpt lat="44.33835" lon="2.50571">
        <ele>521</ele>
        <time>2012-12-30T14:22:17Z</time>
      </trkpt>
      <trkpt lat="44.3384" lon="2.5056">
        <ele>521</ele>
        <time>2012-12-30T14:22:22Z</time>
      </trkpt>
      <trkpt lat="44.33846" lon="2.5055">
        <ele>525</ele>
        <time>2012-12-30T14:22:28Z</time>
      </trkpt>
      <trkpt lat="44.33852" lon="2.5054">
        <ele>525</ele>
        <time>2012-12-30T14:22:34Z</time>
      </trkpt>
      <trkpt lat="44.33857" lon="2.5053">
        <ele>522</ele>
        <time>2012-12-30T14:22:40Z</time>
      </trkpt>
      <trkpt lat="44.3386" lon="2.50524">
        <ele>521</ele>
        <time>2012-12-30T14:22:43Z</time>
      </trkpt>
      <trkpt lat="44.33866" lon="2.50513">
        <ele>519</ele>
        <time>2012-12-30T14:22:50Z</time>
      </trkpt>
      <trkpt lat="44.33873" lon="2.50503">
        <ele>520</ele>
        <time>2012-12-30T14:22:57Z</time>
      </trkpt>
      <trkpt lat="44.33879" lon="2.50494">
        <ele>521</ele>
        <time>2012-12-30T14:23:02Z</time>
      </trkpt>
      <trkpt lat="44.33887" lon="2.50485">
        <ele>522</ele>
        <time>2012-12-30T14:23:08Z</time>
      </trkpt>
      <trkpt lat="44.33895" lon="2.50476">
        <ele>523</ele>
        <time>2012-12-30T14:23:13Z</time>
      </trkpt>
      <trkpt lat="44.33898" lon="2.50472">
        <ele>523</ele>
        <time>2012-12-30T14:23:16Z</time>
      </trkpt>
      <trkpt lat="44.33903" lon="2.50466">
        <ele>523</ele>
        <time>2012-12-30T14:23:20Z</time>
      </trkpt>
      <trkpt lat="44.33907" lon="2.50461">
        <ele>524</ele>
        <time>2012-12-30T14:23:23Z</time>
      </trkpt>
      <trkpt lat="44.3391" lon="2.50455">
        <ele>524</ele>
        <time>2012-12-30T14:23:28Z</time>
      </trkpt>
      <trkpt lat="44.33915" lon="2.50444">
        <ele>527</ele>
        <time>2012-12-30T14:23:35Z</time>
      </trkpt>
      <trkpt lat="44.33916" lon="2.50431">
        <ele>529</ele>
        <time>2012-12-30T14:23:43Z</time>
      </trkpt>
      <trkpt lat="44.33918" lon="2.50418">
        <ele>529</ele>
        <time>2012-12-30T14:23:50Z</time>
      </trkpt>
      <trkpt lat="44.33919" lon="2.50403">
        <ele>529</ele>
        <time>2012-12-30T14:23:56Z</time>
      </trkpt>
      <trkpt lat="44.33917" lon="2.50389">
        <ele>531</ele>
        <time>2012-12-30T14:24:02Z</time>
      </trkpt>
      <trkpt lat="44.33916" lon="2.50382">
        <ele>532</ele>
        <time>2012-12-30T14:24:05Z</time>
      </trkpt>
      <trkpt lat="44.33913" lon="2.5037">
        <ele>535</ele>
        <time>2012-12-30T14:24:11Z</time>
      </trkpt>
      <trkpt lat="44.33911" lon="2.50357">
        <ele>537</ele>
        <time>2012-12-30T14:24:17Z</time>
      </trkpt>
      <trkpt lat="44.33909" lon="2.50351">
        <ele>537</ele>
        <time>2012-12-30T14:24:20Z</time>
      </trkpt>
      <trkpt lat="44.33908" lon="2.50344">
        <ele>538</ele>
        <time>2012-12-30T14:24:23Z</time>
      </trkpt>
      <trkpt lat="44.33906" lon="2.50338">
        <ele>539</ele>
        <time>2012-12-30T14:24:26Z</time>
      </trkpt>
      <trkpt lat="44.33903" lon="2.50326">
        <ele>538</ele>
        <time>2012-12-30T14:24:33Z</time>
      </trkpt>
      <trkpt lat="44.33903" lon="2.50312">
        <ele>537</ele>
        <time>2012-12-30T14:24:40Z</time>
      </trkpt>
      <trkpt lat="44.33901" lon="2.50298">
        <ele>536</ele>
        <time>2012-12-30T14:24:47Z</time>
      </trkpt>
      <trkpt lat="44.33899" lon="2.50283">
        <ele>535</ele>
        <time>2012-12-30T14:25:03Z</time>
      </trkpt>
      <trkpt lat="44.33897" lon="2.50269">
        <ele>534</ele>
        <time>2012-12-30T14:25:10Z</time>
      </trkpt>
      <trkpt lat="44.33894" lon="2.50261">
        <ele>534</ele>
        <time>2012-12-30T14:25:13Z</time>
      </trkpt>
      <trkpt lat="44.33894" lon="2.50255">
        <ele>534</ele>
        <time>2012-12-30T14:25:16Z</time>
      </trkpt>
      <trkpt lat="44.33895" lon="2.50246">
        <ele>534</ele>
        <time>2012-12-30T14:25:19Z</time>
      </trkpt>
      <trkpt lat="44.33894" lon="2.50239">
        <ele>533</ele>
        <time>2012-12-30T14:25:22Z</time>
      </trkpt>
      <trkpt lat="44.33895" lon="2.50233">
        <ele>531</ele>
        <time>2012-12-30T14:25:25Z</time>
      </trkpt>
      <trkpt lat="44.33896" lon="2.50211">
        <ele>524</ele>
        <time>2012-12-30T14:25:36Z</time>
      </trkpt>
      <trkpt lat="44.33893" lon="2.50197">
        <ele>523</ele>
        <time>2012-12-30T14:25:42Z</time>
      </trkpt>
      <trkpt lat="44.33893" lon="2.50184">
        <ele>521</ele>
        <time>2012-12-30T14:25:47Z</time>
      </trkpt>
      <trkpt lat="44.33894" lon="2.5017">
        <ele>519</ele>
        <time>2012-12-30T14:25:54Z</time>
      </trkpt>
      <trkpt lat="44.33895" lon="2.50163">
        <ele>519</ele>
        <time>2012-12-30T14:25:57Z</time>
      </trkpt>
      <trkpt lat="44.33893" lon="2.50156">
        <ele>518</ele>
        <time>2012-12-30T14:26:00Z</time>
      </trkpt>
      <trkpt lat="44.33892" lon="2.50148">
        <ele>517</ele>
        <time>2012-12-30T14:26:04Z</time>
      </trkpt>
      <trkpt lat="44.33893" lon="2.50141">
        <ele>516</ele>
        <time>2012-12-30T14:26:07Z</time>
      </trkpt>
      <trkpt lat="44.33894" lon="2.50135">
        <ele>515</ele>
        <time>2012-12-30T14:26:10Z</time>
      </trkpt>
      <trkpt lat="44.33893" lon="2.50127">
        <ele>515</ele>
        <time>2012-12-30T14:26:13Z</time>
      </trkpt>
      <trkpt lat="44.33893" lon="2.5012">
        <ele>514</ele>
        <time>2012-12-30T14:26:16Z</time>
      </trkpt>
      <trkpt lat="44.33887" lon="2.50116">
        <ele>512</ele>
        <time>2012-12-30T14:26:20Z</time>
      </trkpt>
      <trkpt lat="44.33883" lon="2.50113">
        <ele>510</ele>
        <time>2012-12-30T14:26:24Z</time>
      </trkpt>
      <trkpt lat="44.33878" lon="2.5011">
        <ele>508</ele>
        <time>2012-12-30T14:26:28Z</time>
      </trkpt>
      <trkpt lat="44.33873" lon="2.50108">
        <ele>508</ele>
        <time>2012-12-30T14:26:32Z</time>
      </trkpt>
      <trkpt lat="44.33867" lon="2.50107">
        <ele>506</ele>
        <time>2012-12-30T14:26:36Z</time>
      </trkpt>
      <trkpt lat="44.33863" lon="2.50103">
        <ele>505</ele>
        <time>2012-12-30T14:26:40Z</time>
      </trkpt>
      <trkpt lat="44.33859" lon="2.50099">
        <ele>504</ele>
        <time>2012-12-30T14:26:43Z</time>
      </trkpt>
      <trkpt lat="44.33855" lon="2.50091">
        <ele>503</ele>
        <time>2012-12-30T14:26:47Z</time>
      </trkpt>
      <trkpt lat="44.33852" lon="2.50085">
        <ele>502</ele>
        <time>2012-12-30T14:26:50Z</time>
      </trkpt>
      <trkpt lat="44.33851" lon="2.50076">
        <ele>503</ele>
        <time>2012-12-30T14:26:55Z</time>
      </trkpt>
      <trkpt lat="44.3385" lon="2.50069">
        <ele>504</ele>
        <time>2012-12-30T14:26:58Z</time>
      </trkpt>
      <trkpt lat="44.33848" lon="2.50062">
        <ele>503</ele>
        <time>2012-12-30T14:27:01Z</time>
      </trkpt>
      <trkpt lat="44.33845" lon="2.50055">
        <ele>503</ele>
        <time>2012-12-30T14:27:04Z</time>
      </trkpt>
      <trkpt lat="44.33843" lon="2.50049">
        <ele>502</ele>
        <time>2012-12-30T14:27:07Z</time>
      </trkpt>
      <trkpt lat="44.33841" lon="2.50043">
        <ele>502</ele>
        <time>2012-12-30T14:27:10Z</time>
      </trkpt>
      <trkpt lat="44.33838" lon="2.50036">
        <ele>501</ele>
        <time>2012-12-30T14:27:14Z</time>
      </trkpt>
      <trkpt lat="44.33835" lon="2.5003">
        <ele>500</ele>
        <time>2012-12-30T14:27:17Z</time>
      </trkpt>
      <trkpt lat="44.33832" lon="2.50023">
        <ele>501</ele>
        <time>2012-12-30T14:27:21Z</time>
      </trkpt>
      <trkpt lat="44.33828" lon="2.50018">
        <ele>502</ele>
        <time>2012-12-30T14:27:24Z</time>
      </trkpt>
      <trkpt lat="44.33824" lon="2.50009">
        <ele>502</ele>
        <time>2012-12-30T14:27:28Z</time>
      </trkpt>
      <trkpt lat="44.33817" lon="2.49998">
        <ele>500</ele>
        <time>2012-12-30T14:27:33Z</time>
      </trkpt>
      <trkpt lat="44.3381" lon="2.49989">
        <ele>499</ele>
        <time>2012-12-30T14:27:38Z</time>
      </trkpt>
      <trkpt lat="44.33802" lon="2.49981">
        <ele>498</ele>
        <time>2012-12-30T14:27:43Z</time>
      </trkpt>
      <trkpt lat="44.33795" lon="2.49972">
        <ele>499</ele>
        <time>2012-12-30T14:27:50Z</time>
      </trkpt>
      <trkpt lat="44.33797" lon="2.49964">
        <ele>502</ele>
        <time>2012-12-30T14:28:19Z</time>
      </trkpt>
      <trkpt lat="44.33784" lon="2.4996">
        <ele>503</ele>
        <time>2012-12-30T14:29:09Z</time>
      </trkpt>
      <trkpt lat="44.33775" lon="2.49955">
        <ele>504</ele>
        <time>2012-12-30T14:29:14Z</time>
      </trkpt>
      <trkpt lat="44.33767" lon="2.49949">
        <ele>505</ele>
        <time>2012-12-30T14:29:19Z</time>
      </trkpt>
      <trkpt lat="44.33762" lon="2.49945">
        <ele>505</ele>
        <time>2012-12-30T14:29:23Z</time>
      </trkpt>
      <trkpt lat="44.33755" lon="2.49937">
        <ele>507</ele>
        <time>2012-12-30T14:29:31Z</time>
      </trkpt>
      <trkpt lat="44.33745" lon="2.49935">
        <ele>504</ele>
        <time>2012-12-30T14:29:40Z</time>
      </trkpt>
      <trkpt lat="44.33723" lon="2.49919">
        <ele>491</ele>
        <time>2012-12-30T14:30:08Z</time>
      </trkpt>
      <trkpt lat="44.33714" lon="2.49916">
        <ele>491</ele>
        <time>2012-12-30T14:30:12Z</time>
      </trkpt>
      <trkpt lat="44.33706" lon="2.49908">
        <ele>493</ele>
        <time>2012-12-30T14:30:22Z</time>
      </trkpt>
      <trkpt lat="44.33698" lon="2.499">
        <ele>493</ele>
        <time>2012-12-30T14:30:27Z</time>
      </trkpt>
      <trkpt lat="44.33689" lon="2.49892">
        <ele>491</ele>
        <time>2012-12-30T14:30:34Z</time>
      </trkpt>
      <trkpt lat="44.33682" lon="2.49881">
        <ele>491</ele>
        <time>2012-12-30T14:30:43Z</time>
      </trkpt>
      <trkpt lat="44.33678" lon="2.49869">
        <ele>491</ele>
        <time>2012-12-30T14:30:50Z</time>
      </trkpt>
      <trkpt lat="44.33678" lon="2.49855">
        <ele>492</ele>
        <time>2012-12-30T14:30:57Z</time>
      </trkpt>
      <trkpt lat="44.33675" lon="2.49842">
        <ele>493</ele>
        <time>2012-12-30T14:31:05Z</time>
      </trkpt>
      <trkpt lat="44.33674" lon="2.49828">
        <ele>492</ele>
        <time>2012-12-30T14:31:13Z</time>
      </trkpt>
      <trkpt lat="44.33671" lon="2.49814">
        <ele>488</ele>
        <time>2012-12-30T14:31:23Z</time>
      </trkpt>
      <trkpt lat="44.33665" lon="2.49803">
        <ele>486</ele>
        <time>2012-12-30T14:31:29Z</time>
      </trkpt>
      <trkpt lat="44.33658" lon="2.49792">
        <ele>485</ele>
        <time>2012-12-30T14:31:35Z</time>
      </trkpt>
      <trkpt lat="44.3365" lon="2.49781">
        <ele>484</ele>
        <time>2012-12-30T14:31:43Z</time>
      </trkpt>
      <trkpt lat="44.33642" lon="2.49774">
        <ele>482</ele>
        <time>2012-12-30T14:31:49Z</time>
      </trkpt>
      <trkpt lat="44.33638" lon="2.49762">
        <ele>481</ele>
        <time>2012-12-30T14:31:55Z</time>
      </trkpt>
      <trkpt lat="44.33632" lon="2.49751">
        <ele>481</ele>
        <time>2012-12-30T14:32:01Z</time>
      </trkpt>
      <trkpt lat="44.33626" lon="2.49741">
        <ele>480</ele>
        <time>2012-12-30T14:32:08Z</time>
      </trkpt>
      <trkpt lat="44.33622" lon="2.49729">
        <ele>480</ele>
        <time>2012-12-30T14:32:17Z</time>
      </trkpt>
      <trkpt lat="44.33621" lon="2.49714">
        <ele>486</ele>
        <time>2012-12-30T14:32:27Z</time>
      </trkpt>
      <trkpt lat="44.33617" lon="2.49701">
        <ele>488</ele>
        <time>2012-12-30T14:32:36Z</time>
      </trkpt>
      <trkpt lat="44.33615" lon="2.49686">
        <ele>490</ele>
        <time>2012-12-30T14:32:43Z</time>
      </trkpt>
      <trkpt lat="44.33615" lon="2.49673">
        <ele>492</ele>
        <time>2012-12-30T14:32:49Z</time>
      </trkpt>
      <trkpt lat="44.33611" lon="2.4966">
        <ele>496</ele>
        <time>2012-12-30T14:32:56Z</time>
      </trkpt>
      <trkpt lat="44.33606" lon="2.49649">
        <ele>498</ele>
        <time>2012-12-30T14:33:02Z</time>
      </trkpt>
      <trkpt lat="44.33604" lon="2.49635">
        <ele>502</ele>
        <time>2012-12-30T14:33:18Z</time>
      </trkpt>
      <trkpt lat="44.33604" lon="2.49618">
        <ele>503</ele>
        <time>2012-12-30T14:33:26Z</time>
      </trkpt>
      <trkpt lat="44.3361" lon="2.49607">
        <ele>505</ele>
        <time>2012-12-30T14:33:33Z</time>
      </trkpt>
      <trkpt lat="44.33614" lon="2.49594">
        <ele>506</ele>
        <time>2012-12-30T14:33:39Z</time>
      </trkpt>
      <trkpt lat="44.33618" lon="2.49582">
        <ele>507</ele>
        <time>2012-12-30T14:33:45Z</time>
      </trkpt>
      <trkpt lat="44.33617" lon="2.49569">
        <ele>507</ele>
        <time>2012-12-30T14:33:52Z</time>
      </trkpt>
      <trkpt lat="44.33618" lon="2.49556">
        <ele>507</ele>
        <time>2012-12-30T14:33:58Z</time>
      </trkpt>
      <trkpt lat="44.33618" lon="2.49542">
        <ele>508</ele>
        <time>2012-12-30T14:34:04Z</time>
      </trkpt>
      <trkpt lat="44.33618" lon="2.49535">
        <ele>509</ele>
        <time>2012-12-30T14:34:08Z</time>
      </trkpt>
      <trkpt lat="44.33619" lon="2.49522">
        <ele>510</ele>
        <time>2012-12-30T14:34:14Z</time>
      </trkpt>
      <trkpt lat="44.3362" lon="2.49513">
        <ele>509</ele>
        <time>2012-12-30T14:34:18Z</time>
      </trkpt>
      <trkpt lat="44.33621" lon="2.49505">
        <ele>508</ele>
        <time>2012-12-30T14:34:22Z</time>
      </trkpt>
      <trkpt lat="44.33624" lon="2.49494">
        <ele>507</ele>
        <time>2012-12-30T14:34:27Z</time>
      </trkpt>
      <trkpt lat="44.33626" lon="2.49489">
        <ele>506</ele>
        <time>2012-12-30T14:34:30Z</time>
      </trkpt>
      <trkpt lat="44.33633" lon="2.49479">
        <ele>507</ele>
        <time>2012-12-30T14:34:35Z</time>
      </trkpt>
      <trkpt lat="44.33641" lon="2.49471">
        <ele>504</ele>
        <time>2012-12-30T14:34:43Z</time>
      </trkpt>
      <trkpt lat="44.3365" lon="2.49464">
        <ele>498</ele>
        <time>2012-12-30T14:34:49Z</time>
      </trkpt>
      <trkpt lat="44.33658" lon="2.49457">
        <ele>497</ele>
        <time>2012-12-30T14:34:53Z</time>
      </trkpt>
      <trkpt lat="44.33665" lon="2.49452">
        <ele>496</ele>
        <time>2012-12-30T14:34:57Z</time>
      </trkpt>
      <trkpt lat="44.33671" lon="2.49446">
        <ele>496</ele>
        <time>2012-12-30T14:35:01Z</time>
      </trkpt>
      <trkpt lat="44.33675" lon="2.49441">
        <ele>495</ele>
        <time>2012-12-30T14:35:04Z</time>
      </trkpt>
      <trkpt lat="44.33683" lon="2.49431">
        <ele>494</ele>
        <time>2012-12-30T14:35:10Z</time>
      </trkpt>
      <trkpt lat="44.33691" lon="2.49423">
        <ele>494</ele>
        <time>2012-12-30T14:35:17Z</time>
      </trkpt>
      <trkpt lat="44.33699" lon="2.49413">
        <ele>492</ele>
        <time>2012-12-30T14:35:23Z</time>
      </trkpt>
      <trkpt lat="44.33707" lon="2.49403">
        <ele>492</ele>
        <time>2012-12-30T14:35:29Z</time>
      </trkpt>
      <trkpt lat="44.33715" lon="2.49393">
        <ele>490</ele>
        <time>2012-12-30T14:35:35Z</time>
      </trkpt>
      <trkpt lat="44.33723" lon="2.49384">
        <ele>490</ele>
        <time>2012-12-30T14:35:40Z</time>
      </trkpt>
      <trkpt lat="44.33731" lon="2.49378">
        <ele>491</ele>
        <time>2012-12-30T14:35:45Z</time>
      </trkpt>
      <trkpt lat="44.33739" lon="2.49371">
        <ele>491</ele>
        <time>2012-12-30T14:35:50Z</time>
      </trkpt>
      <trkpt lat="44.33747" lon="2.49364">
        <ele>491</ele>
        <time>2012-12-30T14:35:56Z</time>
      </trkpt>
      <trkpt lat="44.33754" lon="2.49355">
        <ele>491</ele>
        <time>2012-12-30T14:36:02Z</time>
      </trkpt>
      <trkpt lat="44.33762" lon="2.49346">
        <ele>491</ele>
        <time>2012-12-30T14:36:08Z</time>
      </trkpt>
      <trkpt lat="44.33767" lon="2.49332">
        <ele>492</ele>
        <time>2012-12-30T14:36:39Z</time>
      </trkpt>
      <trkpt lat="44.33774" lon="2.4932">
        <ele>493</ele>
        <time>2012-12-30T14:36:46Z</time>
      </trkpt>
      <trkpt lat="44.33777" lon="2.49307">
        <ele>493</ele>
        <time>2012-12-30T14:36:52Z</time>
      </trkpt>
      <trkpt lat="44.33781" lon="2.49296">
        <ele>496</ele>
        <time>2012-12-30T14:37:00Z</time>
      </trkpt>
      <trkpt lat="44.33785" lon="2.49284">
        <ele>496</ele>
        <time>2012-12-30T14:37:06Z</time>
      </trkpt>
      <trkpt lat="44.33791" lon="2.49274">
        <ele>494</ele>
        <time>2012-12-30T14:37:12Z</time>
      </trkpt>
      <trkpt lat="44.33793" lon="2.49268">
        <ele>495</ele>
        <time>2012-12-30T14:37:16Z</time>
      </trkpt>
      <trkpt lat="44.338" lon="2.49259">
        <ele>494</ele>
        <time>2012-12-30T14:37:25Z</time>
      </trkpt>
      <trkpt lat="44.33808" lon="2.49252">
        <ele>492</ele>
        <time>2012-12-30T14:37:33Z</time>
      </trkpt>
      <trkpt lat="44.33812" lon="2.49241">
        <ele>491</ele>
        <time>2012-12-30T14:37:39Z</time>
      </trkpt>
      <trkpt lat="44.33813" lon="2.49233">
        <ele>489</ele>
        <time>2012-12-30T14:37:42Z</time>
      </trkpt>
      <trkpt lat="44.33814" lon="2.49226">
        <ele>490</ele>
        <time>2012-12-30T14:37:47Z</time>
      </trkpt>
      <trkpt lat="44.33817" lon="2.49218">
        <ele>493</ele>
        <time>2012-12-30T14:37:52Z</time>
      </trkpt>
      <trkpt lat="44.33823" lon="2.49207">
        <ele>493</ele>
        <time>2012-12-30T14:38:00Z</time>
      </trkpt>
      <trkpt lat="44.33829" lon="2.49197">
        <ele>493</ele>
        <time>2012-12-30T14:38:06Z</time>
      </trkpt>
      <trkpt lat="44.33837" lon="2.49189">
        <ele>496</ele>
        <time>2012-12-30T14:38:12Z</time>
      </trkpt>
      <trkpt lat="44.33836" lon="2.49177">
        <ele>500</ele>
        <time>2012-12-30T14:38:24Z</time>
      </trkpt>
      <trkpt lat="44.33831" lon="2.49182">
        <ele>499</ele>
        <time>2012-12-30T14:38:28Z</time>
      </trkpt>
      <trkpt lat="44.33822" lon="2.49188">
        <ele>498</ele>
        <time>2012-12-30T14:38:35Z</time>
      </trkpt>
      <trkpt lat="44.33816" lon="2.4919">
        <ele>498</ele>
        <time>2012-12-30T14:38:40Z</time>
      </trkpt>
      <trkpt lat="44.33812" lon="2.49191">
        <ele>498</ele>
        <time>2012-12-30T14:38:43Z</time>
      </trkpt>
      <trkpt lat="44.33803" lon="2.49194">
        <ele>497</ele>
        <time>2012-12-30T14:38:48Z</time>
      </trkpt>
      <trkpt lat="44.33793" lon="2.49198">
        <ele>495</ele>
        <time>2012-12-30T14:38:54Z</time>
      </trkpt>
      <trkpt lat="44.33784" lon="2.49202">
        <ele>495</ele>
        <time>2012-12-30T14:39:00Z</time>
      </trkpt>
      <trkpt lat="44.33776" lon="2.49206">
        <ele>496</ele>
        <time>2012-12-30T14:39:06Z</time>
      </trkpt>
      <trkpt lat="44.33771" lon="2.49209">
        <ele>495</ele>
        <time>2012-12-30T14:39:09Z</time>
      </trkpt>
      <trkpt lat="44.33763" lon="2.49214">
        <ele>494</ele>
        <time>2012-12-30T14:39:14Z</time>
      </trkpt>
      <trkpt lat="44.33758" lon="2.49216">
        <ele>494</ele>
        <time>2012-12-30T14:39:17Z</time>
      </trkpt>
      <trkpt lat="44.33752" lon="2.49218">
        <ele>493</ele>
        <time>2012-12-30T14:39:21Z</time>
      </trkpt>
      <trkpt lat="44.33748" lon="2.4922">
        <ele>493</ele>
        <time>2012-12-30T14:39:24Z</time>
      </trkpt>
      <trkpt lat="44.33743" lon="2.49222">
        <ele>491</ele>
        <time>2012-12-30T14:39:28Z</time>
      </trkpt>
      <trkpt lat="44.33734" lon="2.49227">
        <ele>487</ele>
        <time>2012-12-30T14:39:37Z</time>
      </trkpt>
      <trkpt lat="44.33733" lon="2.49234">
        <ele>481</ele>
        <time>2012-12-30T14:39:49Z</time>
      </trkpt>
      <trkpt lat="44.33724" lon="2.49239">
        <ele>478</ele>
        <time>2012-12-30T14:40:07Z</time>
      </trkpt>
      <trkpt lat="44.33715" lon="2.49245">
        <ele>479</ele>
        <time>2012-12-30T14:40:13Z</time>
      </trkpt>
      <trkpt lat="44.33708" lon="2.49251">
        <ele>479</ele>
        <time>2012-12-30T14:40:18Z</time>
      </trkpt>
      <trkpt lat="44.33701" lon="2.49259">
        <ele>482</ele>
        <time>2012-12-30T14:40:26Z</time>
      </trkpt>
      <trkpt lat="44.33693" lon="2.49269">
        <ele>483</ele>
        <time>2012-12-30T14:40:34Z</time>
      </trkpt>
      <trkpt lat="44.33686" lon="2.49278">
        <ele>484</ele>
        <time>2012-12-30T14:40:41Z</time>
      </trkpt>
      <trkpt lat="44.33679" lon="2.49285">
        <ele>482</ele>
        <time>2012-12-30T14:40:49Z</time>
      </trkpt>
      <trkpt lat="44.33674" lon="2.49296">
        <ele>481</ele>
        <time>2012-12-30T14:40:56Z</time>
      </trkpt>
      <trkpt lat="44.33668" lon="2.49305">
        <ele>480</ele>
        <time>2012-12-30T14:41:03Z</time>
      </trkpt>
      <trkpt lat="44.3366" lon="2.49313">
        <ele>482</ele>
        <time>2012-12-30T14:41:10Z</time>
      </trkpt>
      <trkpt lat="44.33651" lon="2.49321">
        <ele>483</ele>
        <time>2012-12-30T14:41:19Z</time>
      </trkpt>
      <trkpt lat="44.33642" lon="2.49327">
        <ele>485</ele>
        <time>2012-12-30T14:41:29Z</time>
      </trkpt>
      <trkpt lat="44.33633" lon="2.49333">
        <ele>486</ele>
        <time>2012-12-30T14:41:37Z</time>
      </trkpt>
      <trkpt lat="44.33624" lon="2.49336">
        <ele>485</ele>
        <time>2012-12-30T14:41:45Z</time>
      </trkpt>
      <trkpt lat="44.33614" lon="2.49342">
        <ele>483</ele>
        <time>2012-12-30T14:41:54Z</time>
      </trkpt>
      <trkpt lat="44.33603" lon="2.49345">
        <ele>481</ele>
        <time>2012-12-30T14:42:01Z</time>
      </trkpt>
      <trkpt lat="44.33593" lon="2.4935">
        <ele>480</ele>
        <time>2012-12-30T14:42:06Z</time>
      </trkpt>
      <trkpt lat="44.33584" lon="2.49354">
        <ele>480</ele>
        <time>2012-12-30T14:42:11Z</time>
      </trkpt>
      <trkpt lat="44.33575" lon="2.4936">
        <ele>482</ele>
        <time>2012-12-30T14:42:18Z</time>
      </trkpt>
      <trkpt lat="44.33567" lon="2.49364">
        <ele>483</ele>
        <time>2012-12-30T14:42:24Z</time>
      </trkpt>
      <trkpt lat="44.33557" lon="2.49369">
        <ele>486</ele>
        <time>2012-12-30T14:42:33Z</time>
      </trkpt>
      <trkpt lat="44.33547" lon="2.49372">
        <ele>487</ele>
        <time>2012-12-30T14:42:39Z</time>
      </trkpt>
      <trkpt lat="44.33537" lon="2.49377">
        <ele>487</ele>
        <time>2012-12-30T14:42:45Z</time>
      </trkpt>
      <trkpt lat="44.33529" lon="2.49382">
        <ele>488</ele>
        <time>2012-12-30T14:42:50Z</time>
      </trkpt>
      <trkpt lat="44.33519" lon="2.49385">
        <ele>490</ele>
        <time>2012-12-30T14:42:57Z</time>
      </trkpt>
      <trkpt lat="44.3351" lon="2.49389">
        <ele>490</ele>
        <time>2012-12-30T14:43:04Z</time>
      </trkpt>
      <trkpt lat="44.33501" lon="2.49391">
        <ele>484</ele>
        <time>2012-12-30T14:43:14Z</time>
      </trkpt>
      <trkpt lat="44.33491" lon="2.49393">
        <ele>481</ele>
        <time>2012-12-30T14:43:19Z</time>
      </trkpt>
      <trkpt lat="44.33482" lon="2.49396">
        <ele>478</ele>
        <time>2012-12-30T14:43:25Z</time>
      </trkpt>
      <trkpt lat="44.33471" lon="2.49398">
        <ele>478</ele>
        <time>2012-12-30T14:43:32Z</time>
      </trkpt>
      <trkpt lat="44.3346" lon="2.494">
        <ele>478</ele>
        <time>2012-12-30T14:43:40Z</time>
      </trkpt>
      <trkpt lat="44.33451" lon="2.49404">
        <ele>478</ele>
        <time>2012-12-30T14:43:46Z</time>
      </trkpt>
      <trkpt lat="44.33442" lon="2.49407">
        <ele>478</ele>
        <time>2012-12-30T14:43:52Z</time>
      </trkpt>
      <trkpt lat="44.33433" lon="2.49409">
        <ele>478</ele>
        <time>2012-12-30T14:43:56Z</time>
      </trkpt>
      <trkpt lat="44.33424" lon="2.49412">
        <ele>480</ele>
        <time>2012-12-30T14:44:05Z</time>
      </trkpt>
      <trkpt lat="44.33415" lon="2.49416">
        <ele>481</ele>
        <time>2012-12-30T14:44:12Z</time>
      </trkpt>
      <trkpt lat="44.33405" lon="2.49419">
        <ele>483</ele>
        <time>2012-12-30T14:44:18Z</time>
      </trkpt>
      <trkpt lat="44.33396" lon="2.49422">
        <ele>484</ele>
        <time>2012-12-30T14:44:26Z</time>
      </trkpt>
      <trkpt lat="44.33383" lon="2.49428">
        <ele>482</ele>
        <time>2012-12-30T14:44:39Z</time>
      </trkpt>
      <trkpt lat="44.33374" lon="2.49431">
        <ele>483</ele>
        <time>2012-12-30T14:44:45Z</time>
      </trkpt>
      <trkpt lat="44.33362" lon="2.49433">
        <ele>486</ele>
        <time>2012-12-30T14:44:56Z</time>
      </trkpt>
      <trkpt lat="44.33353" lon="2.49433">
        <ele>486</ele>
        <time>2012-12-30T14:45:06Z</time>
      </trkpt>
      <trkpt lat="44.33341" lon="2.49436">
        <ele>485</ele>
        <time>2012-12-30T14:45:23Z</time>
      </trkpt>
      <trkpt lat="44.33331" lon="2.49434">
        <ele>487</ele>
        <time>2012-12-30T14:45:34Z</time>
      </trkpt>
      <trkpt lat="44.33321" lon="2.49435">
        <ele>488</ele>
        <time>2012-12-30T14:45:38Z</time>
      </trkpt>
      <trkpt lat="44.33311" lon="2.4944">
        <ele>488</ele>
        <time>2012-12-30T14:45:42Z</time>
      </trkpt>
      <trkpt lat="44.33301" lon="2.49442">
        <ele>489</ele>
        <time>2012-12-30T14:45:47Z</time>
      </trkpt>
      <trkpt lat="44.33292" lon="2.49442">
        <ele>489</ele>
        <time>2012-12-30T14:45:53Z</time>
      </trkpt>
      <trkpt lat="44.3328" lon="2.49442">
        <ele>489</ele>
        <time>2012-12-30T14:45:58Z</time>
      </trkpt>
      <trkpt lat="44.33268" lon="2.49442">
        <ele>487</ele>
        <time>2012-12-30T14:46:12Z</time>
      </trkpt>
      <trkpt lat="44.33257" lon="2.49452">
        <ele>488</ele>
        <time>2012-12-30T14:46:38Z</time>
      </trkpt>
      <trkpt lat="44.33249" lon="2.49446">
        <ele>487</ele>
        <time>2012-12-30T14:46:53Z</time>
      </trkpt>
      <trkpt lat="44.33238" lon="2.49439">
        <ele>488</ele>
        <time>2012-12-30T14:46:58Z</time>
      </trkpt>
      <trkpt lat="44.33227" lon="2.49441">
        <ele>490</ele>
        <time>2012-12-30T14:47:15Z</time>
      </trkpt>
      <trkpt lat="44.33217" lon="2.49436">
        <ele>489</ele>
        <time>2012-12-30T14:47:23Z</time>
      </trkpt>
      <trkpt lat="44.33209" lon="2.4943">
        <ele>489</ele>
        <time>2012-12-30T14:47:27Z</time>
      </trkpt>
      <trkpt lat="44.33202" lon="2.4942">
        <ele>488</ele>
        <time>2012-12-30T14:47:33Z</time>
      </trkpt>
      <trkpt lat="44.33195" lon="2.49411">
        <ele>487</ele>
        <time>2012-12-30T14:47:40Z</time>
      </trkpt>
      <trkpt lat="44.33188" lon="2.494">
        <ele>486</ele>
        <time>2012-12-30T14:47:48Z</time>
      </trkpt>
      <trkpt lat="44.33181" lon="2.4939">
        <ele>484</ele>
        <time>2012-12-30T14:47:55Z</time>
      </trkpt>
      <trkpt lat="44.33175" lon="2.49381">
        <ele>483</ele>
        <time>2012-12-30T14:48:03Z</time>
      </trkpt>
      <trkpt lat="44.3317" lon="2.49369">
        <ele>482</ele>
        <time>2012-12-30T14:48:13Z</time>
      </trkpt>
      <trkpt lat="44.33168" lon="2.4936">
        <ele>475</ele>
        <time>2012-12-30T14:48:29Z</time>
      </trkpt>
      <trkpt lat="44.33166" lon="2.49354">
        <ele>475</ele>
        <time>2012-12-30T14:48:40Z</time>
      </trkpt>
      <trkpt lat="44.33157" lon="2.49345">
        <ele>473</ele>
        <time>2012-12-30T14:48:56Z</time>
      </trkpt>
      <trkpt lat="44.33154" lon="2.49356">
        <ele>472</ele>
        <time>2012-12-30T14:50:30Z</time>
      </trkpt>
      <trkpt lat="44.33154" lon="2.49345">
        <ele>475</ele>
        <time>2012-12-30T14:52:13Z</time>
      </trkpt>
      <trkpt lat="44.33154" lon="2.49343">
        <ele>477</ele>
        <time>2012-12-30T14:52:44Z</time>
      </trkpt>
      <trkpt lat="44.3316" lon="2.49357">
        <ele>480</ele>
        <time>2012-12-30T14:52:59Z</time>
      </trkpt>
      <trkpt lat="44.33165" lon="2.4937">
        <ele>481</ele>
        <time>2012-12-30T14:53:06Z</time>
      </trkpt>
      <trkpt lat="44.33173" lon="2.49382">
        <ele>483</ele>
        <time>2012-12-30T14:53:13Z</time>
      </trkpt>
      <trkpt lat="44.33181" lon="2.4939">
        <ele>485</ele>
        <time>2012-12-30T14:53:18Z</time>
      </trkpt>
      <trkpt lat="44.33188" lon="2.49397">
        <ele>486</ele>
        <time>2012-12-30T14:53:22Z</time>
      </trkpt>
      <trkpt lat="44.33198" lon="2.49407">
        <ele>488</ele>
        <time>2012-12-30T14:53:28Z</time>
      </trkpt>
      <trkpt lat="44.33206" lon="2.49414">
        <ele>489</ele>
        <time>2012-12-30T14:53:32Z</time>
      </trkpt>
      <trkpt lat="44.33216" lon="2.4942">
        <ele>489</ele>
        <time>2012-12-30T14:53:36Z</time>
      </trkpt>
      <trkpt lat="44.33219" lon="2.49431">
        <ele>487</ele>
        <time>2012-12-30T14:53:46Z</time>
      </trkpt>
      <trkpt lat="44.33222" lon="2.49445">
        <ele>489</ele>
        <time>2012-12-30T14:53:57Z</time>
      </trkpt>
      <trkpt lat="44.33231" lon="2.49448">
        <ele>490</ele>
        <time>2012-12-30T14:54:05Z</time>
      </trkpt>
      <trkpt lat="44.3324" lon="2.49448">
        <ele>490</ele>
        <time>2012-12-30T14:54:12Z</time>
      </trkpt>
      <trkpt lat="44.33249" lon="2.49447">
        <ele>489</ele>
        <time>2012-12-30T14:54:19Z</time>
      </trkpt>
      <trkpt lat="44.33259" lon="2.49449">
        <ele>489</ele>
        <time>2012-12-30T14:54:27Z</time>
      </trkpt>
      <trkpt lat="44.33268" lon="2.49453">
        <ele>489</ele>
        <time>2012-12-30T14:54:34Z</time>
      </trkpt>
      <trkpt lat="44.33278" lon="2.49454">
        <ele>489</ele>
        <time>2012-12-30T14:54:41Z</time>
      </trkpt>
      <trkpt lat="44.33287" lon="2.49457">
        <ele>488</ele>
        <time>2012-12-30T14:54:47Z</time>
      </trkpt>
      <trkpt lat="44.33297" lon="2.49459">
        <ele>484</ele>
        <time>2012-12-30T14:54:52Z</time>
      </trkpt>
      <trkpt lat="44.33307" lon="2.49459">
        <ele>482</ele>
        <time>2012-12-30T14:54:57Z</time>
      </trkpt>
      <trkpt lat="44.33317" lon="2.49459">
        <ele>481</ele>
        <time>2012-12-30T14:55:04Z</time>
      </trkpt>
      <trkpt lat="44.33327" lon="2.49456">
        <ele>481</ele>
        <time>2012-12-30T14:55:11Z</time>
      </trkpt>
      <trkpt lat="44.33337" lon="2.49454">
        <ele>483</ele>
        <time>2012-12-30T14:55:16Z</time>
      </trkpt>
      <trkpt lat="44.33346" lon="2.49447">
        <ele>483</ele>
        <time>2012-12-30T14:55:22Z</time>
      </trkpt>
      <trkpt lat="44.33354" lon="2.4944">
        <ele>485</ele>
        <time>2012-12-30T14:55:28Z</time>
      </trkpt>
      <trkpt lat="44.33362" lon="2.49433">
        <ele>485</ele>
        <time>2012-12-30T14:55:34Z</time>
      </trkpt>
      <trkpt lat="44.33366" lon="2.49429">
        <ele>485</ele>
        <time>2012-12-30T14:55:37Z</time>
      </trkpt>
      <trkpt lat="44.33375" lon="2.49425">
        <ele>484</ele>
        <time>2012-12-30T14:55:44Z</time>
      </trkpt>
      <trkpt lat="44.33383" lon="2.49422">
        <ele>483</ele>
        <time>2012-12-30T14:55:50Z</time>
      </trkpt>
      <trkpt lat="44.33391" lon="2.49415">
        <ele>483</ele>
        <time>2012-12-30T14:55:56Z</time>
      </trkpt>
      <trkpt lat="44.33401" lon="2.49413">
        <ele>483</ele>
        <time>2012-12-30T14:56:01Z</time>
      </trkpt>
      <trkpt lat="44.33408" lon="2.4941">
        <ele>481</ele>
        <time>2012-12-30T14:56:05Z</time>
      </trkpt>
      <trkpt lat="44.33412" lon="2.49408">
        <ele>481</ele>
        <time>2012-12-30T14:56:09Z</time>
      </trkpt>
      <trkpt lat="44.33422" lon="2.4941">
        <ele>481</ele>
        <time>2012-12-30T14:56:16Z</time>
      </trkpt>
      <trkpt lat="44.33431" lon="2.49407">
        <ele>480</ele>
        <time>2012-12-30T14:56:24Z</time>
      </trkpt>
      <trkpt lat="44.33436" lon="2.49405">
        <ele>481</ele>
        <time>2012-12-30T14:56:28Z</time>
      </trkpt>
      <trkpt lat="44.33447" lon="2.49404">
        <ele>483</ele>
        <time>2012-12-30T14:56:34Z</time>
      </trkpt>
      <trkpt lat="44.33457" lon="2.494">
        <ele>484</ele>
        <time>2012-12-30T14:56:40Z</time>
      </trkpt>
      <trkpt lat="44.33465" lon="2.49396">
        <ele>484</ele>
        <time>2012-12-30T14:56:46Z</time>
      </trkpt>
      <trkpt lat="44.33475" lon="2.49392">
        <ele>485</ele>
        <time>2012-12-30T14:56:54Z</time>
      </trkpt>
      <trkpt lat="44.33481" lon="2.49388">
        <ele>485</ele>
        <time>2012-12-30T14:57:00Z</time>
      </trkpt>
      <trkpt lat="44.33494" lon="2.49386">
        <ele>486</ele>
        <time>2012-12-30T14:57:08Z</time>
      </trkpt>
      <trkpt lat="44.33504" lon="2.49384">
        <ele>487</ele>
        <time>2012-12-30T14:57:14Z</time>
      </trkpt>
      <trkpt lat="44.33513" lon="2.4938">
        <ele>487</ele>
        <time>2012-12-30T14:57:20Z</time>
      </trkpt>
      <trkpt lat="44.33522" lon="2.49379">
        <ele>485</ele>
        <time>2012-12-30T14:57:25Z</time>
      </trkpt>
      <trkpt lat="44.33532" lon="2.49377">
        <ele>485</ele>
        <time>2012-12-30T14:57:31Z</time>
      </trkpt>
      <trkpt lat="44.33537" lon="2.49375">
        <ele>484</ele>
        <time>2012-12-30T14:57:34Z</time>
      </trkpt>
      <trkpt lat="44.33547" lon="2.49372">
        <ele>484</ele>
        <time>2012-12-30T14:57:41Z</time>
      </trkpt>
      <trkpt lat="44.33556" lon="2.49369">
        <ele>485</ele>
        <time>2012-12-30T14:57:47Z</time>
      </trkpt>
      <trkpt lat="44.33564" lon="2.49364">
        <ele>485</ele>
        <time>2012-12-30T14:57:52Z</time>
      </trkpt>
      <trkpt lat="44.33573" lon="2.49358">
        <ele>484</ele>
        <time>2012-12-30T14:57:59Z</time>
      </trkpt>
      <trkpt lat="44.3358" lon="2.49356">
        <ele>482</ele>
        <time>2012-12-30T14:58:02Z</time>
      </trkpt>
      <trkpt lat="44.33585" lon="2.49354">
        <ele>481</ele>
        <time>2012-12-30T14:58:05Z</time>
      </trkpt>
      <trkpt lat="44.3359" lon="2.49351">
        <ele>482</ele>
        <time>2012-12-30T14:58:09Z</time>
      </trkpt>
      <trkpt lat="44.33596" lon="2.49349">
        <ele>482</ele>
        <time>2012-12-30T14:58:14Z</time>
      </trkpt>
      <trkpt lat="44.33602" lon="2.49345">
        <ele>482</ele>
        <time>2012-12-30T14:58:17Z</time>
      </trkpt>
      <trkpt lat="44.33607" lon="2.49343">
        <ele>482</ele>
        <time>2012-12-30T14:58:20Z</time>
      </trkpt>
      <trkpt lat="44.33616" lon="2.49339">
        <ele>482</ele>
        <time>2012-12-30T14:58:26Z</time>
      </trkpt>
      <trkpt lat="44.33625" lon="2.49336">
        <ele>482</ele>
        <time>2012-12-30T14:58:33Z</time>
      </trkpt>
      <trkpt lat="44.33634" lon="2.4933">
        <ele>483</ele>
        <time>2012-12-30T14:58:39Z</time>
      </trkpt>
      <trkpt lat="44.33643" lon="2.49323">
        <ele>482</ele>
        <time>2012-12-30T14:58:45Z</time>
      </trkpt>
      <trkpt lat="44.33651" lon="2.49317">
        <ele>482</ele>
        <time>2012-12-30T14:58:50Z</time>
      </trkpt>
      <trkpt lat="44.33657" lon="2.49313">
        <ele>482</ele>
        <time>2012-12-30T14:58:54Z</time>
      </trkpt>
      <trkpt lat="44.33664" lon="2.49306">
        <ele>479</ele>
        <time>2012-12-30T14:59:03Z</time>
      </trkpt>
      <trkpt lat="44.33672" lon="2.49297">
        <ele>478</ele>
        <time>2012-12-30T14:59:09Z</time>
      </trkpt>
      <trkpt lat="44.3368" lon="2.49288">
        <ele>476</ele>
        <time>2012-12-30T14:59:15Z</time>
      </trkpt>
      <trkpt lat="44.33688" lon="2.49278">
        <ele>475</ele>
        <time>2012-12-30T14:59:20Z</time>
      </trkpt>
      <trkpt lat="44.33696" lon="2.49269">
        <ele>475</ele>
        <time>2012-12-30T14:59:25Z</time>
      </trkpt>
      <trkpt lat="44.33703" lon="2.49261">
        <ele>476</ele>
        <time>2012-12-30T14:59:33Z</time>
      </trkpt>
      <trkpt lat="44.3371" lon="2.49253">
        <ele>477</ele>
        <time>2012-12-30T14:59:39Z</time>
      </trkpt>
      <trkpt lat="44.33719" lon="2.49247">
        <ele>480</ele>
        <time>2012-12-30T14:59:46Z</time>
      </trkpt>
      <trkpt lat="44.33726" lon="2.49241">
        <ele>482</ele>
        <time>2012-12-30T14:59:52Z</time>
      </trkpt>
      <trkpt lat="44.33733" lon="2.49231">
        <ele>481</ele>
        <time>2012-12-30T14:59:58Z</time>
      </trkpt>
      <trkpt lat="44.33736" lon="2.49218">
        <ele>483</ele>
        <time>2012-12-30T15:00:05Z</time>
      </trkpt>
      <trkpt lat="44.33731" lon="2.49206">
        <ele>483</ele>
        <time>2012-12-30T15:00:10Z</time>
      </trkpt>
      <trkpt lat="44.33727" lon="2.49194">
        <ele>483</ele>
        <time>2012-12-30T15:00:17Z</time>
      </trkpt>
      <trkpt lat="44.33722" lon="2.49182">
        <ele>484</ele>
        <time>2012-12-30T15:00:22Z</time>
      </trkpt>
      <trkpt lat="44.33717" lon="2.49171">
        <ele>484</ele>
        <time>2012-12-30T15:00:26Z</time>
      </trkpt>
      <trkpt lat="44.33714" lon="2.49165">
        <ele>484</ele>
        <time>2012-12-30T15:00:29Z</time>
      </trkpt>
      <trkpt lat="44.3371" lon="2.49152">
        <ele>486</ele>
        <time>2012-12-30T15:00:35Z</time>
      </trkpt>
      <trkpt lat="44.33709" lon="2.49144">
        <ele>486</ele>
        <time>2012-12-30T15:00:38Z</time>
      </trkpt>
      <trkpt lat="44.33706" lon="2.49138">
        <ele>485</ele>
        <time>2012-12-30T15:00:41Z</time>
      </trkpt>
      <trkpt lat="44.33702" lon="2.49133">
        <ele>484</ele>
        <time>2012-12-30T15:00:45Z</time>
      </trkpt>
      <trkpt lat="44.33698" lon="2.49129">
        <ele>483</ele>
        <time>2012-12-30T15:00:49Z</time>
      </trkpt>
      <trkpt lat="44.33692" lon="2.49118">
        <ele>483</ele>
        <time>2012-12-30T15:01:01Z</time>
      </trkpt>
      <trkpt lat="44.33688" lon="2.49105">
        <ele>482</ele>
        <time>2012-12-30T15:01:09Z</time>
      </trkpt>
      <trkpt lat="44.3369" lon="2.4909">
        <ele>484</ele>
        <time>2012-12-30T15:01:27Z</time>
      </trkpt>
      <trkpt lat="44.33698" lon="2.49079">
        <ele>487</ele>
        <time>2012-12-30T15:01:35Z</time>
      </trkpt>
      <trkpt lat="44.33704" lon="2.49067">
        <ele>488</ele>
        <time>2012-12-30T15:01:40Z</time>
      </trkpt>
      <trkpt lat="44.3371" lon="2.49055">
        <ele>489</ele>
        <time>2012-12-30T15:01:49Z</time>
      </trkpt>
      <trkpt lat="44.33716" lon="2.49043">
        <ele>489</ele>
        <time>2012-12-30T15:01:55Z</time>
      </trkpt>
      <trkpt lat="44.33724" lon="2.49031">
        <ele>490</ele>
        <time>2012-12-30T15:02:01Z</time>
      </trkpt>
      <trkpt lat="44.3373" lon="2.4902">
        <ele>490</ele>
        <time>2012-12-30T15:02:07Z</time>
      </trkpt>
      <trkpt lat="44.33738" lon="2.49012">
        <ele>490</ele>
        <time>2012-12-30T15:02:13Z</time>
      </trkpt>
      <trkpt lat="44.33746" lon="2.49002">
        <ele>490</ele>
        <time>2012-12-30T15:02:19Z</time>
      </trkpt>
      <trkpt lat="44.3375" lon="2.48989">
        <ele>492</ele>
        <time>2012-12-30T15:02:26Z</time>
      </trkpt>
      <trkpt lat="44.33755" lon="2.48978">
        <ele>495</ele>
        <time>2012-12-30T15:02:36Z</time>
      </trkpt>
      <trkpt lat="44.33766" lon="2.48971">
        <ele>499</ele>
        <time>2012-12-30T15:02:43Z</time>
      </trkpt>
      <trkpt lat="44.33778" lon="2.48966">
        <ele>500</ele>
        <time>2012-12-30T15:02:47Z</time>
      </trkpt>
      <trkpt lat="44.33788" lon="2.48961">
        <ele>500</ele>
        <time>2012-12-30T15:02:50Z</time>
      </trkpt>
      <trkpt lat="44.33797" lon="2.48953">
        <ele>501</ele>
        <time>2012-12-30T15:02:54Z</time>
      </trkpt>
      <trkpt lat="44.33805" lon="2.48945">
        <ele>500</ele>
        <time>2012-12-30T15:02:58Z</time>
      </trkpt>
      <trkpt lat="44.33814" lon="2.48938">
        <ele>498</ele>
        <time>2012-12-30T15:03:03Z</time>
      </trkpt>
      <trkpt lat="44.33824" lon="2.48934">
        <ele>498</ele>
        <time>2012-12-30T15:03:09Z</time>
      </trkpt>
      <trkpt lat="44.33833" lon="2.48932">
        <ele>496</ele>
        <time>2012-12-30T15:03:13Z</time>
      </trkpt>
      <trkpt lat="44.33843" lon="2.4893">
        <ele>494</ele>
        <time>2012-12-30T15:03:21Z</time>
      </trkpt>
      <trkpt lat="44.33853" lon="2.48928">
        <ele>489</ele>
        <time>2012-12-30T15:03:28Z</time>
      </trkpt>
      <trkpt lat="44.33862" lon="2.48923">
        <ele>487</ele>
        <time>2012-12-30T15:03:41Z</time>
      </trkpt>
      <trkpt lat="44.33874" lon="2.48922">
        <ele>489</ele>
        <time>2012-12-30T15:03:48Z</time>
      </trkpt>
      <trkpt lat="44.33887" lon="2.48919">
        <ele>491</ele>
        <time>2012-12-30T15:04:00Z</time>
      </trkpt>
      <trkpt lat="44.33898" lon="2.48915">
        <ele>491</ele>
        <time>2012-12-30T15:04:03Z</time>
      </trkpt>
      <trkpt lat="44.33909" lon="2.48913">
        <ele>490</ele>
        <time>2012-12-30T15:04:07Z</time>
      </trkpt>
      <trkpt lat="44.33919" lon="2.48911">
        <ele>489</ele>
        <time>2012-12-30T15:04:13Z</time>
      </trkpt>
      <trkpt lat="44.3393" lon="2.48908">
        <ele>489</ele>
        <time>2012-12-30T15:04:19Z</time>
      </trkpt>
      <trkpt lat="44.3394" lon="2.4891">
        <ele>488</ele>
        <time>2012-12-30T15:04:25Z</time>
      </trkpt>
      <trkpt lat="44.3395" lon="2.48908">
        <ele>488</ele>
        <time>2012-12-30T15:04:31Z</time>
      </trkpt>
      <trkpt lat="44.33959" lon="2.48907">
        <ele>487</ele>
        <time>2012-12-30T15:04:36Z</time>
      </trkpt>
      <trkpt lat="44.33963" lon="2.48904">
        <ele>488</ele>
        <time>2012-12-30T15:04:50Z</time>
      </trkpt>
      <trkpt lat="44.33969" lon="2.48913">
        <ele>493</ele>
        <time>2012-12-30T15:05:04Z</time>
      </trkpt>
      <trkpt lat="44.33975" lon="2.48913">
        <ele>493</ele>
        <time>2012-12-30T15:05:17Z</time>
      </trkpt>
      <trkpt lat="44.33985" lon="2.48917">
        <ele>490</ele>
        <time>2012-12-30T15:06:11Z</time>
      </trkpt>
      <trkpt lat="44.33996" lon="2.48914">
        <ele>491</ele>
        <time>2012-12-30T15:06:17Z</time>
      </trkpt>
      <trkpt lat="44.34007" lon="2.48912">
        <ele>493</ele>
        <time>2012-12-30T15:06:25Z</time>
      </trkpt>
      <trkpt lat="44.34016" lon="2.48917">
        <ele>497</ele>
        <time>2012-12-30T15:06:31Z</time>
      </trkpt>
      <trkpt lat="44.34026" lon="2.48922">
        <ele>500</ele>
        <time>2012-12-30T15:06:37Z</time>
      </trkpt>
      <trkpt lat="44.34034" lon="2.4893">
        <ele>501</ele>
        <time>2012-12-30T15:06:44Z</time>
      </trkpt>
      <trkpt lat="44.3404" lon="2.48941">
        <ele>503</ele>
        <time>2012-12-30T15:06:52Z</time>
      </trkpt>
      <trkpt lat="44.3405" lon="2.48949">
        <ele>503</ele>
        <time>2012-12-30T15:06:59Z</time>
      </trkpt>
      <trkpt lat="44.34058" lon="2.48955">
        <ele>503</ele>
        <time>2012-12-30T15:07:05Z</time>
      </trkpt>
      <trkpt lat="44.34068" lon="2.48961">
        <ele>502</ele>
        <time>2012-12-30T15:07:11Z</time>
      </trkpt>
      <trkpt lat="44.34077" lon="2.48965">
        <ele>502</ele>
        <time>2012-12-30T15:07:16Z</time>
      </trkpt>
      <trkpt lat="44.34085" lon="2.48975">
        <ele>503</ele>
        <time>2012-12-30T15:07:23Z</time>
      </trkpt>
      <trkpt lat="44.34093" lon="2.48981">
        <ele>503</ele>
        <time>2012-12-30T15:07:29Z</time>
      </trkpt>
      <trkpt lat="44.34101" lon="2.48992">
        <ele>501</ele>
        <time>2012-12-30T15:07:36Z</time>
      </trkpt>
      <trkpt lat="44.34109" lon="2.48998">
        <ele>501</ele>
        <time>2012-12-30T15:07:42Z</time>
      </trkpt>
      <trkpt lat="44.34119" lon="2.49002">
        <ele>502</ele>
        <time>2012-12-30T15:07:49Z</time>
      </trkpt>
      <trkpt lat="44.34129" lon="2.49002">
        <ele>504</ele>
        <time>2012-12-30T15:07:58Z</time>
      </trkpt>
      <trkpt lat="44.34139" lon="2.49004">
        <ele>504</ele>
        <time>2012-12-30T15:08:06Z</time>
      </trkpt>
      <trkpt lat="44.34149" lon="2.49005">
        <ele>502</ele>
        <time>2012-12-30T15:08:14Z</time>
      </trkpt>
      <trkpt lat="44.34159" lon="2.49002">
        <ele>502</ele>
        <time>2012-12-30T15:08:21Z</time>
      </trkpt>
      <trkpt lat="44.34171" lon="2.49001">
        <ele>503</ele>
        <time>2012-12-30T15:08:28Z</time>
      </trkpt>
      <trkpt lat="44.34181" lon="2.49002">
        <ele>505</ele>
        <time>2012-12-30T15:08:34Z</time>
      </trkpt>
      <trkpt lat="44.34192" lon="2.49001">
        <ele>508</ele>
        <time>2012-12-30T15:08:42Z</time>
      </trkpt>
      <trkpt lat="44.34204" lon="2.48999">
        <ele>509</ele>
        <time>2012-12-30T15:08:47Z</time>
      </trkpt>
      <trkpt lat="44.34213" lon="2.48992">
        <ele>509</ele>
        <time>2012-12-30T15:08:53Z</time>
      </trkpt>
      <trkpt lat="44.34222" lon="2.48987">
        <ele>510</ele>
        <time>2012-12-30T15:08:59Z</time>
      </trkpt>
      <trkpt lat="44.3423" lon="2.48982">
        <ele>511</ele>
        <time>2012-12-30T15:09:06Z</time>
      </trkpt>
      <trkpt lat="44.34239" lon="2.48979">
        <ele>512</ele>
        <time>2012-12-30T15:09:11Z</time>
      </trkpt>
      <trkpt lat="44.34249" lon="2.48975">
        <ele>514</ele>
        <time>2012-12-30T15:09:17Z</time>
      </trkpt>
      <trkpt lat="44.34259" lon="2.48972">
        <ele>514</ele>
        <time>2012-12-30T15:09:22Z</time>
      </trkpt>
      <trkpt lat="44.34269" lon="2.48968">
        <ele>513</ele>
        <time>2012-12-30T15:09:29Z</time>
      </trkpt>
      <trkpt lat="44.3428" lon="2.48964">
        <ele>513</ele>
        <time>2012-12-30T15:09:35Z</time>
      </trkpt>
      <trkpt lat="44.34288" lon="2.48959">
        <ele>513</ele>
        <time>2012-12-30T15:09:41Z</time>
      </trkpt>
      <trkpt lat="44.34299" lon="2.48958">
        <ele>514</ele>
        <time>2012-12-30T15:09:50Z</time>
      </trkpt>
      <trkpt lat="44.34309" lon="2.48955">
        <ele>516</ele>
        <time>2012-12-30T15:09:56Z</time>
      </trkpt>
      <trkpt lat="44.34319" lon="2.48957">
        <ele>515</ele>
        <time>2012-12-30T15:10:02Z</time>
      </trkpt>
      <trkpt lat="44.34329" lon="2.48957">
        <ele>514</ele>
        <time>2012-12-30T15:10:08Z</time>
      </trkpt>
      <trkpt lat="44.3434" lon="2.48958">
        <ele>513</ele>
        <time>2012-12-30T15:10:14Z</time>
      </trkpt>
      <trkpt lat="44.3435" lon="2.48958">
        <ele>511</ele>
        <time>2012-12-30T15:10:19Z</time>
      </trkpt>
      <trkpt lat="44.34359" lon="2.48959">
        <ele>509</ele>
        <time>2012-12-30T15:10:24Z</time>
      </trkpt>
      <trkpt lat="44.3437" lon="2.48959">
        <ele>505</ele>
        <time>2012-12-30T15:10:33Z</time>
      </trkpt>
      <trkpt lat="44.34378" lon="2.48954">
        <ele>505</ele>
        <time>2012-12-30T15:10:40Z</time>
      </trkpt>
      <trkpt lat="44.34387" lon="2.48949">
        <ele>505</ele>
        <time>2012-12-30T15:10:47Z</time>
      </trkpt>
      <trkpt lat="44.34394" lon="2.48941">
        <ele>505</ele>
        <time>2012-12-30T15:10:54Z</time>
      </trkpt>
      <trkpt lat="44.34404" lon="2.48943">
        <ele>508</ele>
        <time>2012-12-30T15:11:05Z</time>
      </trkpt>
      <trkpt lat="44.34412" lon="2.48955">
        <ele>508</ele>
        <time>2012-12-30T15:11:12Z</time>
      </trkpt>
      <trkpt lat="44.34413" lon="2.48969">
        <ele>506</ele>
        <time>2012-12-30T15:11:19Z</time>
      </trkpt>
      <trkpt lat="44.34412" lon="2.48976">
        <ele>504</ele>
        <time>2012-12-30T15:11:23Z</time>
      </trkpt>
      <trkpt lat="44.34412" lon="2.48982">
        <ele>503</ele>
        <time>2012-12-30T15:11:26Z</time>
      </trkpt>
      <trkpt lat="44.34411" lon="2.48991">
        <ele>502</ele>
        <time>2012-12-30T15:11:30Z</time>
      </trkpt>
      <trkpt lat="44.34411" lon="2.48997">
        <ele>501</ele>
        <time>2012-12-30T15:11:33Z</time>
      </trkpt>
      <trkpt lat="44.34413" lon="2.49005">
        <ele>502</ele>
        <time>2012-12-30T15:11:37Z</time>
      </trkpt>
      <trkpt lat="44.34416" lon="2.49018">
        <ele>504</ele>
        <time>2012-12-30T15:11:44Z</time>
      </trkpt>
      <trkpt lat="44.3442" lon="2.4903">
        <ele>508</ele>
        <time>2012-12-30T15:11:50Z</time>
      </trkpt>
      <trkpt lat="44.34426" lon="2.49041">
        <ele>510</ele>
        <time>2012-12-30T15:11:56Z</time>
      </trkpt>
      <trkpt lat="44.34429" lon="2.49046">
        <ele>511</ele>
        <time>2012-12-30T15:12:00Z</time>
      </trkpt>
      <trkpt lat="44.34431" lon="2.49052">
        <ele>512</ele>
        <time>2012-12-30T15:12:03Z</time>
      </trkpt>
      <trkpt lat="44.34434" lon="2.4906">
        <ele>513</ele>
        <time>2012-12-30T15:12:06Z</time>
      </trkpt>
      <trkpt lat="44.34439" lon="2.49072">
        <ele>512</ele>
        <time>2012-12-30T15:12:12Z</time>
      </trkpt>
      <trkpt lat="44.34443" lon="2.49081">
        <ele>512</ele>
        <time>2012-12-30T15:12:18Z</time>
      </trkpt>
      <trkpt lat="44.34449" lon="2.49085">
        <ele>516</ele>
        <time>2012-12-30T15:12:26Z</time>
      </trkpt>
      <trkpt lat="44.34454" lon="2.49088">
        <ele>517</ele>
        <time>2012-12-30T15:12:30Z</time>
      </trkpt>
      <trkpt lat="44.34459" lon="2.4909">
        <ele>518</ele>
        <time>2012-12-30T15:12:33Z</time>
      </trkpt>
      <trkpt lat="44.34467" lon="2.49097">
        <ele>520</ele>
        <time>2012-12-30T15:12:40Z</time>
      </trkpt>
      <trkpt lat="44.34469" lon="2.49111">
        <ele>519</ele>
        <time>2012-12-30T15:12:46Z</time>
      </trkpt>
      <trkpt lat="44.34463" lon="2.4912">
        <ele>517</ele>
        <time>2012-12-30T15:12:53Z</time>
      </trkpt>
      <trkpt lat="44.34455" lon="2.49128">
        <ele>518</ele>
        <time>2012-12-30T15:12:59Z</time>
      </trkpt>
      <trkpt lat="44.34452" lon="2.4914">
        <ele>522</ele>
        <time>2012-12-30T15:13:05Z</time>
      </trkpt>
      <trkpt lat="44.34449" lon="2.49153">
        <ele>524</ele>
        <time>2012-12-30T15:13:12Z</time>
      </trkpt>
      <trkpt lat="44.34449" lon="2.49167">
        <ele>524</ele>
        <time>2012-12-30T15:13:17Z</time>
      </trkpt>
      <trkpt lat="44.34448" lon="2.49174">
        <ele>524</ele>
        <time>2012-12-30T15:13:20Z</time>
      </trkpt>
      <trkpt lat="44.34445" lon="2.4919">
        <ele>525</ele>
        <time>2012-12-30T15:13:27Z</time>
      </trkpt>
      <trkpt lat="44.34442" lon="2.49199">
        <ele>522</ele>
        <time>2012-12-30T15:13:33Z</time>
      </trkpt>
      <trkpt lat="44.3444" lon="2.49206">
        <ele>521</ele>
        <time>2012-12-30T15:13:37Z</time>
      </trkpt>
      <trkpt lat="44.34438" lon="2.49214">
        <ele>521</ele>
        <time>2012-12-30T15:13:42Z</time>
      </trkpt>
      <trkpt lat="44.34436" lon="2.49222">
        <ele>519</ele>
        <time>2012-12-30T15:13:46Z</time>
      </trkpt>
      <trkpt lat="44.34436" lon="2.49235">
        <ele>518</ele>
        <time>2012-12-30T15:13:51Z</time>
      </trkpt>
      <trkpt lat="44.34434" lon="2.49245">
        <ele>517</ele>
        <time>2012-12-30T15:13:56Z</time>
      </trkpt>
      <trkpt lat="44.34433" lon="2.49251">
        <ele>517</ele>
        <time>2012-12-30T15:13:59Z</time>
      </trkpt>
      <trkpt lat="44.3443" lon="2.49257">
        <ele>517</ele>
        <time>2012-12-30T15:14:02Z</time>
      </trkpt>
      <trkpt lat="44.34428" lon="2.49264">
        <ele>518</ele>
        <time>2012-12-30T15:14:06Z</time>
      </trkpt>
      <trkpt lat="44.34429" lon="2.49277">
        <ele>519</ele>
        <time>2012-12-30T15:14:14Z</time>
      </trkpt>
      <trkpt lat="44.34433" lon="2.49282">
        <ele>521</ele>
        <time>2012-12-30T15:14:18Z</time>
      </trkpt>
      <trkpt lat="44.34438" lon="2.49286">
        <ele>522</ele>
        <time>2012-12-30T15:14:21Z</time>
      </trkpt>
      <trkpt lat="44.34443" lon="2.49298">
        <ele>525</ele>
        <time>2012-12-30T15:14:29Z</time>
      </trkpt>
      <trkpt lat="44.34445" lon="2.49303">
        <ele>526</ele>
        <time>2012-12-30T15:14:52Z</time>
      </trkpt>
      <trkpt lat="44.34449" lon="2.49307">
        <ele>527</ele>
        <time>2012-12-30T15:15:00Z</time>
      </trkpt>
      <trkpt lat="44.34455" lon="2.49303">
        <ele>526</ele>
        <time>2012-12-30T15:15:03Z</time>
      </trkpt>
      <trkpt lat="44.34459" lon="2.49298">
        <ele>525</ele>
        <time>2012-12-30T15:15:07Z</time>
      </trkpt>
      <trkpt lat="44.34465" lon="2.49295">
        <ele>524</ele>
        <time>2012-12-30T15:15:12Z</time>
      </trkpt>
      <trkpt lat="44.34473" lon="2.49286">
        <ele>524</ele>
        <time>2012-12-30T15:15:20Z</time>
      </trkpt>
      <trkpt lat="44.3448" lon="2.49277">
        <ele>524</ele>
        <time>2012-12-30T15:15:29Z</time>
      </trkpt>
      <trkpt lat="44.34486" lon="2.49265">
        <ele>524</ele>
        <time>2012-12-30T15:15:37Z</time>
      </trkpt>
      <trkpt lat="44.34489" lon="2.49259">
        <ele>525</ele>
        <time>2012-12-30T15:15:41Z</time>
      </trkpt>
      <trkpt lat="44.34495" lon="2.49248">
        <ele>527</ele>
        <time>2012-12-30T15:15:48Z</time>
      </trkpt>
      <trkpt lat="44.34499" lon="2.49235">
        <ele>528</ele>
        <time>2012-12-30T15:15:57Z</time>
      </trkpt>
      <trkpt lat="44.34502" lon="2.49221">
        <ele>529</ele>
        <time>2012-12-30T15:16:03Z</time>
      </trkpt>
      <trkpt lat="44.34506" lon="2.49207">
        <ele>526</ele>
        <time>2012-12-30T15:16:12Z</time>
      </trkpt>
      <trkpt lat="44.34516" lon="2.49211">
        <ele>526</ele>
        <time>2012-12-30T15:16:25Z</time>
      </trkpt>
      <trkpt lat="44.34533" lon="2.49207">
        <ele>524</ele>
        <time>2012-12-30T15:16:55Z</time>
      </trkpt>
      <trkpt lat="44.34542" lon="2.49199">
        <ele>525</ele>
        <time>2012-12-30T15:16:59Z</time>
      </trkpt>
      <trkpt lat="44.34552" lon="2.49195">
        <ele>527</ele>
        <time>2012-12-30T15:17:01Z</time>
      </trkpt>
      <trkpt lat="44.34561" lon="2.49191">
        <ele>530</ele>
        <time>2012-12-30T15:17:04Z</time>
      </trkpt>
      <trkpt lat="44.34567" lon="2.49189">
        <ele>531</ele>
        <time>2012-12-30T15:17:07Z</time>
      </trkpt>
      <trkpt lat="44.34572" lon="2.49187">
        <ele>532</ele>
        <time>2012-12-30T15:17:11Z</time>
      </trkpt>
      <trkpt lat="44.34583" lon="2.49179">
        <ele>539</ele>
        <time>2012-12-30T15:17:23Z</time>
      </trkpt>
      <trkpt lat="44.34584" lon="2.49164">
        <ele>542</ele>
        <time>2012-12-30T15:17:40Z</time>
      </trkpt>
      <trkpt lat="44.34582" lon="2.49157">
        <ele>544</ele>
        <time>2012-12-30T15:17:45Z</time>
      </trkpt>
      <trkpt lat="44.34582" lon="2.49149">
        <ele>545</ele>
        <time>2012-12-30T15:17:54Z</time>
      </trkpt>
      <trkpt lat="44.34587" lon="2.49138">
        <ele>543</ele>
        <time>2012-12-30T15:18:02Z</time>
      </trkpt>
      <trkpt lat="44.34593" lon="2.49127">
        <ele>542</ele>
        <time>2012-12-30T15:18:08Z</time>
      </trkpt>
      <trkpt lat="44.34601" lon="2.49114">
        <ele>540</ele>
        <time>2012-12-30T15:18:15Z</time>
      </trkpt>
      <trkpt lat="44.34606" lon="2.49102">
        <ele>538</ele>
        <time>2012-12-30T15:18:21Z</time>
      </trkpt>
      <trkpt lat="44.34612" lon="2.49088">
        <ele>539</ele>
        <time>2012-12-30T15:18:31Z</time>
      </trkpt>
      <trkpt lat="44.34615" lon="2.49072">
        <ele>541</ele>
        <time>2012-12-30T15:18:37Z</time>
      </trkpt>
      <trkpt lat="44.34619" lon="2.49059">
        <ele>542</ele>
        <time>2012-12-30T15:18:44Z</time>
      </trkpt>
      <trkpt lat="44.34624" lon="2.4905">
        <ele>545</ele>
        <time>2012-12-30T15:18:48Z</time>
      </trkpt>
      <trkpt lat="44.34628" lon="2.49045">
        <ele>546</ele>
        <time>2012-12-30T15:18:51Z</time>
      </trkpt>
      <trkpt lat="44.34632" lon="2.49032">
        <ele>547</ele>
        <time>2012-12-30T15:19:00Z</time>
      </trkpt>
      <trkpt lat="44.34635" lon="2.4902">
        <ele>548</ele>
        <time>2012-12-30T15:19:07Z</time>
      </trkpt>
      <trkpt lat="44.34639" lon="2.49021">
        <ele>547</ele>
        <time>2012-12-30T15:19:23Z</time>
      </trkpt>
      <trkpt lat="44.34638" lon="2.49034">
        <ele>550</ele>
        <time>2012-12-30T15:19:31Z</time>
      </trkpt>
      <trkpt lat="44.34636" lon="2.49047">
        <ele>553</ele>
        <time>2012-12-30T15:19:37Z</time>
      </trkpt>
      <trkpt lat="44.34635" lon="2.49054">
        <ele>554</ele>
        <time>2012-12-30T15:19:41Z</time>
      </trkpt>
      <trkpt lat="44.34636" lon="2.4906">
        <ele>554</ele>
        <time>2012-12-30T15:19:44Z</time>
      </trkpt>
      <trkpt lat="44.34637" lon="2.49068">
        <ele>555</ele>
        <time>2012-12-30T15:19:48Z</time>
      </trkpt>
      <trkpt lat="44.34637" lon="2.49077">
        <ele>555</ele>
        <time>2012-12-30T15:19:53Z</time>
      </trkpt>
      <trkpt lat="44.34637" lon="2.49083">
        <ele>556</ele>
        <time>2012-12-30T15:19:56Z</time>
      </trkpt>
      <trkpt lat="44.34635" lon="2.49093">
        <ele>557</ele>
        <time>2012-12-30T15:20:01Z</time>
      </trkpt>
      <trkpt lat="44.34632" lon="2.49099">
        <ele>558</ele>
        <time>2012-12-30T15:20:05Z</time>
      </trkpt>
      <trkpt lat="44.34629" lon="2.49105">
        <ele>559</ele>
        <time>2012-12-30T15:20:09Z</time>
      </trkpt>
      <trkpt lat="44.34625" lon="2.49112">
        <ele>560</ele>
        <time>2012-12-30T15:20:14Z</time>
      </trkpt>
      <trkpt lat="44.34623" lon="2.49119">
        <ele>561</ele>
        <time>2012-12-30T15:20:18Z</time>
      </trkpt>
      <trkpt lat="44.34621" lon="2.49125">
        <ele>560</ele>
        <time>2012-12-30T15:20:22Z</time>
      </trkpt>
      <trkpt lat="44.3462" lon="2.49132">
        <ele>560</ele>
        <time>2012-12-30T15:20:25Z</time>
      </trkpt>
      <trkpt lat="44.3462" lon="2.49146">
        <ele>561</ele>
        <time>2012-12-30T15:20:32Z</time>
      </trkpt>
      <trkpt lat="44.3462" lon="2.49154">
        <ele>561</ele>
        <time>2012-12-30T15:20:36Z</time>
      </trkpt>
      <trkpt lat="44.3462" lon="2.49162">
        <ele>560</ele>
        <time>2012-12-30T15:20:40Z</time>
      </trkpt>
      <trkpt lat="44.3462" lon="2.4917">
        <ele>560</ele>
        <time>2012-12-30T15:20:44Z</time>
      </trkpt>
      <trkpt lat="44.3462" lon="2.49183">
        <ele>561</ele>
        <time>2012-12-30T15:20:51Z</time>
      </trkpt>
      <trkpt lat="44.3462" lon="2.49193">
        <ele>562</ele>
        <time>2012-12-30T15:20:57Z</time>
      </trkpt>
      <trkpt lat="44.34619" lon="2.49199">
        <ele>563</ele>
        <time>2012-12-30T15:21:00Z</time>
      </trkpt>
      <trkpt lat="44.34619" lon="2.49208">
        <ele>564</ele>
        <time>2012-12-30T15:21:04Z</time>
      </trkpt>
      <trkpt lat="44.3462" lon="2.49215">
        <ele>565</ele>
        <time>2012-12-30T15:21:07Z</time>
      </trkpt>
      <trkpt lat="44.34622" lon="2.49221">
        <ele>566</ele>
        <time>2012-12-30T15:21:11Z</time>
      </trkpt>
      <trkpt lat="44.34627" lon="2.49222">
        <ele>566</ele>
        <time>2012-12-30T15:21:16Z</time>
      </trkpt>
      <trkpt lat="44.34634" lon="2.49214">
        <ele>566</ele>
        <time>2012-12-30T15:21:24Z</time>
      </trkpt>
      <trkpt lat="44.34636" lon="2.49206">
        <ele>566</ele>
        <time>2012-12-30T15:21:27Z</time>
      </trkpt>
      <trkpt lat="44.34636" lon="2.49197">
        <ele>567</ele>
        <time>2012-12-30T15:21:31Z</time>
      </trkpt>
      <trkpt lat="44.34636" lon="2.4919">
        <ele>567</ele>
        <time>2012-12-30T15:21:35Z</time>
      </trkpt>
      <trkpt lat="44.34637" lon="2.49181">
        <ele>567</ele>
        <time>2012-12-30T15:21:40Z</time>
      </trkpt>
      <trkpt lat="44.34638" lon="2.49174">
        <ele>567</ele>
        <time>2012-12-30T15:21:44Z</time>
      </trkpt>
      <trkpt lat="44.3464" lon="2.49167">
        <ele>568</ele>
        <time>2012-12-30T15:21:49Z</time>
      </trkpt>
      <trkpt lat="44.34642" lon="2.4916">
        <ele>569</ele>
        <time>2012-12-30T15:21:54Z</time>
      </trkpt>
      <trkpt lat="44.34644" lon="2.49154">
        <ele>569</ele>
        <time>2012-12-30T15:21:56Z</time>
      </trkpt>
      <trkpt lat="44.34646" lon="2.49147">
        <ele>570</ele>
        <time>2012-12-30T15:21:58Z</time>
      </trkpt>
      <trkpt lat="44.34651" lon="2.49135">
        <ele>570</ele>
        <time>2012-12-30T15:22:04Z</time>
      </trkpt>
      <trkpt lat="44.34656" lon="2.49131">
        <ele>569</ele>
        <time>2012-12-30T15:22:09Z</time>
      </trkpt>
      <trkpt lat="44.34665" lon="2.49125">
        <ele>569</ele>
        <time>2012-12-30T15:22:16Z</time>
      </trkpt>
      <trkpt lat="44.34669" lon="2.49121">
        <ele>569</ele>
        <time>2012-12-30T15:22:20Z</time>
      </trkpt>
      <trkpt lat="44.34675" lon="2.49111">
        <ele>569</ele>
        <time>2012-12-30T15:22:27Z</time>
      </trkpt>
      <trkpt lat="44.34675" lon="2.49104">
        <ele>570</ele>
        <time>2012-12-30T15:22:30Z</time>
      </trkpt>
      <trkpt lat="44.34675" lon="2.49096">
        <ele>572</ele>
        <time>2012-12-30T15:22:34Z</time>
      </trkpt>
      <trkpt lat="44.34675" lon="2.49089">
        <ele>574</ele>
        <time>2012-12-30T15:22:37Z</time>
      </trkpt>
      <trkpt lat="44.34674" lon="2.49082">
        <ele>574</ele>
        <time>2012-12-30T15:22:40Z</time>
      </trkpt>
      <trkpt lat="44.34673" lon="2.49075">
        <ele>575</ele>
        <time>2012-12-30T15:22:43Z</time>
      </trkpt>
      <trkpt lat="44.34674" lon="2.49064">
        <ele>576</ele>
        <time>2012-12-30T15:22:49Z</time>
      </trkpt>
      <trkpt lat="44.34676" lon="2.49056">
        <ele>575</ele>
        <time>2012-12-30T15:22:53Z</time>
      </trkpt>
      <trkpt lat="44.3468" lon="2.4905">
        <ele>575</ele>
        <time>2012-12-30T15:22:58Z</time>
      </trkpt>
      <trkpt lat="44.34683" lon="2.49045">
        <ele>575</ele>
        <time>2012-12-30T15:23:02Z</time>
      </trkpt>
      <trkpt lat="44.34687" lon="2.4904">
        <ele>575</ele>
        <time>2012-12-30T15:23:06Z</time>
      </trkpt>
      <trkpt lat="44.3469" lon="2.49034">
        <ele>574</ele>
        <time>2012-12-30T15:23:11Z</time>
      </trkpt>
      <trkpt lat="44.34695" lon="2.49022">
        <ele>576</ele>
        <time>2012-12-30T15:23:18Z</time>
      </trkpt>
      <trkpt lat="44.347" lon="2.49012">
        <ele>577</ele>
        <time>2012-12-30T15:23:26Z</time>
      </trkpt>
      <trkpt lat="44.34702" lon="2.49005">
        <ele>578</ele>
        <time>2012-12-30T15:23:31Z</time>
      </trkpt>
      <trkpt lat="44.34707" lon="2.48992">
        <ele>579</ele>
        <time>2012-12-30T15:23:37Z</time>
      </trkpt>
      <trkpt lat="44.34709" lon="2.48985">
        <ele>579</ele>
        <time>2012-12-30T15:23:40Z</time>
      </trkpt>
      <trkpt lat="44.34712" lon="2.48976">
        <ele>579</ele>
        <time>2012-12-30T15:23:44Z</time>
      </trkpt>
      <trkpt lat="44.34715" lon="2.48967">
        <ele>580</ele>
        <time>2012-12-30T15:23:49Z</time>
      </trkpt>
      <trkpt lat="44.34719" lon="2.48953">
        <ele>581</ele>
        <time>2012-12-30T15:23:56Z</time>
      </trkpt>
      <trkpt lat="44.3472" lon="2.48946">
        <ele>581</ele>
        <time>2012-12-30T15:23:59Z</time>
      </trkpt>
      <trkpt lat="44.34723" lon="2.48938">
        <ele>581</ele>
        <time>2012-12-30T15:24:03Z</time>
      </trkpt>
      <trkpt lat="44.34726" lon="2.48932">
        <ele>582</ele>
        <time>2012-12-30T15:24:07Z</time>
      </trkpt>
      <trkpt lat="44.34729" lon="2.48926">
        <ele>582</ele>
        <time>2012-12-30T15:24:10Z</time>
      </trkpt>
      <trkpt lat="44.34736" lon="2.4892">
        <ele>585</ele>
        <time>2012-12-30T15:24:25Z</time>
      </trkpt>
      <trkpt lat="44.34739" lon="2.48907">
        <ele>590</ele>
        <time>2012-12-30T15:24:34Z</time>
      </trkpt>
      <trkpt lat="44.34742" lon="2.489">
        <ele>589</ele>
        <time>2012-12-30T15:24:38Z</time>
      </trkpt>
      <trkpt lat="44.3475" lon="2.48889">
        <ele>588</ele>
        <time>2012-12-30T15:24:45Z</time>
      </trkpt>
      <trkpt lat="44.34757" lon="2.48882">
        <ele>587</ele>
        <time>2012-12-30T15:24:51Z</time>
      </trkpt>
      <trkpt lat="44.3476" lon="2.48877">
        <ele>588</ele>
        <time>2012-12-30T15:24:54Z</time>
      </trkpt>
      <trkpt lat="44.34766" lon="2.4887">
        <ele>588</ele>
        <time>2012-12-30T15:25:00Z</time>
      </trkpt>
      <trkpt lat="44.34774" lon="2.48862">
        <ele>589</ele>
        <time>2012-12-30T15:25:07Z</time>
      </trkpt>
      <trkpt lat="44.34778" lon="2.48858">
        <ele>589</ele>
        <time>2012-12-30T15:25:10Z</time>
      </trkpt>
      <trkpt lat="44.34782" lon="2.48855">
        <ele>588</ele>
        <time>2012-12-30T15:25:14Z</time>
      </trkpt>
      <trkpt lat="44.34787" lon="2.4885">
        <ele>588</ele>
        <time>2012-12-30T15:25:17Z</time>
      </trkpt>
      <trkpt lat="44.34792" lon="2.48846">
        <ele>589</ele>
        <time>2012-12-30T15:25:20Z</time>
      </trkpt>
      <trkpt lat="44.34796" lon="2.4884">
        <ele>591</ele>
        <time>2012-12-30T15:25:24Z</time>
      </trkpt>
      <trkpt lat="44.34801" lon="2.48837">
        <ele>592</ele>
        <time>2012-12-30T15:25:27Z</time>
      </trkpt>
      <trkpt lat="44.34805" lon="2.48834">
        <ele>593</ele>
        <time>2012-12-30T15:25:31Z</time>
      </trkpt>
      <trkpt lat="44.34809" lon="2.4883">
        <ele>595</ele>
        <time>2012-12-30T15:25:35Z</time>
      </trkpt>
      <trkpt lat="44.34814" lon="2.48828">
        <ele>595</ele>
        <time>2012-12-30T15:25:39Z</time>
      </trkpt>
      <trkpt lat="44.34818" lon="2.48827">
        <ele>595</ele>
        <time>2012-12-30T15:25:43Z</time>
      </trkpt>
      <trkpt lat="44.34823" lon="2.48827">
        <ele>595</ele>
        <time>2012-12-30T15:25:46Z</time>
      </trkpt>
      <trkpt lat="44.34832" lon="2.48826">
        <ele>595</ele>
        <time>2012-12-30T15:25:51Z</time>
      </trkpt>
      <trkpt lat="44.34844" lon="2.48825">
        <ele>596</ele>
        <time>2012-12-30T15:25:57Z</time>
      </trkpt>
      <trkpt lat="44.34854" lon="2.48824">
        <ele>596</ele>
        <time>2012-12-30T15:26:00Z</time>
      </trkpt>
      <trkpt lat="44.34864" lon="2.48822">
        <ele>597</ele>
        <time>2012-12-30T15:26:05Z</time>
      </trkpt>
      <trkpt lat="44.34873" lon="2.48819">
        <ele>598</ele>
        <time>2012-12-30T15:26:09Z</time>
      </trkpt>
      <trkpt lat="44.34882" lon="2.48816">
        <ele>597</ele>
        <time>2012-12-30T15:26:14Z</time>
      </trkpt>
      <trkpt lat="44.34892" lon="2.48811">
        <ele>598</ele>
        <time>2012-12-30T15:26:20Z</time>
      </trkpt>
      <trkpt lat="44.34901" lon="2.48808">
        <ele>599</ele>
        <time>2012-12-30T15:26:27Z</time>
      </trkpt>
      <trkpt lat="44.34906" lon="2.48808">
        <ele>600</ele>
        <time>2012-12-30T15:26:31Z</time>
      </trkpt>
      <trkpt lat="44.34911" lon="2.48807">
        <ele>602</ele>
        <time>2012-12-30T15:26:36Z</time>
      </trkpt>
      <trkpt lat="44.34918" lon="2.48817">
        <ele>605</ele>
        <time>2012-12-30T15:26:43Z</time>
      </trkpt>
      <trkpt lat="44.34909" lon="2.48823">
        <ele>606</ele>
        <time>2012-12-30T15:26:53Z</time>
      </trkpt>
      <trkpt lat="44.34906" lon="2.48828">
        <ele>606</ele>
        <time>2012-12-30T15:26:56Z</time>
      </trkpt>
      <trkpt lat="44.34902" lon="2.48833">
        <ele>607</ele>
        <time>2012-12-30T15:27:01Z</time>
      </trkpt>
      <trkpt lat="44.34894" lon="2.48842">
        <ele>609</ele>
        <time>2012-12-30T15:27:10Z</time>
      </trkpt>
      <trkpt lat="44.34886" lon="2.48847">
        <ele>609</ele>
        <time>2012-12-30T15:27:15Z</time>
      </trkpt>
      <trkpt lat="44.34877" lon="2.48853">
        <ele>609</ele>
        <time>2012-12-30T15:27:20Z</time>
      </trkpt>
      <trkpt lat="44.34872" lon="2.48854">
        <ele>610</ele>
        <time>2012-12-30T15:27:22Z</time>
      </trkpt>
      <trkpt lat="44.34865" lon="2.48859">
        <ele>611</ele>
        <time>2012-12-30T15:27:26Z</time>
      </trkpt>
      <trkpt lat="44.34858" lon="2.48861">
        <ele>613</ele>
        <time>2012-12-30T15:27:35Z</time>
      </trkpt>
      <trkpt lat="44.34852" lon="2.48864">
        <ele>611</ele>
        <time>2012-12-30T15:27:49Z</time>
      </trkpt>
      <trkpt lat="44.34851" lon="2.48867">
        <ele>608</ele>
        <time>2012-12-30T15:28:10Z</time>
      </trkpt>
      <trkpt lat="44.34853" lon="2.48878">
        <ele>612</ele>
        <time>2012-12-30T15:30:37Z</time>
      </trkpt>
      <trkpt lat="44.3485" lon="2.48875">
        <ele>612</ele>
        <time>2012-12-30T15:30:45Z</time>
      </trkpt>
      <trkpt lat="44.34853" lon="2.48872">
        <ele>612</ele>
        <time>2012-12-30T15:31:05Z</time>
      </trkpt>
      <trkpt lat="44.34857" lon="2.48875">
        <ele>611</ele>
        <time>2012-12-30T15:32:30Z</time>
      </trkpt>
      <trkpt lat="44.34852" lon="2.48882">
        <ele>612</ele>
        <time>2012-12-30T15:34:04Z</time>
      </trkpt>
    </trkseg>
  </trk>
</gpx>